<?xml version='1.0' encoding='UTF-8'?>
<gpx version="1.1" creator="https://www.komoot.de" xmlns="http://www.topografix.com/GPX/1/1" xmlns:xsi="http://www.w3.org/2001/XMLSchema-instance" xsi:schemaLocation="http://www.topografix.com/GPX/1/1 http://www.topografix.com/GPX/1/1/gpx.xsd">
  <metadata>
    <name>46_700Haenner</name>
    <author>
      <link href="https://www.komoot.de">
        <text>komoot</text>
        <type>text/html</type>
      </link>
    </author>
  </metadata>
  <trk>
    <name>46_700Haenner</name>
    <trkseg>
      <trkpt lat="47.541096" lon="7.871052">
        <ele>340.900054</ele>
        <time>2021-11-07T15:46:16.289Z</time>
      </trkpt>
      <trkpt lat="47.541096" lon="7.871052">
        <ele>340.900054</ele>
        <time>2021-11-07T15:46:16.294Z</time>
      </trkpt>
      <trkpt lat="47.541953" lon="7.871286">
        <ele>340.900054</ele>
        <time>2021-11-07T15:46:32.444Z</time>
      </trkpt>
      <trkpt lat="47.541953" lon="7.871286">
        <ele>340.900054</ele>
        <time>2021-11-07T15:46:32.457Z</time>
      </trkpt>
      <trkpt lat="47.542039" lon="7.871556">
        <ele>341.536620</ele>
        <time>2021-11-07T15:46:37.042Z</time>
      </trkpt>
      <trkpt lat="47.542067" lon="7.871664">
        <ele>341.822912</ele>
        <time>2021-11-07T15:46:38.522Z</time>
      </trkpt>
      <trkpt lat="47.542091" lon="7.871721">
        <ele>341.989154</ele>
        <time>2021-11-07T15:46:39.105Z</time>
      </trkpt>
      <trkpt lat="47.542218" lon="7.871866">
        <ele>342.576944</ele>
        <time>2021-11-07T15:46:44.417Z</time>
      </trkpt>
      <trkpt lat="47.542394" lon="7.872341">
        <ele>343.917807</ele>
        <time>2021-11-07T15:46:54.480Z</time>
      </trkpt>
      <trkpt lat="47.542436" lon="7.872494">
        <ele>344.326529</ele>
        <time>2021-11-07T15:46:57.817Z</time>
      </trkpt>
      <trkpt lat="47.542537" lon="7.872430">
        <ele>344.729228</ele>
        <time>2021-11-07T15:46:59.843Z</time>
      </trkpt>
      <trkpt lat="47.542714" lon="7.872334">
        <ele>345.420201</ele>
        <time>2021-11-07T15:47:06.951Z</time>
      </trkpt>
      <trkpt lat="47.542814" lon="7.872280">
        <ele>345.810380</ele>
        <time>2021-11-07T15:47:09.831Z</time>
      </trkpt>
      <trkpt lat="47.542919" lon="7.872226">
        <ele>346.217827</ele>
        <time>2021-11-07T15:47:13.684Z</time>
      </trkpt>
      <trkpt lat="47.543013" lon="7.872182">
        <ele>346.579208</ele>
        <time>2021-11-07T15:47:17.314Z</time>
      </trkpt>
      <trkpt lat="47.543233" lon="7.872082">
        <ele>347.422801</ele>
        <time>2021-11-07T15:47:24.412Z</time>
      </trkpt>
      <trkpt lat="47.543251" lon="7.872152">
        <ele>347.692006</ele>
        <time>2021-11-07T15:47:27.826Z</time>
      </trkpt>
      <trkpt lat="47.543332" lon="7.872237">
        <ele>348.322138</ele>
        <time>2021-11-07T15:47:31.237Z</time>
      </trkpt>
      <trkpt lat="47.544390" lon="7.872423">
        <ele>355.085544</ele>
        <time>2021-11-07T15:48:12.868Z</time>
      </trkpt>
      <trkpt lat="47.544883" lon="7.872555">
        <ele>358.265856</ele>
        <time>2021-11-07T15:48:35.211Z</time>
      </trkpt>
      <trkpt lat="47.545131" lon="7.872664">
        <ele>359.967694</ele>
        <time>2021-11-07T15:48:46.215Z</time>
      </trkpt>
      <trkpt lat="47.545375" lon="7.872836">
        <ele>361.785783</ele>
        <time>2021-11-07T15:48:57.389Z</time>
      </trkpt>
      <trkpt lat="47.545478" lon="7.872968">
        <ele>362.702121</ele>
        <time>2021-11-07T15:49:04.415Z</time>
      </trkpt>
      <trkpt lat="47.545515" lon="7.873015">
        <ele>363.030053</ele>
        <time>2021-11-07T15:49:06.449Z</time>
      </trkpt>
      <trkpt lat="47.545746" lon="7.873302">
        <ele>365.058517</ele>
        <time>2021-11-07T15:49:19.673Z</time>
      </trkpt>
      <trkpt lat="47.545934" lon="7.873549">
        <ele>366.749207</ele>
        <time>2021-11-07T15:49:29.423Z</time>
      </trkpt>
      <trkpt lat="47.546077" lon="7.873763">
        <ele>368.116809</ele>
        <time>2021-11-07T15:49:38.502Z</time>
      </trkpt>
      <trkpt lat="47.546135" lon="7.873859">
        <ele>368.701943</ele>
        <time>2021-11-07T15:49:41.726Z</time>
      </trkpt>
      <trkpt lat="47.546309" lon="7.874154">
        <ele>370.481154</ele>
        <time>2021-11-07T15:49:52.834Z</time>
      </trkpt>
      <trkpt lat="47.546539" lon="7.874618">
        <ele>372.198886</ele>
        <time>2021-11-07T15:50:07.492Z</time>
      </trkpt>
      <trkpt lat="47.546890" lon="7.875324">
        <ele>374.466098</ele>
        <time>2021-11-07T15:50:26.472Z</time>
      </trkpt>
      <trkpt lat="47.547126" lon="7.875801">
        <ele>375.995300</ele>
        <time>2021-11-07T15:50:38.535Z</time>
      </trkpt>
      <trkpt lat="47.547574" lon="7.876801">
        <ele>377.718135</ele>
        <time>2021-11-07T15:50:57.000Z</time>
      </trkpt>
      <trkpt lat="47.547992" lon="7.877974">
        <ele>377.186440</ele>
        <time>2021-11-07T15:51:10.281Z</time>
      </trkpt>
      <trkpt lat="47.548234" lon="7.878638">
        <ele>376.883959</ele>
        <time>2021-11-07T15:51:15.592Z</time>
      </trkpt>
      <trkpt lat="47.548422" lon="7.878959">
        <ele>376.012080</ele>
        <time>2021-11-07T15:51:18.437Z</time>
      </trkpt>
      <trkpt lat="47.548718" lon="7.879258">
        <ele>374.572638</ele>
        <time>2021-11-07T15:51:21.975Z</time>
      </trkpt>
      <trkpt lat="47.548919" lon="7.879321">
        <ele>373.747155</ele>
        <time>2021-11-07T15:51:23.952Z</time>
      </trkpt>
      <trkpt lat="47.549140" lon="7.879391">
        <ele>372.839123</ele>
        <time>2021-11-07T15:51:26.178Z</time>
      </trkpt>
      <trkpt lat="47.549199" lon="7.879393">
        <ele>372.602002</ele>
        <time>2021-11-07T15:51:26.703Z</time>
      </trkpt>
      <trkpt lat="47.549318" lon="7.879398">
        <ele>372.123674</ele>
        <time>2021-11-07T15:51:27.810Z</time>
      </trkpt>
      <trkpt lat="47.549327" lon="7.879547">
        <ele>371.717980</ele>
        <time>2021-11-07T15:51:28.790Z</time>
      </trkpt>
      <trkpt lat="47.549726" lon="7.880786">
        <ele>368.162923</ele>
        <time>2021-11-07T15:51:37.765Z</time>
      </trkpt>
      <trkpt lat="47.549864" lon="7.881269">
        <ele>366.888549</ele>
        <time>2021-11-07T15:51:41.215Z</time>
      </trkpt>
      <trkpt lat="47.549927" lon="7.881490">
        <ele>366.305651</ele>
        <time>2021-11-07T15:51:42.799Z</time>
      </trkpt>
      <trkpt lat="47.550146" lon="7.882724">
        <ele>363.205466</ele>
        <time>2021-11-07T15:51:51.821Z</time>
      </trkpt>
      <trkpt lat="47.550234" lon="7.883221">
        <ele>361.724965</ele>
        <time>2021-11-07T15:51:55.249Z</time>
      </trkpt>
      <trkpt lat="47.550332" lon="7.884727">
        <ele>357.323720</ele>
        <time>2021-11-07T15:52:05.062Z</time>
      </trkpt>
      <trkpt lat="47.550391" lon="7.885109">
        <ele>356.183766</ele>
        <time>2021-11-07T15:52:07.580Z</time>
      </trkpt>
      <trkpt lat="47.550548" lon="7.885799">
        <ele>353.658385</ele>
        <time>2021-11-07T15:52:12.176Z</time>
      </trkpt>
      <trkpt lat="47.550677" lon="7.886476">
        <ele>350.978785</ele>
        <time>2021-11-07T15:52:16.606Z</time>
      </trkpt>
      <trkpt lat="47.550758" lon="7.887295">
        <ele>347.825774</ele>
        <time>2021-11-07T15:52:21.748Z</time>
      </trkpt>
      <trkpt lat="47.550789" lon="7.887816">
        <ele>345.833511</ele>
        <time>2021-11-07T15:52:24.980Z</time>
      </trkpt>
      <trkpt lat="47.550831" lon="7.888611">
        <ele>342.525801</ele>
        <time>2021-11-07T15:52:29.936Z</time>
      </trkpt>
      <trkpt lat="47.550833" lon="7.889069">
        <ele>340.587557</ele>
        <time>2021-11-07T15:52:32.746Z</time>
      </trkpt>
      <trkpt lat="47.550915" lon="7.890600">
        <ele>334.088176</ele>
        <time>2021-11-07T15:52:42.139Z</time>
      </trkpt>
      <trkpt lat="47.550904" lon="7.891725">
        <ele>330.749621</ele>
        <time>2021-11-07T15:52:49.143Z</time>
      </trkpt>
      <trkpt lat="47.550892" lon="7.893176">
        <ele>326.497448</ele>
        <time>2021-11-07T15:52:58.755Z</time>
      </trkpt>
      <trkpt lat="47.550908" lon="7.894308">
        <ele>325.275664</ele>
        <time>2021-11-07T15:53:07.967Z</time>
      </trkpt>
      <trkpt lat="47.550878" lon="7.895158">
        <ele>324.545159</ele>
        <time>2021-11-07T15:53:15.151Z</time>
      </trkpt>
      <trkpt lat="47.550838" lon="7.895509">
        <ele>324.239651</ele>
        <time>2021-11-07T15:53:18.312Z</time>
      </trkpt>
      <trkpt lat="47.550767" lon="7.895809">
        <ele>323.966807</ele>
        <time>2021-11-07T15:53:21.161Z</time>
      </trkpt>
      <trkpt lat="47.550660" lon="7.896255">
        <ele>323.293128</ele>
        <time>2021-11-07T15:53:24.909Z</time>
      </trkpt>
      <trkpt lat="47.550639" lon="7.896345">
        <ele>323.137592</ele>
        <time>2021-11-07T15:53:26.142Z</time>
      </trkpt>
      <trkpt lat="47.550648" lon="7.896481">
        <ele>322.914393</ele>
        <time>2021-11-07T15:53:27.107Z</time>
      </trkpt>
      <trkpt lat="47.550819" lon="7.898109">
        <ele>320.223317</ele>
        <time>2021-11-07T15:53:39.062Z</time>
      </trkpt>
      <trkpt lat="47.550807" lon="7.899610">
        <ele>316.413748</ele>
        <time>2021-11-07T15:53:48.828Z</time>
      </trkpt>
      <trkpt lat="47.550801" lon="7.900244">
        <ele>314.566484</ele>
        <time>2021-11-07T15:53:52.900Z</time>
      </trkpt>
      <trkpt lat="47.550769" lon="7.901362">
        <ele>311.359889</ele>
        <time>2021-11-07T15:54:00.148Z</time>
      </trkpt>
      <trkpt lat="47.550757" lon="7.901591">
        <ele>310.773246</ele>
        <time>2021-11-07T15:54:02.266Z</time>
      </trkpt>
      <trkpt lat="47.550688" lon="7.902451">
        <ele>308.561277</ele>
        <time>2021-11-07T15:54:10.550Z</time>
      </trkpt>
      <trkpt lat="47.550498" lon="7.903445">
        <ele>305.922673</ele>
        <time>2021-11-07T15:54:20.800Z</time>
      </trkpt>
      <trkpt lat="47.550302" lon="7.904164">
        <ele>303.905951</ele>
        <time>2021-11-07T15:54:28.060Z</time>
      </trkpt>
      <trkpt lat="47.550025" lon="7.904774">
        <ele>301.959591</ele>
        <time>2021-11-07T15:54:34.973Z</time>
      </trkpt>
      <trkpt lat="47.549868" lon="7.905010">
        <ele>301.082342</ele>
        <time>2021-11-07T15:54:38.093Z</time>
      </trkpt>
      <trkpt lat="47.549867" lon="7.905155">
        <ele>300.698453</ele>
        <time>2021-11-07T15:54:39.484Z</time>
      </trkpt>
      <trkpt lat="47.550067" lon="7.905245">
        <ele>299.878602</ele>
        <time>2021-11-07T15:54:42.408Z</time>
      </trkpt>
      <trkpt lat="47.550283" lon="7.905413">
        <ele>298.921734</ele>
        <time>2021-11-07T15:54:45.858Z</time>
      </trkpt>
      <trkpt lat="47.550497" lon="7.905558">
        <ele>297.998744</ele>
        <time>2021-11-07T15:54:49.216Z</time>
      </trkpt>
      <trkpt lat="47.550179" lon="7.906576">
        <ele>296.007567</ele>
        <time>2021-11-07T15:54:56.763Z</time>
      </trkpt>
      <trkpt lat="47.550022" lon="7.907077">
        <ele>295.047335</ele>
        <time>2021-11-07T15:55:00.511Z</time>
      </trkpt>
      <trkpt lat="47.549539" lon="7.908625">
        <ele>292.735937</ele>
        <time>2021-11-07T15:55:14.349Z</time>
      </trkpt>
      <trkpt lat="47.549520" lon="7.908678">
        <ele>292.690181</ele>
        <time>2021-11-07T15:55:14.857Z</time>
      </trkpt>
      <trkpt lat="47.549343" lon="7.909265">
        <ele>292.199999</ele>
        <time>2021-11-07T15:55:20.113Z</time>
      </trkpt>
      <trkpt lat="47.549232" lon="7.909631">
        <ele>291.894070</ele>
        <time>2021-11-07T15:55:23.427Z</time>
      </trkpt>
      <trkpt lat="47.549195" lon="7.909756">
        <ele>291.790003</ele>
        <time>2021-11-07T15:55:24.507Z</time>
      </trkpt>
      <trkpt lat="47.549102" lon="7.910058">
        <ele>291.536912</ele>
        <time>2021-11-07T15:55:27.235Z</time>
      </trkpt>
      <trkpt lat="47.549012" lon="7.910340">
        <ele>291.299079</ele>
        <time>2021-11-07T15:55:29.731Z</time>
      </trkpt>
      <trkpt lat="47.548412" lon="7.912168">
        <ele>289.785821</ele>
        <time>2021-11-07T15:55:46.062Z</time>
      </trkpt>
      <trkpt lat="47.548027" lon="7.913334">
        <ele>289.098580</ele>
        <time>2021-11-07T15:55:56.823Z</time>
      </trkpt>
      <trkpt lat="47.547994" lon="7.913433">
        <ele>289.071753</ele>
        <time>2021-11-07T15:55:57.744Z</time>
      </trkpt>
      <trkpt lat="47.547423" lon="7.915080">
        <ele>288.621890</ele>
        <time>2021-11-07T15:56:15.232Z</time>
      </trkpt>
      <trkpt lat="47.547113" lon="7.915971">
        <ele>288.859300</ele>
        <time>2021-11-07T15:56:25.870Z</time>
      </trkpt>
      <trkpt lat="47.547091" lon="7.916039">
        <ele>288.883416</ele>
        <time>2021-11-07T15:56:26.920Z</time>
      </trkpt>
      <trkpt lat="47.547032" lon="7.916218">
        <ele>288.947123</ele>
        <time>2021-11-07T15:56:29.191Z</time>
      </trkpt>
      <trkpt lat="47.546821" lon="7.916867">
        <ele>289.177502</ele>
        <time>2021-11-07T15:56:37.606Z</time>
      </trkpt>
      <trkpt lat="47.546262" lon="7.919081">
        <ele>289.805947</ele>
        <time>2021-11-07T15:57:05.267Z</time>
      </trkpt>
      <trkpt lat="47.546128" lon="7.919617">
        <ele>289.941678</ele>
        <time>2021-11-07T15:57:10.695Z</time>
      </trkpt>
      <trkpt lat="47.545973" lon="7.920313">
        <ele>290.202499</ele>
        <time>2021-11-07T15:57:18.114Z</time>
      </trkpt>
      <trkpt lat="47.545913" lon="7.920765">
        <ele>290.523966</ele>
        <time>2021-11-07T15:57:22.872Z</time>
      </trkpt>
      <trkpt lat="47.545881" lon="7.921096">
        <ele>290.757309</ele>
        <time>2021-11-07T15:57:26.839Z</time>
      </trkpt>
      <trkpt lat="47.545810" lon="7.921755">
        <ele>291.223009</ele>
        <time>2021-11-07T15:57:35.449Z</time>
      </trkpt>
      <trkpt lat="47.545778" lon="7.921947">
        <ele>291.361019</ele>
        <time>2021-11-07T15:57:38.402Z</time>
      </trkpt>
      <trkpt lat="47.545714" lon="7.922249">
        <ele>291.581911</ele>
        <time>2021-11-07T15:57:42.256Z</time>
      </trkpt>
      <trkpt lat="47.545699" lon="7.922325">
        <ele>291.637168</ele>
        <time>2021-11-07T15:57:43.453Z</time>
      </trkpt>
      <trkpt lat="47.545690" lon="7.922369">
        <ele>291.669252</ele>
        <time>2021-11-07T15:57:44.525Z</time>
      </trkpt>
      <trkpt lat="47.545641" lon="7.922610">
        <ele>291.844897</ele>
        <time>2021-11-07T15:57:47.880Z</time>
      </trkpt>
      <trkpt lat="47.545587" lon="7.922895">
        <ele>292.338217</ele>
        <time>2021-11-07T15:57:52.712Z</time>
      </trkpt>
      <trkpt lat="47.545553" lon="7.923142">
        <ele>292.931014</ele>
        <time>2021-11-07T15:57:56.323Z</time>
      </trkpt>
      <trkpt lat="47.545536" lon="7.923407">
        <ele>293.556992</ele>
        <time>2021-11-07T15:58:01.199Z</time>
      </trkpt>
      <trkpt lat="47.545521" lon="7.923709">
        <ele>294.269092</ele>
        <time>2021-11-07T15:58:06.366Z</time>
      </trkpt>
      <trkpt lat="47.545481" lon="7.924396">
        <ele>295.890633</ele>
        <time>2021-11-07T15:58:20.969Z</time>
      </trkpt>
      <trkpt lat="47.545466" lon="7.924880">
        <ele>297.030002</ele>
        <time>2021-11-07T15:58:32.275Z</time>
      </trkpt>
      <trkpt lat="47.545446" lon="7.925350">
        <ele>298.137445</ele>
        <time>2021-11-07T15:58:42.647Z</time>
      </trkpt>
      <trkpt lat="47.545417" lon="7.925848">
        <ele>299.013492</ele>
        <time>2021-11-07T15:58:53.126Z</time>
      </trkpt>
      <trkpt lat="47.545409" lon="7.926773">
        <ele>300.605435</ele>
        <time>2021-11-07T15:59:10.332Z</time>
      </trkpt>
      <trkpt lat="47.545409" lon="7.926773">
        <ele>300.605435</ele>
        <time>2021-11-07T15:59:10.494Z</time>
      </trkpt>
      <trkpt lat="47.545409" lon="7.926773">
        <ele>300.605435</ele>
        <time>2021-11-07T15:59:10.918Z</time>
      </trkpt>
      <trkpt lat="47.545407" lon="7.927001">
        <ele>300.997828</ele>
        <time>2021-11-07T15:59:14.730Z</time>
      </trkpt>
      <trkpt lat="47.545406" lon="7.927306">
        <ele>301.522702</ele>
        <time>2021-11-07T15:59:19.330Z</time>
      </trkpt>
      <trkpt lat="47.545421" lon="7.927686">
        <ele>302.177753</ele>
        <time>2021-11-07T15:59:24.868Z</time>
      </trkpt>
      <trkpt lat="47.545475" lon="7.928419">
        <ele>302.470252</ele>
        <time>2021-11-07T15:59:34.180Z</time>
      </trkpt>
      <trkpt lat="47.545563" lon="7.929641">
        <ele>301.477755</ele>
        <time>2021-11-07T15:59:44.059Z</time>
      </trkpt>
      <trkpt lat="47.545661" lon="7.930955">
        <ele>300.373561</ele>
        <time>2021-11-07T15:59:53.455Z</time>
      </trkpt>
      <trkpt lat="47.545696" lon="7.931497">
        <ele>299.860817</ele>
        <time>2021-11-07T15:59:57.423Z</time>
      </trkpt>
      <trkpt lat="47.545721" lon="7.931992">
        <ele>299.393360</ele>
        <time>2021-11-07T16:00:01.216Z</time>
      </trkpt>
      <trkpt lat="47.545724" lon="7.932758">
        <ele>298.671988</ele>
        <time>2021-11-07T16:00:07.425Z</time>
      </trkpt>
      <trkpt lat="47.545702" lon="7.933290">
        <ele>298.170052</ele>
        <time>2021-11-07T16:00:12.068Z</time>
      </trkpt>
      <trkpt lat="47.545674" lon="7.933625">
        <ele>298.280674</ele>
        <time>2021-11-07T16:00:15.269Z</time>
      </trkpt>
      <trkpt lat="47.545457" lon="7.935110">
        <ele>299.132486</ele>
        <time>2021-11-07T16:00:33.403Z</time>
      </trkpt>
      <trkpt lat="47.545074" lon="7.936484">
        <ele>300.367319</ele>
        <time>2021-11-07T16:00:55.210Z</time>
      </trkpt>
      <trkpt lat="47.544903" lon="7.936917">
        <ele>300.969993</ele>
        <time>2021-11-07T16:01:02.707Z</time>
      </trkpt>
      <trkpt lat="47.544705" lon="7.937395">
        <ele>301.643747</ele>
        <time>2021-11-07T16:01:10.940Z</time>
      </trkpt>
      <trkpt lat="47.544472" lon="7.937932">
        <ele>302.410662</ele>
        <time>2021-11-07T16:01:20.281Z</time>
      </trkpt>
      <trkpt lat="47.544460" lon="7.937961">
        <ele>302.451527</ele>
        <time>2021-11-07T16:01:21.128Z</time>
      </trkpt>
      <trkpt lat="47.543826" lon="7.939433">
        <ele>304.513331</ele>
        <time>2021-11-07T16:01:47.670Z</time>
      </trkpt>
      <trkpt lat="47.543435" lon="7.940670">
        <ele>306.008351</ele>
        <time>2021-11-07T16:02:07.160Z</time>
      </trkpt>
      <trkpt lat="47.543376" lon="7.941000">
        <ele>306.145106</ele>
        <time>2021-11-07T16:02:11.834Z</time>
      </trkpt>
      <trkpt lat="47.543161" lon="7.942213">
        <ele>306.647505</ele>
        <time>2021-11-07T16:02:27.781Z</time>
      </trkpt>
      <trkpt lat="47.543007" lon="7.943867">
        <ele>306.216859</ele>
        <time>2021-11-07T16:02:43.171Z</time>
      </trkpt>
      <trkpt lat="47.542962" lon="7.944529">
        <ele>305.501300</ele>
        <time>2021-11-07T16:02:48.555Z</time>
      </trkpt>
      <trkpt lat="47.542913" lon="7.945267">
        <ele>304.703777</ele>
        <time>2021-11-07T16:02:53.985Z</time>
      </trkpt>
      <trkpt lat="47.542872" lon="7.945781">
        <ele>304.144317</ele>
        <time>2021-11-07T16:02:57.581Z</time>
      </trkpt>
      <trkpt lat="47.542875" lon="7.946089">
        <ele>303.634437</ele>
        <time>2021-11-07T16:02:59.671Z</time>
      </trkpt>
      <trkpt lat="47.542902" lon="7.946514">
        <ele>302.927834</ele>
        <time>2021-11-07T16:03:02.551Z</time>
      </trkpt>
      <trkpt lat="47.542943" lon="7.946806">
        <ele>302.434146</ele>
        <time>2021-11-07T16:03:04.599Z</time>
      </trkpt>
      <trkpt lat="47.542974" lon="7.946965">
        <ele>302.160199</ele>
        <time>2021-11-07T16:03:05.812Z</time>
      </trkpt>
      <trkpt lat="47.542979" lon="7.946989">
        <ele>302.118624</ele>
        <time>2021-11-07T16:03:05.968Z</time>
      </trkpt>
      <trkpt lat="47.543007" lon="7.947104">
        <ele>301.916263</ele>
        <time>2021-11-07T16:03:06.817Z</time>
      </trkpt>
      <trkpt lat="47.543087" lon="7.947317">
        <ele>301.512789</ele>
        <time>2021-11-07T16:03:08.561Z</time>
      </trkpt>
      <trkpt lat="47.543191" lon="7.947615">
        <ele>300.957493</ele>
        <time>2021-11-07T16:03:11.003Z</time>
      </trkpt>
      <trkpt lat="47.543242" lon="7.947745">
        <ele>300.708607</ele>
        <time>2021-11-07T16:03:12.133Z</time>
      </trkpt>
      <trkpt lat="47.543273" lon="7.947816">
        <ele>300.568641</ele>
        <time>2021-11-07T16:03:12.760Z</time>
      </trkpt>
      <trkpt lat="47.543358" lon="7.947967">
        <ele>300.243194</ele>
        <time>2021-11-07T16:03:14.203Z</time>
      </trkpt>
      <trkpt lat="47.543455" lon="7.948127">
        <ele>299.887220</ele>
        <time>2021-11-07T16:03:15.870Z</time>
      </trkpt>
      <trkpt lat="47.543532" lon="7.948214">
        <ele>299.733330</ele>
        <time>2021-11-07T16:03:16.990Z</time>
      </trkpt>
      <trkpt lat="47.543579" lon="7.948287">
        <ele>299.717848</ele>
        <time>2021-11-07T16:03:17.748Z</time>
      </trkpt>
      <trkpt lat="47.543760" lon="7.948548">
        <ele>299.660422</ele>
        <time>2021-11-07T16:03:20.656Z</time>
      </trkpt>
      <trkpt lat="47.543864" lon="7.948694">
        <ele>299.627847</ele>
        <time>2021-11-07T16:03:22.345Z</time>
      </trkpt>
      <trkpt lat="47.544239" lon="7.949202">
        <ele>299.512319</ele>
        <time>2021-11-07T16:03:29.612Z</time>
      </trkpt>
      <trkpt lat="47.544521" lon="7.949558">
        <ele>299.428086</ele>
        <time>2021-11-07T16:03:35.776Z</time>
      </trkpt>
      <trkpt lat="47.544560" lon="7.949608">
        <ele>299.416360</ele>
        <time>2021-11-07T16:03:36.687Z</time>
      </trkpt>
      <trkpt lat="47.544901" lon="7.950044">
        <ele>299.354319</ele>
        <time>2021-11-07T16:03:44.945Z</time>
      </trkpt>
      <trkpt lat="47.544952" lon="7.950106">
        <ele>299.371194</ele>
        <time>2021-11-07T16:03:46.334Z</time>
      </trkpt>
      <trkpt lat="47.545166" lon="7.950366">
        <ele>299.441985</ele>
        <time>2021-11-07T16:03:51.287Z</time>
      </trkpt>
      <trkpt lat="47.545434" lon="7.950668">
        <ele>299.528113</ele>
        <time>2021-11-07T16:03:57.100Z</time>
      </trkpt>
      <trkpt lat="47.545542" lon="7.950842">
        <ele>299.568925</ele>
        <time>2021-11-07T16:03:59.617Z</time>
      </trkpt>
      <trkpt lat="47.545667" lon="7.950979">
        <ele>299.608697</ele>
        <time>2021-11-07T16:04:02.175Z</time>
      </trkpt>
      <trkpt lat="47.545737" lon="7.951055">
        <ele>299.630895</ele>
        <time>2021-11-07T16:04:03.373Z</time>
      </trkpt>
      <trkpt lat="47.545876" lon="7.951233">
        <ele>299.677891</ele>
        <time>2021-11-07T16:04:06.129Z</time>
      </trkpt>
      <trkpt lat="47.546112" lon="7.951485">
        <ele>299.752301</ele>
        <time>2021-11-07T16:04:10.240Z</time>
      </trkpt>
      <trkpt lat="47.546164" lon="7.951520">
        <ele>299.766910</ele>
        <time>2021-11-07T16:04:11.053Z</time>
      </trkpt>
      <trkpt lat="47.546212" lon="7.951535">
        <ele>299.779458</ele>
        <time>2021-11-07T16:04:11.744Z</time>
      </trkpt>
      <trkpt lat="47.546231" lon="7.951558">
        <ele>299.785734</ele>
        <time>2021-11-07T16:04:12.055Z</time>
      </trkpt>
      <trkpt lat="47.546421" lon="7.951793">
        <ele>299.700044</ele>
        <time>2021-11-07T16:04:15.328Z</time>
      </trkpt>
      <trkpt lat="47.546634" lon="7.952024">
        <ele>299.588015</ele>
        <time>2021-11-07T16:04:18.757Z</time>
      </trkpt>
      <trkpt lat="47.546695" lon="7.952091">
        <ele>299.555787</ele>
        <time>2021-11-07T16:04:19.721Z</time>
      </trkpt>
      <trkpt lat="47.546776" lon="7.952185">
        <ele>299.512120</ele>
        <time>2021-11-07T16:04:21.071Z</time>
      </trkpt>
      <trkpt lat="47.546935" lon="7.952372">
        <ele>299.425962</ele>
        <time>2021-11-07T16:04:23.719Z</time>
      </trkpt>
      <trkpt lat="47.547090" lon="7.952543">
        <ele>299.343945</ele>
        <time>2021-11-07T16:04:26.329Z</time>
      </trkpt>
      <trkpt lat="47.547400" lon="7.952910">
        <ele>299.175535</ele>
        <time>2021-11-07T16:04:31.720Z</time>
      </trkpt>
      <trkpt lat="47.547458" lon="7.952975">
        <ele>299.144670</ele>
        <time>2021-11-07T16:04:32.708Z</time>
      </trkpt>
      <trkpt lat="47.547550" lon="7.953078">
        <ele>299.095731</ele>
        <time>2021-11-07T16:04:34.313Z</time>
      </trkpt>
      <trkpt lat="47.547624" lon="7.953160">
        <ele>299.056512</ele>
        <time>2021-11-07T16:04:35.563Z</time>
      </trkpt>
      <trkpt lat="47.547797" lon="7.953355">
        <ele>298.927918</ele>
        <time>2021-11-07T16:04:38.571Z</time>
      </trkpt>
      <trkpt lat="47.547871" lon="7.953437">
        <ele>298.866911</ele>
        <time>2021-11-07T16:04:39.861Z</time>
      </trkpt>
      <trkpt lat="47.547994" lon="7.953584">
        <ele>298.762582</ele>
        <time>2021-11-07T16:04:42.043Z</time>
      </trkpt>
      <trkpt lat="47.548115" lon="7.953729">
        <ele>298.659840</ele>
        <time>2021-11-07T16:04:44.194Z</time>
      </trkpt>
      <trkpt lat="47.548251" lon="7.953895">
        <ele>298.543509</ele>
        <time>2021-11-07T16:04:46.592Z</time>
      </trkpt>
      <trkpt lat="47.548335" lon="7.953779">
        <ele>298.467699</ele>
        <time>2021-11-07T16:04:48.501Z</time>
      </trkpt>
      <trkpt lat="47.548514" lon="7.953684">
        <ele>298.342173</ele>
        <time>2021-11-07T16:04:52.120Z</time>
      </trkpt>
      <trkpt lat="47.549296" lon="7.953268">
        <ele>297.711565</ele>
        <time>2021-11-07T16:05:06.846Z</time>
      </trkpt>
      <trkpt lat="47.549442" lon="7.953195">
        <ele>297.438020</ele>
        <time>2021-11-07T16:05:09.396Z</time>
      </trkpt>
      <trkpt lat="47.549640" lon="7.953086">
        <ele>297.063046</ele>
        <time>2021-11-07T16:05:13.111Z</time>
      </trkpt>
      <trkpt lat="47.549673" lon="7.953076">
        <ele>297.003251</ele>
        <time>2021-11-07T16:05:13.670Z</time>
      </trkpt>
      <trkpt lat="47.549687" lon="7.953071">
        <ele>296.977686</ele>
        <time>2021-11-07T16:05:13.862Z</time>
      </trkpt>
      <trkpt lat="47.550567" lon="7.953069">
        <ele>295.415485</ele>
        <time>2021-11-07T16:05:28.045Z</time>
      </trkpt>
      <trkpt lat="47.550656" lon="7.953072">
        <ele>295.257449</ele>
        <time>2021-11-07T16:05:29.362Z</time>
      </trkpt>
      <trkpt lat="47.550967" lon="7.953063">
        <ele>294.705248</ele>
        <time>2021-11-07T16:05:34.127Z</time>
      </trkpt>
      <trkpt lat="47.551254" lon="7.952986">
        <ele>294.145133</ele>
        <time>2021-11-07T16:05:38.516Z</time>
      </trkpt>
      <trkpt lat="47.551295" lon="7.952900">
        <ele>294.007411</ele>
        <time>2021-11-07T16:05:39.579Z</time>
      </trkpt>
      <trkpt lat="47.551334" lon="7.952777">
        <ele>293.829657</ele>
        <time>2021-11-07T16:05:42.254Z</time>
      </trkpt>
      <trkpt lat="47.551339" lon="7.952761">
        <ele>293.806594</ele>
        <time>2021-11-07T16:05:42.625Z</time>
      </trkpt>
      <trkpt lat="47.551381" lon="7.952341">
        <ele>293.251232</ele>
        <time>2021-11-07T16:05:51.406Z</time>
      </trkpt>
      <trkpt lat="47.551506" lon="7.950255">
        <ele>291.089894</ele>
        <time>2021-11-07T16:06:36.943Z</time>
      </trkpt>
      <trkpt lat="47.551525" lon="7.950027">
        <ele>291.055958</ele>
        <time>2021-11-07T16:06:42.405Z</time>
      </trkpt>
      <trkpt lat="47.551581" lon="7.949830">
        <ele>291.024381</ele>
        <time>2021-11-07T16:06:47.570Z</time>
      </trkpt>
      <trkpt lat="47.551673" lon="7.949634">
        <ele>290.989114</ele>
        <time>2021-11-07T16:06:53.616Z</time>
      </trkpt>
      <trkpt lat="47.551794" lon="7.949387">
        <ele>290.944029</ele>
        <time>2021-11-07T16:07:01.217Z</time>
      </trkpt>
      <trkpt lat="47.552010" lon="7.949039">
        <ele>290.874189</ele>
        <time>2021-11-07T16:07:13.321Z</time>
      </trkpt>
      <trkpt lat="47.552049" lon="7.948982">
        <ele>290.862200</ele>
        <time>2021-11-07T16:07:15.533Z</time>
      </trkpt>
      <trkpt lat="47.552094" lon="7.948926">
        <ele>290.849337</ele>
        <time>2021-11-07T16:07:17.867Z</time>
      </trkpt>
      <trkpt lat="47.552202" lon="7.949003">
        <ele>290.823105</ele>
        <time>2021-11-07T16:07:22.473Z</time>
      </trkpt>
      <trkpt lat="47.552346" lon="7.949096">
        <ele>290.788724</ele>
        <time>2021-11-07T16:07:28.630Z</time>
      </trkpt>
      <trkpt lat="47.552351" lon="7.949099">
        <ele>290.787544</ele>
        <time>2021-11-07T16:07:28.855Z</time>
      </trkpt>
      <trkpt lat="47.552382" lon="7.949119">
        <ele>290.780143</ele>
        <time>2021-11-07T16:07:30.297Z</time>
      </trkpt>
      <trkpt lat="47.552518" lon="7.949236">
        <ele>290.751196</ele>
        <time>2021-11-07T16:07:36.548Z</time>
      </trkpt>
      <trkpt lat="47.552686" lon="7.949058">
        <ele>290.716268</ele>
        <time>2021-11-07T16:07:44.974Z</time>
      </trkpt>
      <trkpt lat="47.552905" lon="7.948826">
        <ele>290.670738</ele>
        <time>2021-11-07T16:07:55.586Z</time>
      </trkpt>
      <trkpt lat="47.552953" lon="7.948775">
        <ele>290.660749</ele>
        <time>2021-11-07T16:07:57.873Z</time>
      </trkpt>
      <trkpt lat="47.553197" lon="7.948543">
        <ele>290.611718</ele>
        <time>2021-11-07T16:08:08.737Z</time>
      </trkpt>
      <trkpt lat="47.553287" lon="7.948468">
        <ele>290.594255</ele>
        <time>2021-11-07T16:08:15.899Z</time>
      </trkpt>
      <trkpt lat="47.553368" lon="7.948399">
        <ele>290.578454</ele>
        <time>2021-11-07T16:08:22.376Z</time>
      </trkpt>
      <trkpt lat="47.553663" lon="7.949070">
        <ele>290.487050</ele>
        <time>2021-11-07T16:08:40.887Z</time>
      </trkpt>
      <trkpt lat="47.553815" lon="7.949414">
        <ele>290.300888</ele>
        <time>2021-11-07T16:08:50.134Z</time>
      </trkpt>
      <trkpt lat="47.554047" lon="7.949957">
        <ele>289.826964</ele>
        <time>2021-11-07T16:09:04.495Z</time>
      </trkpt>
      <trkpt lat="47.554192" lon="7.950296">
        <ele>289.530996</ele>
        <time>2021-11-07T16:09:13.397Z</time>
      </trkpt>
      <trkpt lat="47.554240" lon="7.950300">
        <ele>289.478465</ele>
        <time>2021-11-07T16:09:15.020Z</time>
      </trkpt>
      <trkpt lat="47.554303" lon="7.950312">
        <ele>289.409061</ele>
        <time>2021-11-07T16:09:15.779Z</time>
      </trkpt>
      <trkpt lat="47.554392" lon="7.950331">
        <ele>289.310809</ele>
        <time>2021-11-07T16:09:16.828Z</time>
      </trkpt>
      <trkpt lat="47.554652" lon="7.950448">
        <ele>289.013904</ele>
        <time>2021-11-07T16:09:20.122Z</time>
      </trkpt>
      <trkpt lat="47.554759" lon="7.950515">
        <ele>288.886977</ele>
        <time>2021-11-07T16:09:21.485Z</time>
      </trkpt>
      <trkpt lat="47.554954" lon="7.950665">
        <ele>288.646906</ele>
        <time>2021-11-07T16:09:24.191Z</time>
      </trkpt>
      <trkpt lat="47.555474" lon="7.951144">
        <ele>288.442687</ele>
        <time>2021-11-07T16:09:31.851Z</time>
      </trkpt>
      <trkpt lat="47.555687" lon="7.951449">
        <ele>288.406995</ele>
        <time>2021-11-07T16:09:35.937Z</time>
      </trkpt>
      <trkpt lat="47.556339" lon="7.952382">
        <ele>288.297774</ele>
        <time>2021-11-07T16:09:50.000Z</time>
      </trkpt>
      <trkpt lat="47.556386" lon="7.952449">
        <ele>288.289915</ele>
        <time>2021-11-07T16:09:51.169Z</time>
      </trkpt>
      <trkpt lat="47.556400" lon="7.952468">
        <ele>288.287627</ele>
        <time>2021-11-07T16:09:51.481Z</time>
      </trkpt>
      <trkpt lat="47.557120" lon="7.953536">
        <ele>288.867248</ele>
        <time>2021-11-07T16:10:09.508Z</time>
      </trkpt>
      <trkpt lat="47.557517" lon="7.954117">
        <ele>289.197874</ele>
        <time>2021-11-07T16:10:19.241Z</time>
      </trkpt>
      <trkpt lat="47.557687" lon="7.954371">
        <ele>289.340922</ele>
        <time>2021-11-07T16:10:23.327Z</time>
      </trkpt>
      <trkpt lat="47.557874" lon="7.954579">
        <ele>289.362018</ele>
        <time>2021-11-07T16:10:27.090Z</time>
      </trkpt>
      <trkpt lat="47.557899" lon="7.954581">
        <ele>289.363464</ele>
        <time>2021-11-07T16:10:27.598Z</time>
      </trkpt>
      <trkpt lat="47.557935" lon="7.954571">
        <ele>289.365580</ele>
        <time>2021-11-07T16:10:28.262Z</time>
      </trkpt>
      <trkpt lat="47.558070" lon="7.954468">
        <ele>289.374350</ele>
        <time>2021-11-07T16:10:30.547Z</time>
      </trkpt>
      <trkpt lat="47.558107" lon="7.954410">
        <ele>289.377461</ele>
        <time>2021-11-07T16:10:31.498Z</time>
      </trkpt>
      <trkpt lat="47.558161" lon="7.954466">
        <ele>289.381268</ele>
        <time>2021-11-07T16:10:32.517Z</time>
      </trkpt>
      <trkpt lat="47.558201" lon="7.954539">
        <ele>289.384934</ele>
        <time>2021-11-07T16:10:33.625Z</time>
      </trkpt>
      <trkpt lat="47.558360" lon="7.955074">
        <ele>289.407720</ele>
        <time>2021-11-07T16:10:39.844Z</time>
      </trkpt>
      <trkpt lat="47.558398" lon="7.955197">
        <ele>289.412993</ele>
        <time>2021-11-07T16:10:41.062Z</time>
      </trkpt>
      <trkpt lat="47.558659" lon="7.956055">
        <ele>289.449677</ele>
        <time>2021-11-07T16:10:50.150Z</time>
      </trkpt>
      <trkpt lat="47.558756" lon="7.956469">
        <ele>289.322065</ele>
        <time>2021-11-07T16:10:54.034Z</time>
      </trkpt>
      <trkpt lat="47.559224" lon="7.958738">
        <ele>288.456687</ele>
        <time>2021-11-07T16:11:14.530Z</time>
      </trkpt>
      <trkpt lat="47.559324" lon="7.959601">
        <ele>288.617343</ele>
        <time>2021-11-07T16:11:22.888Z</time>
      </trkpt>
      <trkpt lat="47.559346" lon="7.959868">
        <ele>288.666695</ele>
        <time>2021-11-07T16:11:26.059Z</time>
      </trkpt>
      <trkpt lat="47.559406" lon="7.960730">
        <ele>288.825689</ele>
        <time>2021-11-07T16:11:35.520Z</time>
      </trkpt>
      <trkpt lat="47.559408" lon="7.961845">
        <ele>289.168320</ele>
        <time>2021-11-07T16:11:49.278Z</time>
      </trkpt>
      <trkpt lat="47.559399" lon="7.962034">
        <ele>289.253830</ele>
        <time>2021-11-07T16:11:51.979Z</time>
      </trkpt>
      <trkpt lat="47.559368" lon="7.962709">
        <ele>289.559173</ele>
        <time>2021-11-07T16:12:00.548Z</time>
      </trkpt>
      <trkpt lat="47.559232" lon="7.963800">
        <ele>290.059889</ele>
        <time>2021-11-07T16:12:13.134Z</time>
      </trkpt>
      <trkpt lat="47.559029" lon="7.964894">
        <ele>290.060930</ele>
        <time>2021-11-07T16:12:24.767Z</time>
      </trkpt>
      <trkpt lat="47.558949" lon="7.965326">
        <ele>290.024691</ele>
        <time>2021-11-07T16:12:29.003Z</time>
      </trkpt>
      <trkpt lat="47.558732" lon="7.966356">
        <ele>289.937402</ele>
        <time>2021-11-07T16:12:38.886Z</time>
      </trkpt>
      <trkpt lat="47.558606" lon="7.966985">
        <ele>289.927241</ele>
        <time>2021-11-07T16:12:45.155Z</time>
      </trkpt>
      <trkpt lat="47.558448" lon="7.967701">
        <ele>289.933937</ele>
        <time>2021-11-07T16:12:52.401Z</time>
      </trkpt>
      <trkpt lat="47.558430" lon="7.967788">
        <ele>289.934746</ele>
        <time>2021-11-07T16:12:53.280Z</time>
      </trkpt>
      <trkpt lat="47.558327" lon="7.968108">
        <ele>289.937897</ele>
        <time>2021-11-07T16:12:57.242Z</time>
      </trkpt>
      <trkpt lat="47.558313" lon="7.968259">
        <ele>289.939252</ele>
        <time>2021-11-07T16:12:58.695Z</time>
      </trkpt>
      <trkpt lat="47.558296" lon="7.968403">
        <ele>289.940552</ele>
        <time>2021-11-07T16:13:00.496Z</time>
      </trkpt>
      <trkpt lat="47.558282" lon="7.968483">
        <ele>289.941286</ele>
        <time>2021-11-07T16:13:01.490Z</time>
      </trkpt>
      <trkpt lat="47.558225" lon="7.968807">
        <ele>289.944262</ele>
        <time>2021-11-07T16:13:04.949Z</time>
      </trkpt>
      <trkpt lat="47.558045" lon="7.969704">
        <ele>289.890764</ele>
        <time>2021-11-07T16:13:14.527Z</time>
      </trkpt>
      <trkpt lat="47.557756" lon="7.971140">
        <ele>289.764459</ele>
        <time>2021-11-07T16:13:29.212Z</time>
      </trkpt>
      <trkpt lat="47.557538" lon="7.972196">
        <ele>289.650393</ele>
        <time>2021-11-07T16:13:38.895Z</time>
      </trkpt>
      <trkpt lat="47.557419" lon="7.972636">
        <ele>289.593886</ele>
        <time>2021-11-07T16:13:43.151Z</time>
      </trkpt>
      <trkpt lat="47.557323" lon="7.972992">
        <ele>289.548185</ele>
        <time>2021-11-07T16:13:46.767Z</time>
      </trkpt>
      <trkpt lat="47.557235" lon="7.973507">
        <ele>289.484855</ele>
        <time>2021-11-07T16:13:51.846Z</time>
      </trkpt>
      <trkpt lat="47.557108" lon="7.974186">
        <ele>289.420679</ele>
        <time>2021-11-07T16:13:58.998Z</time>
      </trkpt>
      <trkpt lat="47.557045" lon="7.974526">
        <ele>289.619932</ele>
        <time>2021-11-07T16:14:03.033Z</time>
      </trkpt>
      <trkpt lat="47.556769" lon="7.976421">
        <ele>290.715501</ele>
        <time>2021-11-07T16:14:27.520Z</time>
      </trkpt>
      <trkpt lat="47.556668" lon="7.978159">
        <ele>291.626709</ele>
        <time>2021-11-07T16:14:50.297Z</time>
      </trkpt>
      <trkpt lat="47.556673" lon="7.978244">
        <ele>291.670377</ele>
        <time>2021-11-07T16:14:51.621Z</time>
      </trkpt>
      <trkpt lat="47.557185" lon="7.988787">
        <ele>293.774704</ele>
        <time>2021-11-07T16:16:43.612Z</time>
      </trkpt>
      <trkpt lat="47.557298" lon="7.990679">
        <ele>294.165263</ele>
        <time>2021-11-07T16:17:04.673Z</time>
      </trkpt>
      <trkpt lat="47.557377" lon="7.991413">
        <ele>294.319099</ele>
        <time>2021-11-07T16:17:12.953Z</time>
      </trkpt>
      <trkpt lat="47.557666" lon="7.996934">
        <ele>295.444772</ele>
        <time>2021-11-07T16:18:11.810Z</time>
      </trkpt>
      <trkpt lat="47.557611" lon="7.998828">
        <ele>296.059093</ele>
        <time>2021-11-07T16:18:34.437Z</time>
      </trkpt>
      <trkpt lat="47.557595" lon="7.999065">
        <ele>296.144122</ele>
        <time>2021-11-07T16:18:37.462Z</time>
      </trkpt>
      <trkpt lat="47.557590" lon="7.999121">
        <ele>296.164287</ele>
        <time>2021-11-07T16:18:38.121Z</time>
      </trkpt>
      <trkpt lat="47.557569" lon="7.999330">
        <ele>296.239721</ele>
        <time>2021-11-07T16:18:43.709Z</time>
      </trkpt>
      <trkpt lat="47.557552" lon="7.999488">
        <ele>296.296838</ele>
        <time>2021-11-07T16:18:45.727Z</time>
      </trkpt>
      <trkpt lat="47.557421" lon="8.000151">
        <ele>296.543458</ele>
        <time>2021-11-07T16:18:53.925Z</time>
      </trkpt>
      <trkpt lat="47.556859" lon="8.003033">
        <ele>296.524468</ele>
        <time>2021-11-07T16:19:23.568Z</time>
      </trkpt>
      <trkpt lat="47.556414" lon="8.004608">
        <ele>295.821240</ele>
        <time>2021-11-07T16:19:38.170Z</time>
      </trkpt>
      <trkpt lat="47.556254" lon="8.005374">
        <ele>295.462499</ele>
        <time>2021-11-07T16:19:44.952Z</time>
      </trkpt>
      <trkpt lat="47.555689" lon="8.008075">
        <ele>294.233480</ele>
        <time>2021-11-07T16:20:09.935Z</time>
      </trkpt>
      <trkpt lat="47.555492" lon="8.008854">
        <ele>293.781244</ele>
        <time>2021-11-07T16:20:16.959Z</time>
      </trkpt>
      <trkpt lat="47.555373" lon="8.009365">
        <ele>293.473368</ele>
        <time>2021-11-07T16:20:21.304Z</time>
      </trkpt>
      <trkpt lat="47.555124" lon="8.010557">
        <ele>292.762693</ele>
        <time>2021-11-07T16:20:31.799Z</time>
      </trkpt>
      <trkpt lat="47.555069" lon="8.010772">
        <ele>292.646815</ele>
        <time>2021-11-07T16:20:33.765Z</time>
      </trkpt>
      <trkpt lat="47.555159" lon="8.010812">
        <ele>292.644899</ele>
        <time>2021-11-07T16:20:34.977Z</time>
      </trkpt>
      <trkpt lat="47.555290" lon="8.010881">
        <ele>292.642063</ele>
        <time>2021-11-07T16:20:36.771Z</time>
      </trkpt>
      <trkpt lat="47.555339" lon="8.010917">
        <ele>292.640948</ele>
        <time>2021-11-07T16:20:37.461Z</time>
      </trkpt>
      <trkpt lat="47.555372" lon="8.010968">
        <ele>292.639975</ele>
        <time>2021-11-07T16:20:38.063Z</time>
      </trkpt>
      <trkpt lat="47.555387" lon="8.010980">
        <ele>292.639628</ele>
        <time>2021-11-07T16:20:38.289Z</time>
      </trkpt>
      <trkpt lat="47.555405" lon="8.010993">
        <ele>292.639219</ele>
        <time>2021-11-07T16:20:38.546Z</time>
      </trkpt>
      <trkpt lat="47.555438" lon="8.011004">
        <ele>292.638529</ele>
        <time>2021-11-07T16:20:38.979Z</time>
      </trkpt>
      <trkpt lat="47.555418" lon="8.011120">
        <ele>292.636881</ele>
        <time>2021-11-07T16:20:40.064Z</time>
      </trkpt>
      <trkpt lat="47.555367" lon="8.011430">
        <ele>292.632489</ele>
        <time>2021-11-07T16:20:43.035Z</time>
      </trkpt>
      <trkpt lat="47.555341" lon="8.011585">
        <ele>292.630291</ele>
        <time>2021-11-07T16:20:44.546Z</time>
      </trkpt>
      <trkpt lat="47.555333" lon="8.011686">
        <ele>292.628891</ele>
        <time>2021-11-07T16:20:45.602Z</time>
      </trkpt>
      <trkpt lat="47.555323" lon="8.011802">
        <ele>292.627281</ele>
        <time>2021-11-07T16:20:46.702Z</time>
      </trkpt>
      <trkpt lat="47.555269" lon="8.012084">
        <ele>292.623246</ele>
        <time>2021-11-07T16:20:49.640Z</time>
      </trkpt>
      <trkpt lat="47.555212" lon="8.012332">
        <ele>292.619640</ele>
        <time>2021-11-07T16:20:52.383Z</time>
      </trkpt>
      <trkpt lat="47.555138" lon="8.012646">
        <ele>292.615062</ele>
        <time>2021-11-07T16:20:55.990Z</time>
      </trkpt>
      <trkpt lat="47.555084" lon="8.012876">
        <ele>292.611710</ele>
        <time>2021-11-07T16:20:58.836Z</time>
      </trkpt>
      <trkpt lat="47.554948" lon="8.013450">
        <ele>292.984484</ele>
        <time>2021-11-07T16:21:06.794Z</time>
      </trkpt>
      <trkpt lat="47.554871" lon="8.013777">
        <ele>293.233227</ele>
        <time>2021-11-07T16:21:11.448Z</time>
      </trkpt>
      <trkpt lat="47.554843" lon="8.013902">
        <ele>293.327821</ele>
        <time>2021-11-07T16:21:13.218Z</time>
      </trkpt>
      <trkpt lat="47.554807" lon="8.014038">
        <ele>293.432744</ele>
        <time>2021-11-07T16:21:15.177Z</time>
      </trkpt>
      <trkpt lat="47.554594" lon="8.014946">
        <ele>294.123162</ele>
        <time>2021-11-07T16:21:27.703Z</time>
      </trkpt>
      <trkpt lat="47.554389" lon="8.015820">
        <ele>294.768480</ele>
        <time>2021-11-07T16:21:39.685Z</time>
      </trkpt>
      <trkpt lat="47.554188" lon="8.016568">
        <ele>295.304438</ele>
        <time>2021-11-07T16:21:50.380Z</time>
      </trkpt>
      <trkpt lat="47.554072" lon="8.017124">
        <ele>295.691847</ele>
        <time>2021-11-07T16:21:57.956Z</time>
      </trkpt>
      <trkpt lat="47.554102" lon="8.017135">
        <ele>295.722331</ele>
        <time>2021-11-07T16:22:00.103Z</time>
      </trkpt>
      <trkpt lat="47.554102" lon="8.017135">
        <ele>295.722331</ele>
        <time>2021-11-07T16:22:00.116Z</time>
      </trkpt>
      <trkpt lat="47.554102" lon="8.017135">
        <ele>295.722331</ele>
        <time>2021-11-07T16:22:00.129Z</time>
      </trkpt>
      <trkpt lat="47.554072" lon="8.017124">
        <ele>295.752815</ele>
        <time>2021-11-07T16:22:02.276Z</time>
      </trkpt>
      <trkpt lat="47.553834" lon="8.018363">
        <ele>296.412992</ele>
        <time>2021-11-07T16:22:17.905Z</time>
      </trkpt>
      <trkpt lat="47.553821" lon="8.018432">
        <ele>296.430472</ele>
        <time>2021-11-07T16:22:18.893Z</time>
      </trkpt>
      <trkpt lat="47.553780" lon="8.018576">
        <ele>296.468608</ele>
        <time>2021-11-07T16:22:20.490Z</time>
      </trkpt>
      <trkpt lat="47.553753" lon="8.018684">
        <ele>296.496711</ele>
        <time>2021-11-07T16:22:21.622Z</time>
      </trkpt>
      <trkpt lat="47.553744" lon="8.018750">
        <ele>296.513141</ele>
        <time>2021-11-07T16:22:22.399Z</time>
      </trkpt>
      <trkpt lat="47.553738" lon="8.018867">
        <ele>296.541772</ele>
        <time>2021-11-07T16:22:23.694Z</time>
      </trkpt>
      <trkpt lat="47.553693" lon="8.019156">
        <ele>296.614143</ele>
        <time>2021-11-07T16:22:26.612Z</time>
      </trkpt>
      <trkpt lat="47.553654" lon="8.019401">
        <ele>296.675566</ele>
        <time>2021-11-07T16:22:29.114Z</time>
      </trkpt>
      <trkpt lat="47.553605" lon="8.019679">
        <ele>296.745675</ele>
        <time>2021-11-07T16:22:31.794Z</time>
      </trkpt>
      <trkpt lat="47.553542" lon="8.020040">
        <ele>296.836660</ele>
        <time>2021-11-07T16:22:35.770Z</time>
      </trkpt>
      <trkpt lat="47.553523" lon="8.020179">
        <ele>296.871266</ele>
        <time>2021-11-07T16:22:37.023Z</time>
      </trkpt>
      <trkpt lat="47.553554" lon="8.020916">
        <ele>297.324721</ele>
        <time>2021-11-07T16:22:45.849Z</time>
      </trkpt>
      <trkpt lat="47.553598" lon="8.021379">
        <ele>297.743357</ele>
        <time>2021-11-07T16:22:51.653Z</time>
      </trkpt>
      <trkpt lat="47.553607" lon="8.021497">
        <ele>297.849680</ele>
        <time>2021-11-07T16:22:53.229Z</time>
      </trkpt>
      <trkpt lat="47.553614" lon="8.021587">
        <ele>297.930795</ele>
        <time>2021-11-07T16:22:54.408Z</time>
      </trkpt>
      <trkpt lat="47.553615" lon="8.021606">
        <ele>297.947858</ele>
        <time>2021-11-07T16:22:54.668Z</time>
      </trkpt>
      <trkpt lat="47.553619" lon="8.021667">
        <ele>298.002732</ele>
        <time>2021-11-07T16:22:55.316Z</time>
      </trkpt>
      <trkpt lat="47.553685" lon="8.022501">
        <ele>298.754567</ele>
        <time>2021-11-07T16:23:06.079Z</time>
      </trkpt>
      <trkpt lat="47.553695" lon="8.022619">
        <ele>298.861048</ele>
        <time>2021-11-07T16:23:07.913Z</time>
      </trkpt>
      <trkpt lat="47.553699" lon="8.022667">
        <ele>298.904351</ele>
        <time>2021-11-07T16:23:08.665Z</time>
      </trkpt>
      <trkpt lat="47.553719" lon="8.022919">
        <ele>299.131533</ele>
        <time>2021-11-07T16:23:12.450Z</time>
      </trkpt>
      <trkpt lat="47.553732" lon="8.023128">
        <ele>299.319453</ele>
        <time>2021-11-07T16:23:16.034Z</time>
      </trkpt>
      <trkpt lat="47.553811" lon="8.023113">
        <ele>299.592774</ele>
        <time>2021-11-07T16:23:17.953Z</time>
      </trkpt>
      <trkpt lat="47.554021" lon="8.023095">
        <ele>300.392318</ele>
        <time>2021-11-07T16:23:23.286Z</time>
      </trkpt>
      <trkpt lat="47.554299" lon="8.023080">
        <ele>301.449695</ele>
        <time>2021-11-07T16:23:31.555Z</time>
      </trkpt>
      <trkpt lat="47.554701" lon="8.023055">
        <ele>302.979041</ele>
        <time>2021-11-07T16:23:44.227Z</time>
      </trkpt>
      <trkpt lat="47.554717" lon="8.023117">
        <ele>303.149317</ele>
        <time>2021-11-07T16:23:45.833Z</time>
      </trkpt>
      <trkpt lat="47.554744" lon="8.023183">
        <ele>303.347299</ele>
        <time>2021-11-07T16:23:47.905Z</time>
      </trkpt>
      <trkpt lat="47.554815" lon="8.023260">
        <ele>303.681732</ele>
        <time>2021-11-07T16:23:51.343Z</time>
      </trkpt>
      <trkpt lat="47.555014" lon="8.023500">
        <ele>304.657011</ele>
        <time>2021-11-07T16:24:01.241Z</time>
      </trkpt>
      <trkpt lat="47.555120" lon="8.023629">
        <ele>305.178391</ele>
        <time>2021-11-07T16:24:06.148Z</time>
      </trkpt>
      <trkpt lat="47.555288" lon="8.023837">
        <ele>306.010532</ele>
        <time>2021-11-07T16:24:14.219Z</time>
      </trkpt>
      <trkpt lat="47.555464" lon="8.023921">
        <ele>306.866290</ele>
        <time>2021-11-07T16:24:21.138Z</time>
      </trkpt>
      <trkpt lat="47.555771" lon="8.023937">
        <ele>308.363695</ele>
        <time>2021-11-07T16:24:32.797Z</time>
      </trkpt>
      <trkpt lat="47.555905" lon="8.023936">
        <ele>309.016889</ele>
        <time>2021-11-07T16:24:38.398Z</time>
      </trkpt>
      <trkpt lat="47.556090" lon="8.023781">
        <ele>310.052851</ele>
        <time>2021-11-07T16:24:46.616Z</time>
      </trkpt>
      <trkpt lat="47.556286" lon="8.023733">
        <ele>311.021218</ele>
        <time>2021-11-07T16:24:54.871Z</time>
      </trkpt>
      <trkpt lat="47.556504" lon="8.023642">
        <ele>312.125226</ele>
        <time>2021-11-07T16:25:03.852Z</time>
      </trkpt>
      <trkpt lat="47.556691" lon="8.023589">
        <ele>313.053286</ele>
        <time>2021-11-07T16:25:11.432Z</time>
      </trkpt>
      <trkpt lat="47.556774" lon="8.023573">
        <ele>313.461281</ele>
        <time>2021-11-07T16:25:15.170Z</time>
      </trkpt>
      <trkpt lat="47.556882" lon="8.023535">
        <ele>314.002367</ele>
        <time>2021-11-07T16:25:20.224Z</time>
      </trkpt>
      <trkpt lat="47.556913" lon="8.023525">
        <ele>314.157017</ele>
        <time>2021-11-07T16:25:21.638Z</time>
      </trkpt>
      <trkpt lat="47.557050" lon="8.023513">
        <ele>314.825992</ele>
        <time>2021-11-07T16:25:26.702Z</time>
      </trkpt>
      <trkpt lat="47.557050" lon="8.023513">
        <ele>314.825992</ele>
        <time>2021-11-07T16:25:26.725Z</time>
      </trkpt>
      <trkpt lat="47.557190" lon="8.023515">
        <ele>315.570778</ele>
        <time>2021-11-07T16:25:32.690Z</time>
      </trkpt>
      <trkpt lat="47.557314" lon="8.023539">
        <ele>316.247110</ele>
        <time>2021-11-07T16:25:37.831Z</time>
      </trkpt>
      <trkpt lat="47.557730" lon="8.023786">
        <ele>318.670876</ele>
        <time>2021-11-07T16:25:54.841Z</time>
      </trkpt>
      <trkpt lat="47.557897" lon="8.023902">
        <ele>319.668377</ele>
        <time>2021-11-07T16:26:03.372Z</time>
      </trkpt>
      <trkpt lat="47.558094" lon="8.024012">
        <ele>320.806954</ele>
        <time>2021-11-07T16:26:11.854Z</time>
      </trkpt>
      <trkpt lat="47.558184" lon="8.024093">
        <ele>321.376450</ele>
        <time>2021-11-07T16:26:17.577Z</time>
      </trkpt>
      <trkpt lat="47.558867" lon="8.025170">
        <ele>326.841603</ele>
        <time>2021-11-07T16:26:59.102Z</time>
      </trkpt>
      <trkpt lat="47.558912" lon="8.025234">
        <ele>327.190334</ele>
        <time>2021-11-07T16:27:02.731Z</time>
      </trkpt>
      <trkpt lat="47.559129" lon="8.025458">
        <ele>328.668961</ele>
        <time>2021-11-07T16:27:12.586Z</time>
      </trkpt>
      <trkpt lat="47.559413" lon="8.025913">
        <ele>331.007449</ele>
        <time>2021-11-07T16:27:29.852Z</time>
      </trkpt>
      <trkpt lat="47.559833" lon="8.027284">
        <ele>336.543601</ele>
        <time>2021-11-07T16:28:15.680Z</time>
      </trkpt>
      <trkpt lat="47.559956" lon="8.027552">
        <ele>337.676394</ele>
        <time>2021-11-07T16:28:24.157Z</time>
      </trkpt>
      <trkpt lat="47.560018" lon="8.027691">
        <ele>338.258747</ele>
        <time>2021-11-07T16:28:29.175Z</time>
      </trkpt>
      <trkpt lat="47.560181" lon="8.027943">
        <ele>339.478772</ele>
        <time>2021-11-07T16:28:37.991Z</time>
      </trkpt>
      <trkpt lat="47.560181" lon="8.027943">
        <ele>339.478772</ele>
        <time>2021-11-07T16:28:38.070Z</time>
      </trkpt>
      <trkpt lat="47.560294" lon="8.028059">
        <ele>340.190744</ele>
        <time>2021-11-07T16:28:44.124Z</time>
      </trkpt>
      <trkpt lat="47.560542" lon="8.028303">
        <ele>341.732535</ele>
        <time>2021-11-07T16:28:55.493Z</time>
      </trkpt>
      <trkpt lat="47.560627" lon="8.028359">
        <ele>342.214323</ele>
        <time>2021-11-07T16:28:59.681Z</time>
      </trkpt>
      <trkpt lat="47.560664" lon="8.028383">
        <ele>342.423511</ele>
        <time>2021-11-07T16:29:01.894Z</time>
      </trkpt>
      <trkpt lat="47.561248" lon="8.028606">
        <ele>344.789281</ele>
        <time>2021-11-07T16:29:24.441Z</time>
      </trkpt>
      <trkpt lat="47.561630" lon="8.028850">
        <ele>345.861000</ele>
        <time>2021-11-07T16:29:39.525Z</time>
      </trkpt>
      <trkpt lat="47.561870" lon="8.029058">
        <ele>346.577318</ele>
        <time>2021-11-07T16:29:47.487Z</time>
      </trkpt>
      <trkpt lat="47.562490" lon="8.029832">
        <ele>348.665934</ele>
        <time>2021-11-07T16:30:08.269Z</time>
      </trkpt>
      <trkpt lat="47.562698" lon="8.029971">
        <ele>348.944133</ele>
        <time>2021-11-07T16:30:13.642Z</time>
      </trkpt>
      <trkpt lat="47.562995" lon="8.029987">
        <ele>349.301383</ele>
        <time>2021-11-07T16:30:20.421Z</time>
      </trkpt>
      <trkpt lat="47.563183" lon="8.030459">
        <ele>349.745958</ele>
        <time>2021-11-07T16:30:27.054Z</time>
      </trkpt>
      <trkpt lat="47.563345" lon="8.030793">
        <ele>350.079600</ele>
        <time>2021-11-07T16:30:32.331Z</time>
      </trkpt>
      <trkpt lat="47.563394" lon="8.030849">
        <ele>350.153981</ele>
        <time>2021-11-07T16:30:33.561Z</time>
      </trkpt>
      <trkpt lat="47.563725" lon="8.031208">
        <ele>350.647037</ele>
        <time>2021-11-07T16:30:41.582Z</time>
      </trkpt>
      <trkpt lat="47.564393" lon="8.032053">
        <ele>353.027669</ele>
        <time>2021-11-07T16:31:02.404Z</time>
      </trkpt>
      <trkpt lat="47.564511" lon="8.032311">
        <ele>353.666640</ele>
        <time>2021-11-07T16:31:07.656Z</time>
      </trkpt>
      <trkpt lat="47.564569" lon="8.032525">
        <ele>354.139422</ele>
        <time>2021-11-07T16:31:12.067Z</time>
      </trkpt>
      <trkpt lat="47.564678" lon="8.032921">
        <ele>355.016195</ele>
        <time>2021-11-07T16:31:19.387Z</time>
      </trkpt>
      <trkpt lat="47.564702" lon="8.033000">
        <ele>355.193808</ele>
        <time>2021-11-07T16:31:22.216Z</time>
      </trkpt>
      <trkpt lat="47.564933" lon="8.033469">
        <ele>356.443223</ele>
        <time>2021-11-07T16:31:35.168Z</time>
      </trkpt>
      <trkpt lat="47.565119" lon="8.033627">
        <ele>357.551639</ele>
        <time>2021-11-07T16:31:41.624Z</time>
      </trkpt>
      <trkpt lat="47.565189" lon="8.033686">
        <ele>357.967985</ele>
        <time>2021-11-07T16:31:44.585Z</time>
      </trkpt>
      <trkpt lat="47.565871" lon="8.033704">
        <ele>361.494590</ele>
        <time>2021-11-07T16:32:08.659Z</time>
      </trkpt>
      <trkpt lat="47.566001" lon="8.033711">
        <ele>362.167154</ele>
        <time>2021-11-07T16:32:14.917Z</time>
      </trkpt>
      <trkpt lat="47.566321" lon="8.033776">
        <ele>363.837071</ele>
        <time>2021-11-07T16:32:26.211Z</time>
      </trkpt>
      <trkpt lat="47.566670" lon="8.033967">
        <ele>365.742909</ele>
        <time>2021-11-07T16:32:39.594Z</time>
      </trkpt>
      <trkpt lat="47.566763" lon="8.034017">
        <ele>366.198439</ele>
        <time>2021-11-07T16:32:43.328Z</time>
      </trkpt>
      <trkpt lat="47.567079" lon="8.034308">
        <ele>367.911486</ele>
        <time>2021-11-07T16:32:56.372Z</time>
      </trkpt>
      <trkpt lat="47.567313" lon="8.034591">
        <ele>369.302163</ele>
        <time>2021-11-07T16:33:07.445Z</time>
      </trkpt>
      <trkpt lat="47.567673" lon="8.035162">
        <ele>371.730085</ele>
        <time>2021-11-07T16:33:24.526Z</time>
      </trkpt>
      <trkpt lat="47.568018" lon="8.035824">
        <ele>374.229531</ele>
        <time>2021-11-07T16:33:41.185Z</time>
      </trkpt>
      <trkpt lat="47.568240" lon="8.036333">
        <ele>375.694665</ele>
        <time>2021-11-07T16:33:53.435Z</time>
      </trkpt>
      <trkpt lat="47.568395" lon="8.036764">
        <ele>376.875307</ele>
        <time>2021-11-07T16:34:02.749Z</time>
      </trkpt>
      <trkpt lat="47.568512" lon="8.037290">
        <ele>378.214150</ele>
        <time>2021-11-07T16:34:12.952Z</time>
      </trkpt>
      <trkpt lat="47.568537" lon="8.037570">
        <ele>378.896909</ele>
        <time>2021-11-07T16:34:18.734Z</time>
      </trkpt>
      <trkpt lat="47.568540" lon="8.037665">
        <ele>379.126809</ele>
        <time>2021-11-07T16:34:20.663Z</time>
      </trkpt>
      <trkpt lat="47.568562" lon="8.038275">
        <ele>380.619441</ele>
        <time>2021-11-07T16:34:32.873Z</time>
      </trkpt>
      <trkpt lat="47.568633" lon="8.038920">
        <ele>382.289850</ele>
        <time>2021-11-07T16:34:45.896Z</time>
      </trkpt>
      <trkpt lat="47.568715" lon="8.039132">
        <ele>382.914444</ele>
        <time>2021-11-07T16:34:51.194Z</time>
      </trkpt>
      <trkpt lat="47.568725" lon="8.039148">
        <ele>382.970190</ele>
        <time>2021-11-07T16:34:51.709Z</time>
      </trkpt>
      <trkpt lat="47.568916" lon="8.039421">
        <ele>383.975398</ele>
        <time>2021-11-07T16:34:59.148Z</time>
      </trkpt>
      <trkpt lat="47.568992" lon="8.039490">
        <ele>384.313031</ele>
        <time>2021-11-07T16:35:02.220Z</time>
      </trkpt>
      <trkpt lat="47.569043" lon="8.039527">
        <ele>384.528138</ele>
        <time>2021-11-07T16:35:03.786Z</time>
      </trkpt>
      <trkpt lat="47.569103" lon="8.039554">
        <ele>384.765681</ele>
        <time>2021-11-07T16:35:05.293Z</time>
      </trkpt>
      <trkpt lat="47.569159" lon="8.039571">
        <ele>384.982230</ele>
        <time>2021-11-07T16:35:06.968Z</time>
      </trkpt>
      <trkpt lat="47.569259" lon="8.039574">
        <ele>385.361136</ele>
        <time>2021-11-07T16:35:09.948Z</time>
      </trkpt>
      <trkpt lat="47.569469" lon="8.039531">
        <ele>386.164234</ele>
        <time>2021-11-07T16:35:15.756Z</time>
      </trkpt>
      <trkpt lat="47.569586" lon="8.039479">
        <ele>386.626963</ele>
        <time>2021-11-07T16:35:19.350Z</time>
      </trkpt>
      <trkpt lat="47.569647" lon="8.039770">
        <ele>387.483075</ele>
        <time>2021-11-07T16:35:25.941Z</time>
      </trkpt>
      <trkpt lat="47.569695" lon="8.040052">
        <ele>388.441918</ele>
        <time>2021-11-07T16:35:32.309Z</time>
      </trkpt>
      <trkpt lat="47.569707" lon="8.040137">
        <ele>388.728219</ele>
        <time>2021-11-07T16:35:34.522Z</time>
      </trkpt>
      <trkpt lat="47.569814" lon="8.040942">
        <ele>391.433193</ele>
        <time>2021-11-07T16:35:53.355Z</time>
      </trkpt>
      <trkpt lat="47.569913" lon="8.041464">
        <ele>393.220843</ele>
        <time>2021-11-07T16:36:05.609Z</time>
      </trkpt>
      <trkpt lat="47.569913" lon="8.041464">
        <ele>393.220843</ele>
        <time>2021-11-07T16:36:05.651Z</time>
      </trkpt>
      <trkpt lat="47.569947" lon="8.041607">
        <ele>393.720708</ele>
        <time>2021-11-07T16:36:08.996Z</time>
      </trkpt>
      <trkpt lat="47.570037" lon="8.042001">
        <ele>395.092088</ele>
        <time>2021-11-07T16:36:20.536Z</time>
      </trkpt>
      <trkpt lat="47.570472" lon="8.043006">
        <ele>398.579143</ele>
        <time>2021-11-07T16:36:49.414Z</time>
      </trkpt>
      <trkpt lat="47.570550" lon="8.043505">
        <ele>400.023012</ele>
        <time>2021-11-07T16:37:00.717Z</time>
      </trkpt>
      <trkpt lat="47.570553" lon="8.043603">
        <ele>400.299545</ele>
        <time>2021-11-07T16:37:04.571Z</time>
      </trkpt>
      <trkpt lat="47.570556" lon="8.043717">
        <ele>400.621139</ele>
        <time>2021-11-07T16:37:06.836Z</time>
      </trkpt>
      <trkpt lat="47.570458" lon="8.044327">
        <ele>402.388721</ele>
        <time>2021-11-07T16:37:18.377Z</time>
      </trkpt>
      <trkpt lat="47.570449" lon="8.044391">
        <ele>402.573005</ele>
        <time>2021-11-07T16:37:19.432Z</time>
      </trkpt>
      <trkpt lat="47.570407" lon="8.044709">
        <ele>403.438519</ele>
        <time>2021-11-07T16:37:25.373Z</time>
      </trkpt>
      <trkpt lat="47.570401" lon="8.044853">
        <ele>403.395690</ele>
        <time>2021-11-07T16:37:26.987Z</time>
      </trkpt>
      <trkpt lat="47.570393" lon="8.045065">
        <ele>403.332658</ele>
        <time>2021-11-07T16:37:29.251Z</time>
      </trkpt>
      <trkpt lat="47.570405" lon="8.045482">
        <ele>403.208755</ele>
        <time>2021-11-07T16:37:35.483Z</time>
      </trkpt>
      <trkpt lat="47.570410" lon="8.045595">
        <ele>403.175138</ele>
        <time>2021-11-07T16:37:36.369Z</time>
      </trkpt>
      <trkpt lat="47.570454" lon="8.045878">
        <ele>403.088926</ele>
        <time>2021-11-07T16:37:40.660Z</time>
      </trkpt>
      <trkpt lat="47.570703" lon="8.046690">
        <ele>402.824148</ele>
        <time>2021-11-07T16:37:47.178Z</time>
      </trkpt>
      <trkpt lat="47.570990" lon="8.047289">
        <ele>402.486052</ele>
        <time>2021-11-07T16:37:52.560Z</time>
      </trkpt>
      <trkpt lat="47.571053" lon="8.047570">
        <ele>402.166996</ele>
        <time>2021-11-07T16:37:54.652Z</time>
      </trkpt>
      <trkpt lat="47.571035" lon="8.047613">
        <ele>402.112470</ele>
        <time>2021-11-07T16:37:55.004Z</time>
      </trkpt>
      <trkpt lat="47.571041" lon="8.047802">
        <ele>401.908598</ele>
        <time>2021-11-07T16:37:56.491Z</time>
      </trkpt>
      <trkpt lat="47.571051" lon="8.047825">
        <ele>401.879115</ele>
        <time>2021-11-07T16:37:56.674Z</time>
      </trkpt>
      <trkpt lat="47.571060" lon="8.047840">
        <ele>401.857486</ele>
        <time>2021-11-07T16:37:56.807Z</time>
      </trkpt>
      <trkpt lat="47.571146" lon="8.047904">
        <ele>401.703799</ele>
        <time>2021-11-07T16:37:57.864Z</time>
      </trkpt>
      <trkpt lat="47.571173" lon="8.047904">
        <ele>401.660679</ele>
        <time>2021-11-07T16:37:58.137Z</time>
      </trkpt>
      <trkpt lat="47.571192" lon="8.047900">
        <ele>401.630030</ele>
        <time>2021-11-07T16:37:58.351Z</time>
      </trkpt>
      <trkpt lat="47.571216" lon="8.047888">
        <ele>401.589579</ele>
        <time>2021-11-07T16:37:58.651Z</time>
      </trkpt>
      <trkpt lat="47.571230" lon="8.047878">
        <ele>401.564759</ele>
        <time>2021-11-07T16:37:58.814Z</time>
      </trkpt>
      <trkpt lat="47.571328" lon="8.047952">
        <ele>401.389108</ele>
        <time>2021-11-07T16:38:00.131Z</time>
      </trkpt>
      <trkpt lat="47.571393" lon="8.048046">
        <ele>401.244074</ele>
        <time>2021-11-07T16:38:01.107Z</time>
      </trkpt>
      <trkpt lat="47.571420" lon="8.048138">
        <ele>401.135973</ele>
        <time>2021-11-07T16:38:01.836Z</time>
      </trkpt>
      <trkpt lat="47.571850" lon="8.050064">
        <ele>399.973610</ele>
        <time>2021-11-07T16:38:18.346Z</time>
      </trkpt>
      <trkpt lat="47.572078" lon="8.050690">
        <ele>400.153391</ele>
        <time>2021-11-07T16:38:26.458Z</time>
      </trkpt>
      <trkpt lat="47.572428" lon="8.051523">
        <ele>400.401389</ele>
        <time>2021-11-07T16:38:40.262Z</time>
      </trkpt>
      <trkpt lat="47.572498" lon="8.051744">
        <ele>400.444027</ele>
        <time>2021-11-07T16:38:43.976Z</time>
      </trkpt>
      <trkpt lat="47.572645" lon="8.052612">
        <ele>400.247496</ele>
        <time>2021-11-07T16:38:54.637Z</time>
      </trkpt>
      <trkpt lat="47.572728" lon="8.053331">
        <ele>400.087305</ele>
        <time>2021-11-07T16:39:02.521Z</time>
      </trkpt>
      <trkpt lat="47.572769" lon="8.053639">
        <ele>400.018363</ele>
        <time>2021-11-07T16:39:05.095Z</time>
      </trkpt>
      <trkpt lat="47.572855" lon="8.053943">
        <ele>399.945972</ele>
        <time>2021-11-07T16:39:07.829Z</time>
      </trkpt>
      <trkpt lat="47.573098" lon="8.054422">
        <ele>399.290678</ele>
        <time>2021-11-07T16:39:12.143Z</time>
      </trkpt>
      <trkpt lat="47.573806" lon="8.055119">
        <ele>396.283388</ele>
        <time>2021-11-07T16:39:20.482Z</time>
      </trkpt>
      <trkpt lat="47.573993" lon="8.055472">
        <ele>395.212022</ele>
        <time>2021-11-07T16:39:23.300Z</time>
      </trkpt>
      <trkpt lat="47.574121" lon="8.056069">
        <ele>393.716711</ele>
        <time>2021-11-07T16:39:27.414Z</time>
      </trkpt>
      <trkpt lat="47.574181" lon="8.057386">
        <ele>392.680116</ele>
        <time>2021-11-07T16:39:36.979Z</time>
      </trkpt>
      <trkpt lat="47.574225" lon="8.057606">
        <ele>392.526620</ele>
        <time>2021-11-07T16:39:38.683Z</time>
      </trkpt>
      <trkpt lat="47.574360" lon="8.057968">
        <ele>392.249932</ele>
        <time>2021-11-07T16:39:42.904Z</time>
      </trkpt>
      <trkpt lat="47.574691" lon="8.058686">
        <ele>391.787459</ele>
        <time>2021-11-07T16:39:54.126Z</time>
      </trkpt>
      <trkpt lat="47.575062" lon="8.059032">
        <ele>392.356259</ele>
        <time>2021-11-07T16:40:04.591Z</time>
      </trkpt>
      <trkpt lat="47.575229" lon="8.059329">
        <ele>392.694736</ele>
        <time>2021-11-07T16:40:10.501Z</time>
      </trkpt>
      <trkpt lat="47.575626" lon="8.060407">
        <ele>393.769918</ele>
        <time>2021-11-07T16:40:27.464Z</time>
      </trkpt>
      <trkpt lat="47.575642" lon="8.060451">
        <ele>393.813677</ele>
        <time>2021-11-07T16:40:28.811Z</time>
      </trkpt>
      <trkpt lat="47.575791" lon="8.060748">
        <ele>394.018847</ele>
        <time>2021-11-07T16:40:32.306Z</time>
      </trkpt>
      <trkpt lat="47.576045" lon="8.061150">
        <ele>393.816981</ele>
        <time>2021-11-07T16:40:37.601Z</time>
      </trkpt>
      <trkpt lat="47.576551" lon="8.062025">
        <ele>393.394594</ele>
        <time>2021-11-07T16:40:47.352Z</time>
      </trkpt>
      <trkpt lat="47.576712" lon="8.062700">
        <ele>393.132200</ele>
        <time>2021-11-07T16:40:52.883Z</time>
      </trkpt>
      <trkpt lat="47.576741" lon="8.063055">
        <ele>393.120997</ele>
        <time>2021-11-07T16:40:55.953Z</time>
      </trkpt>
      <trkpt lat="47.576746" lon="8.063355">
        <ele>393.185356</ele>
        <time>2021-11-07T16:40:58.537Z</time>
      </trkpt>
      <trkpt lat="47.576746" lon="8.063401">
        <ele>393.195221</ele>
        <time>2021-11-07T16:40:59.208Z</time>
      </trkpt>
      <trkpt lat="47.576737" lon="8.063729">
        <ele>393.265623</ele>
        <time>2021-11-07T16:41:02.492Z</time>
      </trkpt>
      <trkpt lat="47.576750" lon="8.064033">
        <ele>393.330951</ele>
        <time>2021-11-07T16:41:06.032Z</time>
      </trkpt>
      <trkpt lat="47.576848" lon="8.064544">
        <ele>393.444885</ele>
        <time>2021-11-07T16:41:12.168Z</time>
      </trkpt>
      <trkpt lat="47.576978" lon="8.064848">
        <ele>393.522078</ele>
        <time>2021-11-07T16:41:16.402Z</time>
      </trkpt>
      <trkpt lat="47.577043" lon="8.064953">
        <ele>393.552641</ele>
        <time>2021-11-07T16:41:19.034Z</time>
      </trkpt>
      <trkpt lat="47.577248" lon="8.065166">
        <ele>393.632228</ele>
        <time>2021-11-07T16:41:23.229Z</time>
      </trkpt>
      <trkpt lat="47.577380" lon="8.065302">
        <ele>393.741152</ele>
        <time>2021-11-07T16:41:27.000Z</time>
      </trkpt>
      <trkpt lat="47.577609" lon="8.065406">
        <ele>393.943911</ele>
        <time>2021-11-07T16:41:31.368Z</time>
      </trkpt>
      <trkpt lat="47.577839" lon="8.065448">
        <ele>394.140095</ele>
        <time>2021-11-07T16:41:34.974Z</time>
      </trkpt>
      <trkpt lat="47.578177" lon="8.065370">
        <ele>394.429683</ele>
        <time>2021-11-07T16:41:40.599Z</time>
      </trkpt>
      <trkpt lat="47.578363" lon="8.065294">
        <ele>394.593017</ele>
        <time>2021-11-07T16:41:45.049Z</time>
      </trkpt>
      <trkpt lat="47.578623" lon="8.065188">
        <ele>394.821298</ele>
        <time>2021-11-07T16:41:49.349Z</time>
      </trkpt>
      <trkpt lat="47.579003" lon="8.065169">
        <ele>395.143179</ele>
        <time>2021-11-07T16:41:56.067Z</time>
      </trkpt>
      <trkpt lat="47.579104" lon="8.065203">
        <ele>395.349988</ele>
        <time>2021-11-07T16:41:58.010Z</time>
      </trkpt>
      <trkpt lat="47.579181" lon="8.065229">
        <ele>395.550441</ele>
        <time>2021-11-07T16:41:59.060Z</time>
      </trkpt>
      <trkpt lat="47.579504" lon="8.065414">
        <ele>396.429368</ele>
        <time>2021-11-07T16:42:06.086Z</time>
      </trkpt>
      <trkpt lat="47.579627" lon="8.065529">
        <ele>396.798483</ele>
        <time>2021-11-07T16:42:08.914Z</time>
      </trkpt>
      <trkpt lat="47.579627" lon="8.065529">
        <ele>396.798483</ele>
        <time>2021-11-07T16:42:08.996Z</time>
      </trkpt>
      <trkpt lat="47.579737" lon="8.065632">
        <ele>397.128726</ele>
        <time>2021-11-07T16:42:12.253Z</time>
      </trkpt>
      <trkpt lat="47.579947" lon="8.065949">
        <ele>397.889471</ele>
        <time>2021-11-07T16:42:18.732Z</time>
      </trkpt>
      <trkpt lat="47.580169" lon="8.066489">
        <ele>398.972248</ele>
        <time>2021-11-07T16:42:29.791Z</time>
      </trkpt>
      <trkpt lat="47.580436" lon="8.068266">
        <ele>405.185377</ele>
        <time>2021-11-07T16:43:14.676Z</time>
      </trkpt>
      <trkpt lat="47.580540" lon="8.068640">
        <ele>406.789473</ele>
        <time>2021-11-07T16:43:27.290Z</time>
      </trkpt>
      <trkpt lat="47.581072" lon="8.070001">
        <ele>412.408282</ele>
        <time>2021-11-07T16:44:09.691Z</time>
      </trkpt>
      <trkpt lat="47.581200" lon="8.070445">
        <ele>413.887001</ele>
        <time>2021-11-07T16:44:21.023Z</time>
      </trkpt>
      <trkpt lat="47.581302" lon="8.070775">
        <ele>414.998664</ele>
        <time>2021-11-07T16:44:29.284Z</time>
      </trkpt>
      <trkpt lat="47.581397" lon="8.071044">
        <ele>415.928545</ele>
        <time>2021-11-07T16:44:35.121Z</time>
      </trkpt>
      <trkpt lat="47.581509" lon="8.071314">
        <ele>416.899249</ele>
        <time>2021-11-07T16:44:41.962Z</time>
      </trkpt>
      <trkpt lat="47.581542" lon="8.071281">
        <ele>417.079970</ele>
        <time>2021-11-07T16:44:42.457Z</time>
      </trkpt>
      <trkpt lat="47.581788" lon="8.071022">
        <ele>418.449822</ele>
        <time>2021-11-07T16:44:51.552Z</time>
      </trkpt>
      <trkpt lat="47.581919" lon="8.070791">
        <ele>419.064617</ele>
        <time>2021-11-07T16:44:56.598Z</time>
      </trkpt>
      <trkpt lat="47.582315" lon="8.070091">
        <ele>420.898622</ele>
        <time>2021-11-07T16:45:10.125Z</time>
      </trkpt>
      <trkpt lat="47.582538" lon="8.069833">
        <ele>421.740461</ele>
        <time>2021-11-07T16:45:16.838Z</time>
      </trkpt>
      <trkpt lat="47.583517" lon="8.069235">
        <ele>425.389221</ele>
        <time>2021-11-07T16:45:48.659Z</time>
      </trkpt>
      <trkpt lat="47.584024" lon="8.068613">
        <ele>428.264516</ele>
        <time>2021-11-07T16:46:10.536Z</time>
      </trkpt>
      <trkpt lat="47.584143" lon="8.068422">
        <ele>429.030794</ele>
        <time>2021-11-07T16:46:17.236Z</time>
      </trkpt>
      <trkpt lat="47.584215" lon="8.068264">
        <ele>429.592738</ele>
        <time>2021-11-07T16:46:20.912Z</time>
      </trkpt>
      <trkpt lat="47.584279" lon="8.068165">
        <ele>429.996862</ele>
        <time>2021-11-07T16:46:23.845Z</time>
      </trkpt>
      <trkpt lat="47.584318" lon="8.068107">
        <ele>430.238219</ele>
        <time>2021-11-07T16:46:26.309Z</time>
      </trkpt>
      <trkpt lat="47.584874" lon="8.067572">
        <ele>432.978291</ele>
        <time>2021-11-07T16:46:47.027Z</time>
      </trkpt>
      <trkpt lat="47.585232" lon="8.067099">
        <ele>434.847544</ele>
        <time>2021-11-07T16:47:02.390Z</time>
      </trkpt>
      <trkpt lat="47.585530" lon="8.066367">
        <ele>437.095537</ele>
        <time>2021-11-07T16:47:17.740Z</time>
      </trkpt>
      <trkpt lat="47.586171" lon="8.065140">
        <ele>442.509493</ele>
        <time>2021-11-07T16:47:50.425Z</time>
      </trkpt>
      <trkpt lat="47.586300" lon="8.064866">
        <ele>443.860902</ele>
        <time>2021-11-07T16:47:59.244Z</time>
      </trkpt>
      <trkpt lat="47.586526" lon="8.064430">
        <ele>446.084798</ele>
        <time>2021-11-07T16:48:14.581Z</time>
      </trkpt>
      <trkpt lat="47.586768" lon="8.064082">
        <ele>448.106297</ele>
        <time>2021-11-07T16:48:29.389Z</time>
      </trkpt>
      <trkpt lat="47.587322" lon="8.063441">
        <ele>453.507160</ele>
        <time>2021-11-07T16:49:02.853Z</time>
      </trkpt>
      <trkpt lat="47.588385" lon="8.062490">
        <ele>464.067518</ele>
        <time>2021-11-07T16:50:05.926Z</time>
      </trkpt>
      <trkpt lat="47.588779" lon="8.062235">
        <ele>467.249547</ele>
        <time>2021-11-07T16:50:26.204Z</time>
      </trkpt>
      <trkpt lat="47.588982" lon="8.062103">
        <ele>468.830714</ele>
        <time>2021-11-07T16:50:36.454Z</time>
      </trkpt>
      <trkpt lat="47.589304" lon="8.061913">
        <ele>471.302800</ele>
        <time>2021-11-07T16:50:51.586Z</time>
      </trkpt>
      <trkpt lat="47.589379" lon="8.061884">
        <ele>471.855682</ele>
        <time>2021-11-07T16:50:54.758Z</time>
      </trkpt>
      <trkpt lat="47.589565" lon="8.061807">
        <ele>473.233197</ele>
        <time>2021-11-07T16:51:02.688Z</time>
      </trkpt>
      <trkpt lat="47.589831" lon="8.061768">
        <ele>475.139877</ele>
        <time>2021-11-07T16:51:13.227Z</time>
      </trkpt>
      <trkpt lat="47.589938" lon="8.061742">
        <ele>475.913309</ele>
        <time>2021-11-07T16:51:17.318Z</time>
      </trkpt>
      <trkpt lat="47.590004" lon="8.061716">
        <ele>476.400432</ele>
        <time>2021-11-07T16:51:20.074Z</time>
      </trkpt>
      <trkpt lat="47.590534" lon="8.061506">
        <ele>479.675027</ele>
        <time>2021-11-07T16:51:42.735Z</time>
      </trkpt>
      <trkpt lat="47.590649" lon="8.061473">
        <ele>480.312977</ele>
        <time>2021-11-07T16:51:46.777Z</time>
      </trkpt>
      <trkpt lat="47.590749" lon="8.061458">
        <ele>480.860391</ele>
        <time>2021-11-07T16:51:50.657Z</time>
      </trkpt>
      <trkpt lat="47.590896" lon="8.061451">
        <ele>481.661414</ele>
        <time>2021-11-07T16:51:56.259Z</time>
      </trkpt>
      <trkpt lat="47.591117" lon="8.061554">
        <ele>482.923113</ele>
        <time>2021-11-07T16:52:04.256Z</time>
      </trkpt>
      <trkpt lat="47.591357" lon="8.061643">
        <ele>484.270492</ele>
        <time>2021-11-07T16:52:12.324Z</time>
      </trkpt>
      <trkpt lat="47.591418" lon="8.061708">
        <ele>484.679608</ele>
        <time>2021-11-07T16:52:15.011Z</time>
      </trkpt>
      <trkpt lat="47.591483" lon="8.061686">
        <ele>485.042725</ele>
        <time>2021-11-07T16:52:18.133Z</time>
      </trkpt>
      <trkpt lat="47.591814" lon="8.061533">
        <ele>486.931026</ele>
        <time>2021-11-07T16:52:30.052Z</time>
      </trkpt>
      <trkpt lat="47.592349" lon="8.061287">
        <ele>489.344472</ele>
        <time>2021-11-07T16:52:49.336Z</time>
      </trkpt>
      <trkpt lat="47.592684" lon="8.061253">
        <ele>490.720289</ele>
        <time>2021-11-07T16:53:01.011Z</time>
      </trkpt>
      <trkpt lat="47.593024" lon="8.061322">
        <ele>492.126367</ele>
        <time>2021-11-07T16:53:12.349Z</time>
      </trkpt>
      <trkpt lat="47.593334" lon="8.061386">
        <ele>493.408791</ele>
        <time>2021-11-07T16:53:20.498Z</time>
      </trkpt>
      <trkpt lat="47.593551" lon="8.061391">
        <ele>494.298019</ele>
        <time>2021-11-07T16:53:26.522Z</time>
      </trkpt>
      <trkpt lat="47.593682" lon="8.061366">
        <ele>494.808835</ele>
        <time>2021-11-07T16:53:29.567Z</time>
      </trkpt>
      <trkpt lat="47.593887" lon="8.061332">
        <ele>495.230109</ele>
        <time>2021-11-07T16:53:35.244Z</time>
      </trkpt>
      <trkpt lat="47.593936" lon="8.061196">
        <ele>495.442472</ele>
        <time>2021-11-07T16:53:38.077Z</time>
      </trkpt>
      <trkpt lat="47.594120" lon="8.060864">
        <ele>496.034321</ele>
        <time>2021-11-07T16:53:47.109Z</time>
      </trkpt>
      <trkpt lat="47.594253" lon="8.060578">
        <ele>496.512788</ele>
        <time>2021-11-07T16:53:53.757Z</time>
      </trkpt>
      <trkpt lat="47.594308" lon="8.060414">
        <ele>496.765045</ele>
        <time>2021-11-07T16:53:57.111Z</time>
      </trkpt>
      <trkpt lat="47.594320" lon="8.060215">
        <ele>497.040211</ele>
        <time>2021-11-07T16:54:00.571Z</time>
      </trkpt>
      <trkpt lat="47.594306" lon="8.059876">
        <ele>497.507974</ele>
        <time>2021-11-07T16:54:07.066Z</time>
      </trkpt>
      <trkpt lat="47.594073" lon="8.058877">
        <ele>498.955507</ele>
        <time>2021-11-07T16:54:25.313Z</time>
      </trkpt>
      <trkpt lat="47.593956" lon="8.058627">
        <ele>499.367810</ele>
        <time>2021-11-07T16:54:30.711Z</time>
      </trkpt>
      <trkpt lat="47.593826" lon="8.058485">
        <ele>499.692209</ele>
        <time>2021-11-07T16:54:34.973Z</time>
      </trkpt>
      <trkpt lat="47.593653" lon="8.058290">
        <ele>500.128806</ele>
        <time>2021-11-07T16:54:41.270Z</time>
      </trkpt>
      <trkpt lat="47.593357" lon="8.057851">
        <ele>500.969918</ele>
        <time>2021-11-07T16:54:54.538Z</time>
      </trkpt>
      <trkpt lat="47.593187" lon="8.057553">
        <ele>501.498772</ele>
        <time>2021-11-07T16:55:02.348Z</time>
      </trkpt>
      <trkpt lat="47.593094" lon="8.057193">
        <ele>502.021111</ele>
        <time>2021-11-07T16:55:09.699Z</time>
      </trkpt>
      <trkpt lat="47.593117" lon="8.056460">
        <ele>502.234548</ele>
        <time>2021-11-07T16:55:23.275Z</time>
      </trkpt>
      <trkpt lat="47.593221" lon="8.055917">
        <ele>502.370564</ele>
        <time>2021-11-07T16:55:32.249Z</time>
      </trkpt>
      <trkpt lat="47.593249" lon="8.055352">
        <ele>502.507073</ele>
        <time>2021-11-07T16:55:39.910Z</time>
      </trkpt>
      <trkpt lat="47.593216" lon="8.054503">
        <ele>502.688121</ele>
        <time>2021-11-07T16:55:50.161Z</time>
      </trkpt>
      <trkpt lat="47.593117" lon="8.053648">
        <ele>501.540232</ele>
        <time>2021-11-07T16:55:59.672Z</time>
      </trkpt>
      <trkpt lat="47.593128" lon="8.053189">
        <ele>500.932501</ele>
        <time>2021-11-07T16:56:04.407Z</time>
      </trkpt>
      <trkpt lat="47.593172" lon="8.053040">
        <ele>500.717271</ele>
        <time>2021-11-07T16:56:06.098Z</time>
      </trkpt>
      <trkpt lat="47.593780" lon="8.052150">
        <ele>499.128765</ele>
        <time>2021-11-07T16:56:19.026Z</time>
      </trkpt>
      <trkpt lat="47.594230" lon="8.051608">
        <ele>498.713398</ele>
        <time>2021-11-07T16:56:28.568Z</time>
      </trkpt>
      <trkpt lat="47.594330" lon="8.051467">
        <ele>498.614532</ele>
        <time>2021-11-07T16:56:30.845Z</time>
      </trkpt>
      <trkpt lat="47.594665" lon="8.050992">
        <ele>498.282447</ele>
        <time>2021-11-07T16:56:39.441Z</time>
      </trkpt>
      <trkpt lat="47.594830" lon="8.050657">
        <ele>498.082012</ele>
        <time>2021-11-07T16:56:45.290Z</time>
      </trkpt>
      <trkpt lat="47.595014" lon="8.050118">
        <ele>498.038332</ele>
        <time>2021-11-07T16:56:54.555Z</time>
      </trkpt>
      <trkpt lat="47.595281" lon="8.049984">
        <ele>498.335347</ele>
        <time>2021-11-07T16:57:01.409Z</time>
      </trkpt>
      <trkpt lat="47.595951" lon="8.050141">
        <ele>499.050087</ele>
        <time>2021-11-07T16:57:19.955Z</time>
      </trkpt>
      <trkpt lat="47.596257" lon="8.050069">
        <ele>499.376553</ele>
        <time>2021-11-07T16:57:27.429Z</time>
      </trkpt>
      <trkpt lat="47.597042" lon="8.049582">
        <ele>501.289013</ele>
        <time>2021-11-07T16:57:46.364Z</time>
      </trkpt>
      <trkpt lat="47.597131" lon="8.049470">
        <ele>501.668376</ele>
        <time>2021-11-07T16:57:49.112Z</time>
      </trkpt>
      <trkpt lat="47.597293" lon="8.049268">
        <ele>502.356264</ele>
        <time>2021-11-07T16:57:54.460Z</time>
      </trkpt>
      <trkpt lat="47.597329" lon="8.049040">
        <ele>502.869464</ele>
        <time>2021-11-07T16:58:01.024Z</time>
      </trkpt>
      <trkpt lat="47.597280" lon="8.048861">
        <ele>503.292851</ele>
        <time>2021-11-07T16:58:03.362Z</time>
      </trkpt>
      <trkpt lat="47.597071" lon="8.048678">
        <ele>504.081669</ele>
        <time>2021-11-07T16:58:14.179Z</time>
      </trkpt>
      <trkpt lat="47.596556" lon="8.048354">
        <ele>506.395645</ele>
        <time>2021-11-07T16:58:35.947Z</time>
      </trkpt>
      <trkpt lat="47.596408" lon="8.048128">
        <ele>508.361519</ele>
        <time>2021-11-07T16:58:44.775Z</time>
      </trkpt>
      <trkpt lat="47.596341" lon="8.047998">
        <ele>509.382554</ele>
        <time>2021-11-07T16:58:52.211Z</time>
      </trkpt>
      <trkpt lat="47.596296" lon="8.047912">
        <ele>510.061831</ele>
        <time>2021-11-07T16:58:59.495Z</time>
      </trkpt>
      <trkpt lat="47.596177" lon="8.046442">
        <ele>519.300948</ele>
        <time>2021-11-07T16:59:57.857Z</time>
      </trkpt>
      <trkpt lat="47.596101" lon="8.046030">
        <ele>521.966417</ele>
        <time>2021-11-07T17:00:14.882Z</time>
      </trkpt>
      <trkpt lat="47.596052" lon="8.045947">
        <ele>522.617559</ele>
        <time>2021-11-07T17:00:22.135Z</time>
      </trkpt>
      <trkpt lat="47.595998" lon="8.045932">
        <ele>523.076009</ele>
        <time>2021-11-07T17:00:28.010Z</time>
      </trkpt>
      <trkpt lat="47.595755" lon="8.046073">
        <ele>525.253476</ele>
        <time>2021-11-07T17:00:43.004Z</time>
      </trkpt>
      <trkpt lat="47.595577" lon="8.046292">
        <ele>527.183511</ele>
        <time>2021-11-07T17:00:55.865Z</time>
      </trkpt>
      <trkpt lat="47.595182" lon="8.046596">
        <ele>530.897154</ele>
        <time>2021-11-07T17:01:19.124Z</time>
      </trkpt>
      <trkpt lat="47.595078" lon="8.046597">
        <ele>531.765019</ele>
        <time>2021-11-07T17:01:27.362Z</time>
      </trkpt>
      <trkpt lat="47.594877" lon="8.046451">
        <ele>533.632717</ele>
        <time>2021-11-07T17:01:36.137Z</time>
      </trkpt>
      <trkpt lat="47.594833" lon="8.046393">
        <ele>534.123981</ele>
        <time>2021-11-07T17:01:39.625Z</time>
      </trkpt>
      <trkpt lat="47.594659" lon="8.045915">
        <ele>537.180743</ele>
        <time>2021-11-07T17:01:56.942Z</time>
      </trkpt>
      <trkpt lat="47.594632" lon="8.045696">
        <ele>538.065812</ele>
        <time>2021-11-07T17:02:02.207Z</time>
      </trkpt>
      <trkpt lat="47.594714" lon="8.045470">
        <ele>539.047661</ele>
        <time>2021-11-07T17:02:09.486Z</time>
      </trkpt>
      <trkpt lat="47.595058" lon="8.044850">
        <ele>542.119341</ele>
        <time>2021-11-07T17:02:31.806Z</time>
      </trkpt>
      <trkpt lat="47.595125" lon="8.044729">
        <ele>542.718324</ele>
        <time>2021-11-07T17:02:36.855Z</time>
      </trkpt>
      <trkpt lat="47.595145" lon="8.044264">
        <ele>544.500949</ele>
        <time>2021-11-07T17:02:51.044Z</time>
      </trkpt>
      <trkpt lat="47.595119" lon="8.043810">
        <ele>546.244128</ele>
        <time>2021-11-07T17:03:03.958Z</time>
      </trkpt>
      <trkpt lat="47.595066" lon="8.043389">
        <ele>547.820163</ele>
        <time>2021-11-07T17:03:15.954Z</time>
      </trkpt>
      <trkpt lat="47.595042" lon="8.042838">
        <ele>549.597417</ele>
        <time>2021-11-07T17:03:31.074Z</time>
      </trkpt>
      <trkpt lat="47.595061" lon="8.042566">
        <ele>550.477615</ele>
        <time>2021-11-07T17:03:39.192Z</time>
      </trkpt>
      <trkpt lat="47.594768" lon="8.041942">
        <ele>552.925073</ele>
        <time>2021-11-07T17:03:59.829Z</time>
      </trkpt>
      <trkpt lat="47.594253" lon="8.040904">
        <ele>556.588143</ele>
        <time>2021-11-07T17:04:31.784Z</time>
      </trkpt>
      <trkpt lat="47.593986" lon="8.040131">
        <ele>558.026838</ele>
        <time>2021-11-07T17:04:50.915Z</time>
      </trkpt>
      <trkpt lat="47.593758" lon="8.039114">
        <ele>559.802200</ele>
        <time>2021-11-07T17:05:11.806Z</time>
      </trkpt>
      <trkpt lat="47.593716" lon="8.038902">
        <ele>560.168230</ele>
        <time>2021-11-07T17:05:15.537Z</time>
      </trkpt>
      <trkpt lat="47.593653" lon="8.038574">
        <ele>560.373900</ele>
        <time>2021-11-07T17:05:21.176Z</time>
      </trkpt>
      <trkpt lat="47.593572" lon="8.038187">
        <ele>560.044490</ele>
        <time>2021-11-07T17:05:27.097Z</time>
      </trkpt>
      <trkpt lat="47.593440" lon="8.037805">
        <ele>559.695555</ele>
        <time>2021-11-07T17:05:32.558Z</time>
      </trkpt>
      <trkpt lat="47.593404" lon="8.037714">
        <ele>559.609788</ele>
        <time>2021-11-07T17:05:33.878Z</time>
      </trkpt>
      <trkpt lat="47.593282" lon="8.037406">
        <ele>559.319407</ele>
        <time>2021-11-07T17:05:37.916Z</time>
      </trkpt>
      <trkpt lat="47.593207" lon="8.037211">
        <ele>559.136914</ele>
        <time>2021-11-07T17:05:40.336Z</time>
      </trkpt>
      <trkpt lat="47.593192" lon="8.037147">
        <ele>559.081833</ele>
        <time>2021-11-07T17:05:41.077Z</time>
      </trkpt>
      <trkpt lat="47.593137" lon="8.036921">
        <ele>558.886511</ele>
        <time>2021-11-07T17:05:43.638Z</time>
      </trkpt>
      <trkpt lat="47.593134" lon="8.036910">
        <ele>558.876865</ele>
        <time>2021-11-07T17:05:43.742Z</time>
      </trkpt>
      <trkpt lat="47.593028" lon="8.036477">
        <ele>558.502386</ele>
        <time>2021-11-07T17:05:48.575Z</time>
      </trkpt>
      <trkpt lat="47.592676" lon="8.036726">
        <ele>557.386008</ele>
        <time>2021-11-07T17:05:52.486Z</time>
      </trkpt>
      <trkpt lat="47.592446" lon="8.036889">
        <ele>556.398023</ele>
        <time>2021-11-07T17:05:54.936Z</time>
      </trkpt>
      <trkpt lat="47.592197" lon="8.037045">
        <ele>555.350376</ele>
        <time>2021-11-07T17:05:57.581Z</time>
      </trkpt>
      <trkpt lat="47.591840" lon="8.037249">
        <ele>553.867573</ele>
        <time>2021-11-07T17:06:01.273Z</time>
      </trkpt>
      <trkpt lat="47.591620" lon="8.037319">
        <ele>552.995515</ele>
        <time>2021-11-07T17:06:03.454Z</time>
      </trkpt>
      <trkpt lat="47.591489" lon="8.037361">
        <ele>552.476068</ele>
        <time>2021-11-07T17:06:04.823Z</time>
      </trkpt>
      <trkpt lat="47.591397" lon="8.037383">
        <ele>552.114899</ele>
        <time>2021-11-07T17:06:05.693Z</time>
      </trkpt>
      <trkpt lat="47.591150" lon="8.037443">
        <ele>551.132115</ele>
        <time>2021-11-07T17:06:08.130Z</time>
      </trkpt>
      <trkpt lat="47.591044" lon="8.037455">
        <ele>550.694901</ele>
        <time>2021-11-07T17:06:09.139Z</time>
      </trkpt>
      <trkpt lat="47.590476" lon="8.037474">
        <ele>548.358302</ele>
        <time>2021-11-07T17:06:14.757Z</time>
      </trkpt>
      <trkpt lat="47.590067" lon="8.037365">
        <ele>546.649260</ele>
        <time>2021-11-07T17:06:18.826Z</time>
      </trkpt>
      <trkpt lat="47.589869" lon="8.037227">
        <ele>545.749471</ele>
        <time>2021-11-07T17:06:20.971Z</time>
      </trkpt>
      <trkpt lat="47.589825" lon="8.037196">
        <ele>545.549123</ele>
        <time>2021-11-07T17:06:21.426Z</time>
      </trkpt>
      <trkpt lat="47.589772" lon="8.037159">
        <ele>545.308199</ele>
        <time>2021-11-07T17:06:21.966Z</time>
      </trkpt>
      <trkpt lat="47.589499" lon="8.036832">
        <ele>543.836289</ele>
        <time>2021-11-07T17:06:25.388Z</time>
      </trkpt>
      <trkpt lat="47.589239" lon="8.036386">
        <ele>541.687692</ele>
        <time>2021-11-07T17:06:29.218Z</time>
      </trkpt>
      <trkpt lat="47.588947" lon="8.035308">
        <ele>537.453681</ele>
        <time>2021-11-07T17:06:36.519Z</time>
      </trkpt>
      <trkpt lat="47.588642" lon="8.034658">
        <ele>534.567664</ele>
        <time>2021-11-07T17:06:41.425Z</time>
      </trkpt>
      <trkpt lat="47.588478" lon="8.034510">
        <ele>533.313877</ele>
        <time>2021-11-07T17:06:43.170Z</time>
      </trkpt>
      <trkpt lat="47.587928" lon="8.034180">
        <ele>529.124963</ele>
        <time>2021-11-07T17:06:48.505Z</time>
      </trkpt>
      <trkpt lat="47.586980" lon="8.033883">
        <ele>522.284262</ele>
        <time>2021-11-07T17:06:57.139Z</time>
      </trkpt>
      <trkpt lat="47.585583" lon="8.032905">
        <ele>511.593572</ele>
        <time>2021-11-07T17:07:11.006Z</time>
      </trkpt>
      <trkpt lat="47.585091" lon="8.032467">
        <ele>508.054232</ele>
        <time>2021-11-07T17:07:16.212Z</time>
      </trkpt>
      <trkpt lat="47.584621" lon="8.032205">
        <ele>505.582576</ele>
        <time>2021-11-07T17:07:20.842Z</time>
      </trkpt>
      <trkpt lat="47.584568" lon="8.032176">
        <ele>505.304489</ele>
        <time>2021-11-07T17:07:21.343Z</time>
      </trkpt>
      <trkpt lat="47.584000" lon="8.032100">
        <ele>502.497206</ele>
        <time>2021-11-07T17:07:26.791Z</time>
      </trkpt>
      <trkpt lat="47.583770" lon="8.032077">
        <ele>501.362483</ele>
        <time>2021-11-07T17:07:28.999Z</time>
      </trkpt>
      <trkpt lat="47.583557" lon="8.032062">
        <ele>500.312831</ele>
        <time>2021-11-07T17:07:31.217Z</time>
      </trkpt>
      <trkpt lat="47.583316" lon="8.032065">
        <ele>499.965858</ele>
        <time>2021-11-07T17:07:33.712Z</time>
      </trkpt>
      <trkpt lat="47.583028" lon="8.032087">
        <ele>499.601423</ele>
        <time>2021-11-07T17:07:36.778Z</time>
      </trkpt>
      <trkpt lat="47.582877" lon="8.032131">
        <ele>499.406949</ele>
        <time>2021-11-07T17:07:38.575Z</time>
      </trkpt>
      <trkpt lat="47.582534" lon="8.032340">
        <ele>498.938308</ele>
        <time>2021-11-07T17:07:42.991Z</time>
      </trkpt>
      <trkpt lat="47.582379" lon="8.032452">
        <ele>498.720403</ele>
        <time>2021-11-07T17:07:45.097Z</time>
      </trkpt>
      <trkpt lat="47.582305" lon="8.032518">
        <ele>498.611268</ele>
        <time>2021-11-07T17:07:46.246Z</time>
      </trkpt>
      <trkpt lat="47.582257" lon="8.032344">
        <ele>498.451023</ele>
        <time>2021-11-07T17:07:49.012Z</time>
      </trkpt>
      <trkpt lat="47.582218" lon="8.032127">
        <ele>498.259594</ele>
        <time>2021-11-07T17:07:52.254Z</time>
      </trkpt>
      <trkpt lat="47.582194" lon="8.031979">
        <ele>498.129841</ele>
        <time>2021-11-07T17:07:54.422Z</time>
      </trkpt>
      <trkpt lat="47.582207" lon="8.031849">
        <ele>498.017815</ele>
        <time>2021-11-07T17:07:56.554Z</time>
      </trkpt>
      <trkpt lat="47.581991" lon="8.031722">
        <ele>497.930933</ele>
        <time>2021-11-07T17:08:01.447Z</time>
      </trkpt>
      <trkpt lat="47.581914" lon="8.031633">
        <ele>497.906192</ele>
        <time>2021-11-07T17:08:03.821Z</time>
      </trkpt>
      <trkpt lat="47.581703" lon="8.031357">
        <ele>497.834890</ele>
        <time>2021-11-07T17:08:09.819Z</time>
      </trkpt>
      <trkpt lat="47.581603" lon="8.031197">
        <ele>497.797608</ele>
        <time>2021-11-07T17:08:13.197Z</time>
      </trkpt>
      <trkpt lat="47.581523" lon="8.031026">
        <ele>497.762039</ele>
        <time>2021-11-07T17:08:15.795Z</time>
      </trkpt>
      <trkpt lat="47.581423" lon="8.030639">
        <ele>497.691204</ele>
        <time>2021-11-07T17:08:21.262Z</time>
      </trkpt>
      <trkpt lat="47.581354" lon="8.030430">
        <ele>497.651432</ele>
        <time>2021-11-07T17:08:23.972Z</time>
      </trkpt>
      <trkpt lat="47.581171" lon="8.030156">
        <ele>497.585526</ele>
        <time>2021-11-07T17:08:28.670Z</time>
      </trkpt>
      <trkpt lat="47.580985" lon="8.029962">
        <ele>497.527900</ele>
        <time>2021-11-07T17:08:32.694Z</time>
      </trkpt>
      <trkpt lat="47.580745" lon="8.029776">
        <ele>497.213257</ele>
        <time>2021-11-07T17:08:37.258Z</time>
      </trkpt>
      <trkpt lat="47.580567" lon="8.029638">
        <ele>496.977535</ele>
        <time>2021-11-07T17:08:40.823Z</time>
      </trkpt>
      <trkpt lat="47.580537" lon="8.029599">
        <ele>496.930711</ele>
        <time>2021-11-07T17:08:41.435Z</time>
      </trkpt>
      <trkpt lat="47.580507" lon="8.029540">
        <ele>496.872225</ele>
        <time>2021-11-07T17:08:42.296Z</time>
      </trkpt>
      <trkpt lat="47.580457" lon="8.029426">
        <ele>496.764586</ele>
        <time>2021-11-07T17:08:43.867Z</time>
      </trkpt>
      <trkpt lat="47.580445" lon="8.029350">
        <ele>496.702799</ele>
        <time>2021-11-07T17:08:44.876Z</time>
      </trkpt>
      <trkpt lat="47.580435" lon="8.029225">
        <ele>496.603157</ele>
        <time>2021-11-07T17:08:46.392Z</time>
      </trkpt>
      <trkpt lat="47.580414" lon="8.028952">
        <ele>496.385653</ele>
        <time>2021-11-07T17:08:49.389Z</time>
      </trkpt>
      <trkpt lat="47.580414" lon="8.028741">
        <ele>496.218628</ele>
        <time>2021-11-07T17:08:51.927Z</time>
      </trkpt>
      <trkpt lat="47.580504" lon="8.027848">
        <ele>495.503894</ele>
        <time>2021-11-07T17:09:01.891Z</time>
      </trkpt>
      <trkpt lat="47.580430" lon="8.027348">
        <ele>495.221362</ele>
        <time>2021-11-07T17:09:07.729Z</time>
      </trkpt>
      <trkpt lat="47.580406" lon="8.027217">
        <ele>495.155408</ele>
        <time>2021-11-07T17:09:09.475Z</time>
      </trkpt>
      <trkpt lat="47.580391" lon="8.026955">
        <ele>495.027653</ele>
        <time>2021-11-07T17:09:12.578Z</time>
      </trkpt>
      <trkpt lat="47.580386" lon="8.026802">
        <ele>494.953228</ele>
        <time>2021-11-07T17:09:14.440Z</time>
      </trkpt>
      <trkpt lat="47.580341" lon="8.025695">
        <ele>494.414397</ele>
        <time>2021-11-07T17:09:28.302Z</time>
      </trkpt>
      <trkpt lat="47.580173" lon="8.024170">
        <ele>494.443197</ele>
        <time>2021-11-07T17:09:47.528Z</time>
      </trkpt>
      <trkpt lat="47.580262" lon="8.023307">
        <ele>494.742324</ele>
        <time>2021-11-07T17:10:00.139Z</time>
      </trkpt>
      <trkpt lat="47.580380" lon="8.022562">
        <ele>495.004527</ele>
        <time>2021-11-07T17:10:12.494Z</time>
      </trkpt>
      <trkpt lat="47.580425" lon="8.022255">
        <ele>495.548744</ele>
        <time>2021-11-07T17:10:18.935Z</time>
      </trkpt>
      <trkpt lat="47.580470" lon="8.021934">
        <ele>496.291679</ele>
        <time>2021-11-07T17:10:25.382Z</time>
      </trkpt>
      <trkpt lat="47.580296" lon="8.020454">
        <ele>499.695952</ele>
        <time>2021-11-07T17:11:04.017Z</time>
      </trkpt>
      <trkpt lat="47.580271" lon="8.020243">
        <ele>500.181404</ele>
        <time>2021-11-07T17:11:09.740Z</time>
      </trkpt>
      <trkpt lat="47.580484" lon="8.019833">
        <ele>501.223461</ele>
        <time>2021-11-07T17:11:21.017Z</time>
      </trkpt>
      <trkpt lat="47.580955" lon="8.019317">
        <ele>502.264889</ele>
        <time>2021-11-07T17:11:36.922Z</time>
      </trkpt>
      <trkpt lat="47.580948" lon="8.019213">
        <ele>502.390257</ele>
        <time>2021-11-07T17:11:38.715Z</time>
      </trkpt>
      <trkpt lat="47.580916" lon="8.019035">
        <ele>502.611220</ele>
        <time>2021-11-07T17:11:41.693Z</time>
      </trkpt>
      <trkpt lat="47.580830" lon="8.018918">
        <ele>502.818784</ele>
        <time>2021-11-07T17:11:45.643Z</time>
      </trkpt>
      <trkpt lat="47.580782" lon="8.018916">
        <ele>502.904172</ele>
        <time>2021-11-07T17:11:46.652Z</time>
      </trkpt>
      <trkpt lat="47.580628" lon="8.018939">
        <ele>503.179405</ele>
        <time>2021-11-07T17:11:50.507Z</time>
      </trkpt>
      <trkpt lat="47.580282" lon="8.019086">
        <ele>503.819440</ele>
        <time>2021-11-07T17:11:58.453Z</time>
      </trkpt>
      <trkpt lat="47.580093" lon="8.019071">
        <ele>504.156007</ele>
        <time>2021-11-07T17:12:03.683Z</time>
      </trkpt>
      <trkpt lat="47.579943" lon="8.018927">
        <ele>504.293375</ele>
        <time>2021-11-07T17:12:05.960Z</time>
      </trkpt>
      <trkpt lat="47.579890" lon="8.018812">
        <ele>504.308851</ele>
        <time>2021-11-07T17:12:08.146Z</time>
      </trkpt>
      <trkpt lat="47.579827" lon="8.017916">
        <ele>504.408955</ele>
        <time>2021-11-07T17:12:15.659Z</time>
      </trkpt>
      <trkpt lat="47.579800" lon="8.017631">
        <ele>504.440935</ele>
        <time>2021-11-07T17:12:18.776Z</time>
      </trkpt>
      <trkpt lat="47.579770" lon="8.017313">
        <ele>504.476615</ele>
        <time>2021-11-07T17:12:21.233Z</time>
      </trkpt>
      <trkpt lat="47.579803" lon="8.016558">
        <ele>504.560687</ele>
        <time>2021-11-07T17:12:30.497Z</time>
      </trkpt>
      <trkpt lat="47.579807" lon="8.016479">
        <ele>504.569490</ele>
        <time>2021-11-07T17:12:31.652Z</time>
      </trkpt>
      <trkpt lat="47.579782" lon="8.016013">
        <ele>504.561684</ele>
        <time>2021-11-07T17:12:37.680Z</time>
      </trkpt>
      <trkpt lat="47.579693" lon="8.015395">
        <ele>504.548307</ele>
        <time>2021-11-07T17:12:44.962Z</time>
      </trkpt>
      <trkpt lat="47.579677" lon="8.015285">
        <ele>504.545925</ele>
        <time>2021-11-07T17:12:45.813Z</time>
      </trkpt>
      <trkpt lat="47.579476" lon="8.014445">
        <ele>504.527057</ele>
        <time>2021-11-07T17:12:54.118Z</time>
      </trkpt>
      <trkpt lat="47.579390" lon="8.014221">
        <ele>504.521601</ele>
        <time>2021-11-07T17:12:56.155Z</time>
      </trkpt>
      <trkpt lat="47.579303" lon="8.013994">
        <ele>504.516074</ele>
        <time>2021-11-07T17:12:58.817Z</time>
      </trkpt>
      <trkpt lat="47.579083" lon="8.012800">
        <ele>504.108423</ele>
        <time>2021-11-07T17:13:09.494Z</time>
      </trkpt>
      <trkpt lat="47.578994" lon="8.011565">
        <ele>503.679809</ele>
        <time>2021-11-07T17:13:20.899Z</time>
      </trkpt>
      <trkpt lat="47.578896" lon="8.010718">
        <ele>503.259915</ele>
        <time>2021-11-07T17:13:28.456Z</time>
      </trkpt>
      <trkpt lat="47.578877" lon="8.010552">
        <ele>503.167915</ele>
        <time>2021-11-07T17:13:30.556Z</time>
      </trkpt>
      <trkpt lat="47.578802" lon="8.010247">
        <ele>502.990534</ele>
        <time>2021-11-07T17:13:33.270Z</time>
      </trkpt>
      <trkpt lat="47.578506" lon="8.009815">
        <ele>502.654077</ele>
        <time>2021-11-07T17:13:38.562Z</time>
      </trkpt>
      <trkpt lat="47.578339" lon="8.009582">
        <ele>502.468317</ele>
        <time>2021-11-07T17:13:41.792Z</time>
      </trkpt>
      <trkpt lat="47.578275" lon="8.009410">
        <ele>502.360986</ele>
        <time>2021-11-07T17:13:43.265Z</time>
      </trkpt>
      <trkpt lat="47.578269" lon="8.009376">
        <ele>502.341782</ele>
        <time>2021-11-07T17:13:44.352Z</time>
      </trkpt>
      <trkpt lat="47.578332" lon="8.009223">
        <ele>502.243838</ele>
        <time>2021-11-07T17:13:45.756Z</time>
      </trkpt>
      <trkpt lat="47.578864" lon="8.008842">
        <ele>500.231996</ele>
        <time>2021-11-07T17:13:52.318Z</time>
      </trkpt>
      <trkpt lat="47.579619" lon="8.008172">
        <ele>496.585442</ele>
        <time>2021-11-07T17:14:00.942Z</time>
      </trkpt>
      <trkpt lat="47.579923" lon="8.008040">
        <ele>495.272708</ele>
        <time>2021-11-07T17:14:03.854Z</time>
      </trkpt>
      <trkpt lat="47.580912" lon="8.007336">
        <ele>486.787275</ele>
        <time>2021-11-07T17:14:13.560Z</time>
      </trkpt>
      <trkpt lat="47.581140" lon="8.006991">
        <ele>484.093472</ele>
        <time>2021-11-07T17:14:16.381Z</time>
      </trkpt>
      <trkpt lat="47.581321" lon="8.006142">
        <ele>479.161726</ele>
        <time>2021-11-07T17:14:21.577Z</time>
      </trkpt>
      <trkpt lat="47.581764" lon="8.005054">
        <ele>472.429298</ele>
        <time>2021-11-07T17:14:29.159Z</time>
      </trkpt>
      <trkpt lat="47.582188" lon="8.004718">
        <ele>468.653483</ele>
        <time>2021-11-07T17:14:33.410Z</time>
      </trkpt>
      <trkpt lat="47.582510" lon="8.004377">
        <ele>465.640913</ele>
        <time>2021-11-07T17:14:36.947Z</time>
      </trkpt>
      <trkpt lat="47.582514" lon="8.004368">
        <ele>465.622505</ele>
        <time>2021-11-07T17:14:37.008Z</time>
      </trkpt>
      <trkpt lat="47.582604" lon="8.004164">
        <ele>465.206193</ele>
        <time>2021-11-07T17:14:38.503Z</time>
      </trkpt>
      <trkpt lat="47.582727" lon="8.003464">
        <ele>463.970782</ele>
        <time>2021-11-07T17:14:43.057Z</time>
      </trkpt>
      <trkpt lat="47.582736" lon="8.003437">
        <ele>463.919346</ele>
        <time>2021-11-07T17:14:43.227Z</time>
      </trkpt>
      <trkpt lat="47.582781" lon="8.003305">
        <ele>463.666750</ele>
        <time>2021-11-07T17:14:44.108Z</time>
      </trkpt>
      <trkpt lat="47.582789" lon="8.003167">
        <ele>463.430195</ele>
        <time>2021-11-07T17:14:45.169Z</time>
      </trkpt>
      <trkpt lat="47.582779" lon="8.003036">
        <ele>463.205036</ele>
        <time>2021-11-07T17:14:47.485Z</time>
      </trkpt>
      <trkpt lat="47.582735" lon="8.002783">
        <ele>462.758813</ele>
        <time>2021-11-07T17:14:49.193Z</time>
      </trkpt>
      <trkpt lat="47.582722" lon="8.002476">
        <ele>462.233463</ele>
        <time>2021-11-07T17:14:54.489Z</time>
      </trkpt>
      <trkpt lat="47.582770" lon="8.002301">
        <ele>461.910820</ele>
        <time>2021-11-07T17:14:55.787Z</time>
      </trkpt>
      <trkpt lat="47.583138" lon="8.001749">
        <ele>462.517615</ele>
        <time>2021-11-07T17:15:08.294Z</time>
      </trkpt>
      <trkpt lat="47.583129" lon="8.001600">
        <ele>463.164983</ele>
        <time>2021-11-07T17:15:12.666Z</time>
      </trkpt>
      <trkpt lat="47.583038" lon="8.001422">
        <ele>464.131513</ele>
        <time>2021-11-07T17:15:14.329Z</time>
      </trkpt>
      <trkpt lat="47.582884" lon="8.001201">
        <ele>465.506568</ele>
        <time>2021-11-07T17:15:24.718Z</time>
      </trkpt>
      <trkpt lat="47.582718" lon="8.001131">
        <ele>466.613797</ele>
        <time>2021-11-07T17:15:29.787Z</time>
      </trkpt>
      <trkpt lat="47.582003" lon="8.001392">
        <ele>471.337943</ele>
        <time>2021-11-07T17:16:07.616Z</time>
      </trkpt>
      <trkpt lat="47.581843" lon="8.001622">
        <ele>472.753595</ele>
        <time>2021-11-07T17:16:20.008Z</time>
      </trkpt>
      <trkpt lat="47.581720" lon="8.001901">
        <ele>473.983847</ele>
        <time>2021-11-07T17:16:32.501Z</time>
      </trkpt>
      <trkpt lat="47.581587" lon="8.002199">
        <ele>475.302763</ele>
        <time>2021-11-07T17:16:45.575Z</time>
      </trkpt>
      <trkpt lat="47.581538" lon="8.002492">
        <ele>476.416996</ele>
        <time>2021-11-07T17:16:53.745Z</time>
      </trkpt>
      <trkpt lat="47.581433" lon="8.002768">
        <ele>477.586595</ele>
        <time>2021-11-07T17:17:02.808Z</time>
      </trkpt>
      <trkpt lat="47.580693" lon="8.003731">
        <ele>482.481978</ele>
        <time>2021-11-07T17:17:29.946Z</time>
      </trkpt>
      <trkpt lat="47.580305" lon="8.004384">
        <ele>482.261209</ele>
        <time>2021-11-07T17:17:37.902Z</time>
      </trkpt>
      <trkpt lat="47.579909" lon="8.004868">
        <ele>482.068184</ele>
        <time>2021-11-07T17:17:43.594Z</time>
      </trkpt>
      <trkpt lat="47.579228" lon="8.005324">
        <ele>482.160860</ele>
        <time>2021-11-07T17:17:52.416Z</time>
      </trkpt>
      <trkpt lat="47.578736" lon="8.005500">
        <ele>483.391650</ele>
        <time>2021-11-07T17:18:01.080Z</time>
      </trkpt>
      <trkpt lat="47.578325" lon="8.005530">
        <ele>484.392332</ele>
        <time>2021-11-07T17:18:11.200Z</time>
      </trkpt>
      <trkpt lat="47.578086" lon="8.005441">
        <ele>484.991591</ele>
        <time>2021-11-07T17:18:18.366Z</time>
      </trkpt>
      <trkpt lat="47.577792" lon="8.005044">
        <ele>485.958699</ele>
        <time>2021-11-07T17:18:31.768Z</time>
      </trkpt>
      <trkpt lat="47.577375" lon="8.004938">
        <ele>487.826049</ele>
        <time>2021-11-07T17:18:47.869Z</time>
      </trkpt>
      <trkpt lat="47.576902" lon="8.005070">
        <ele>490.260527</ele>
        <time>2021-11-07T17:19:06.627Z</time>
      </trkpt>
      <trkpt lat="47.575892" lon="8.005591">
        <ele>495.369398</ele>
        <time>2021-11-07T17:19:44.035Z</time>
      </trkpt>
      <trkpt lat="47.575756" lon="8.005585">
        <ele>495.485051</ele>
        <time>2021-11-07T17:19:48.080Z</time>
      </trkpt>
      <trkpt lat="47.575749" lon="8.005580">
        <ele>495.491656</ele>
        <time>2021-11-07T17:19:48.349Z</time>
      </trkpt>
      <trkpt lat="47.575531" lon="8.005431">
        <ele>495.695709</ele>
        <time>2021-11-07T17:19:54.685Z</time>
      </trkpt>
      <trkpt lat="47.575508" lon="8.005404">
        <ele>495.720647</ele>
        <time>2021-11-07T17:19:55.504Z</time>
      </trkpt>
      <trkpt lat="47.575411" lon="8.005256">
        <ele>495.838972</ele>
        <time>2021-11-07T17:19:58.598Z</time>
      </trkpt>
      <trkpt lat="47.575284" lon="8.005066">
        <ele>495.992348</ele>
        <time>2021-11-07T17:20:02.052Z</time>
      </trkpt>
      <trkpt lat="47.575168" lon="8.004892">
        <ele>496.132626</ele>
        <time>2021-11-07T17:20:04.311Z</time>
      </trkpt>
      <trkpt lat="47.574764" lon="8.003762">
        <ele>496.774498</ele>
        <time>2021-11-07T17:20:15.046Z</time>
      </trkpt>
      <trkpt lat="47.574686" lon="8.003684">
        <ele>496.596490</ele>
        <time>2021-11-07T17:20:16.015Z</time>
      </trkpt>
      <trkpt lat="47.574392" lon="8.003728">
        <ele>496.037449</ele>
        <time>2021-11-07T17:20:19.422Z</time>
      </trkpt>
      <trkpt lat="47.574305" lon="8.003732">
        <ele>495.872776</ele>
        <time>2021-11-07T17:20:20.270Z</time>
      </trkpt>
      <trkpt lat="47.574217" lon="8.003704">
        <ele>495.702498</ele>
        <time>2021-11-07T17:20:21.218Z</time>
      </trkpt>
      <trkpt lat="47.573800" lon="8.003256">
        <ele>494.728158</ele>
        <time>2021-11-07T17:20:26.947Z</time>
      </trkpt>
      <trkpt lat="47.573718" lon="8.003157">
        <ele>494.528076</ele>
        <time>2021-11-07T17:20:27.982Z</time>
      </trkpt>
      <trkpt lat="47.573679" lon="8.003065">
        <ele>494.389395</ele>
        <time>2021-11-07T17:20:28.723Z</time>
      </trkpt>
      <trkpt lat="47.573643" lon="8.002920">
        <ele>494.192191</ele>
        <time>2021-11-07T17:20:29.922Z</time>
      </trkpt>
      <trkpt lat="47.573502" lon="8.002634">
        <ele>493.740076</ele>
        <time>2021-11-07T17:20:32.400Z</time>
      </trkpt>
      <trkpt lat="47.573400" lon="8.002344">
        <ele>493.453273</ele>
        <time>2021-11-07T17:20:34.930Z</time>
      </trkpt>
      <trkpt lat="47.573126" lon="8.002031">
        <ele>493.561059</ele>
        <time>2021-11-07T17:20:39.154Z</time>
      </trkpt>
      <trkpt lat="47.573026" lon="8.001932">
        <ele>493.598528</ele>
        <time>2021-11-07T17:20:41.020Z</time>
      </trkpt>
      <trkpt lat="47.572938" lon="8.001919">
        <ele>493.626084</ele>
        <time>2021-11-07T17:20:42.122Z</time>
      </trkpt>
      <trkpt lat="47.572938" lon="8.001983">
        <ele>493.639537</ele>
        <time>2021-11-07T17:20:42.757Z</time>
      </trkpt>
      <trkpt lat="47.572943" lon="8.002035">
        <ele>493.650579</ele>
        <time>2021-11-07T17:20:43.538Z</time>
      </trkpt>
      <trkpt lat="47.572943" lon="8.002035">
        <ele>493.650579</ele>
        <time>2021-11-07T17:20:43.562Z</time>
      </trkpt>
      <trkpt lat="47.572943" lon="8.002035">
        <ele>493.650579</ele>
        <time>2021-11-07T17:20:43.626Z</time>
      </trkpt>
      <trkpt lat="47.572938" lon="8.001983">
        <ele>493.661620</ele>
        <time>2021-11-07T17:20:44.425Z</time>
      </trkpt>
      <trkpt lat="47.572938" lon="8.001919">
        <ele>493.675074</ele>
        <time>2021-11-07T17:20:45.321Z</time>
      </trkpt>
      <trkpt lat="47.572940" lon="8.001742">
        <ele>493.712286</ele>
        <time>2021-11-07T17:20:47.195Z</time>
      </trkpt>
      <trkpt lat="47.572943" lon="8.001367">
        <ele>493.791121</ele>
        <time>2021-11-07T17:20:51.815Z</time>
      </trkpt>
      <trkpt lat="47.572935" lon="8.001208">
        <ele>493.824637</ele>
        <time>2021-11-07T17:20:54.063Z</time>
      </trkpt>
      <trkpt lat="47.572887" lon="8.000996">
        <ele>493.871644</ele>
        <time>2021-11-07T17:20:56.365Z</time>
      </trkpt>
      <trkpt lat="47.572824" lon="8.000753">
        <ele>493.926368</ele>
        <time>2021-11-07T17:21:00.604Z</time>
      </trkpt>
      <trkpt lat="47.572747" lon="8.000534">
        <ele>493.978281</ele>
        <time>2021-11-07T17:21:03.059Z</time>
      </trkpt>
      <trkpt lat="47.572662" lon="8.000300">
        <ele>494.274298</ele>
        <time>2021-11-07T17:21:07.748Z</time>
      </trkpt>
      <trkpt lat="47.572611" lon="8.000059">
        <ele>494.655050</ele>
        <time>2021-11-07T17:21:11.007Z</time>
      </trkpt>
      <trkpt lat="47.572543" lon="7.999708">
        <ele>495.205554</ele>
        <time>2021-11-07T17:21:17.502Z</time>
      </trkpt>
      <trkpt lat="47.572560" lon="7.999471">
        <ele>495.564837</ele>
        <time>2021-11-07T17:21:20.652Z</time>
      </trkpt>
      <trkpt lat="47.572588" lon="7.999397">
        <ele>495.692736</ele>
        <time>2021-11-07T17:21:22.104Z</time>
      </trkpt>
      <trkpt lat="47.572623" lon="7.999326">
        <ele>495.825294</ele>
        <time>2021-11-07T17:21:24.004Z</time>
      </trkpt>
      <trkpt lat="47.572684" lon="7.999259">
        <ele>495.994936</ele>
        <time>2021-11-07T17:21:26.132Z</time>
      </trkpt>
      <trkpt lat="47.572737" lon="7.999234">
        <ele>496.119213</ele>
        <time>2021-11-07T17:21:27.527Z</time>
      </trkpt>
      <trkpt lat="47.572701" lon="7.999118">
        <ele>496.311692</ele>
        <time>2021-11-07T17:21:29.051Z</time>
      </trkpt>
      <trkpt lat="47.572664" lon="7.998959">
        <ele>496.565237</ele>
        <time>2021-11-07T17:21:32.209Z</time>
      </trkpt>
      <trkpt lat="47.572708" lon="7.998779">
        <ele>496.853842</ele>
        <time>2021-11-07T17:21:36.069Z</time>
      </trkpt>
      <trkpt lat="47.572763" lon="7.998535">
        <ele>497.241649</ele>
        <time>2021-11-07T17:21:39.743Z</time>
      </trkpt>
      <trkpt lat="47.572796" lon="7.998352">
        <ele>497.527199</ele>
        <time>2021-11-07T17:21:43.585Z</time>
      </trkpt>
      <trkpt lat="47.572807" lon="7.998270">
        <ele>497.653231</ele>
        <time>2021-11-07T17:21:45.283Z</time>
      </trkpt>
      <trkpt lat="47.572559" lon="7.996184">
        <ele>500.050941</ele>
        <time>2021-11-07T17:22:16.953Z</time>
      </trkpt>
      <trkpt lat="47.572468" lon="7.995163">
        <ele>500.931937</ele>
        <time>2021-11-07T17:22:29.839Z</time>
      </trkpt>
      <trkpt lat="47.572460" lon="7.995058">
        <ele>500.943892</ele>
        <time>2021-11-07T17:22:31.090Z</time>
      </trkpt>
      <trkpt lat="47.572368" lon="7.994372">
        <ele>501.023027</ele>
        <time>2021-11-07T17:22:38.841Z</time>
      </trkpt>
      <trkpt lat="47.572249" lon="7.994022">
        <ele>501.067372</ele>
        <time>2021-11-07T17:22:42.995Z</time>
      </trkpt>
      <trkpt lat="47.572207" lon="7.993915">
        <ele>501.081378</ele>
        <time>2021-11-07T17:22:44.220Z</time>
      </trkpt>
      <trkpt lat="47.572062" lon="7.993506">
        <ele>501.133655</ele>
        <time>2021-11-07T17:22:48.773Z</time>
      </trkpt>
      <trkpt lat="47.571990" lon="7.993258">
        <ele>501.164202</ele>
        <time>2021-11-07T17:22:51.209Z</time>
      </trkpt>
      <trkpt lat="47.571883" lon="7.992565">
        <ele>501.136568</ele>
        <time>2021-11-07T17:22:57.563Z</time>
      </trkpt>
      <trkpt lat="47.571712" lon="7.990384">
        <ele>500.687733</ele>
        <time>2021-11-07T17:23:17.175Z</time>
      </trkpt>
      <trkpt lat="47.571710" lon="7.989958">
        <ele>500.797631</ele>
        <time>2021-11-07T17:23:21.884Z</time>
      </trkpt>
      <trkpt lat="47.571711" lon="7.989669">
        <ele>500.930862</ele>
        <time>2021-11-07T17:23:25.483Z</time>
      </trkpt>
      <trkpt lat="47.571580" lon="7.989167">
        <ele>501.178993</ele>
        <time>2021-11-07T17:23:32.276Z</time>
      </trkpt>
      <trkpt lat="47.571208" lon="7.988246">
        <ele>501.673851</ele>
        <time>2021-11-07T17:23:46.676Z</time>
      </trkpt>
      <trkpt lat="47.571180" lon="7.987989">
        <ele>501.793865</ele>
        <time>2021-11-07T17:23:50.376Z</time>
      </trkpt>
      <trkpt lat="47.571168" lon="7.987874">
        <ele>501.847511</ele>
        <time>2021-11-07T17:23:52.406Z</time>
      </trkpt>
      <trkpt lat="47.571268" lon="7.987105">
        <ele>500.457680</ele>
        <time>2021-11-07T17:23:59.553Z</time>
      </trkpt>
      <trkpt lat="47.571515" lon="7.986697">
        <ele>499.320609</ele>
        <time>2021-11-07T17:24:03.567Z</time>
      </trkpt>
      <trkpt lat="47.571904" lon="7.986414">
        <ele>497.988328</ele>
        <time>2021-11-07T17:24:07.905Z</time>
      </trkpt>
      <trkpt lat="47.572042" lon="7.986160">
        <ele>497.311867</ele>
        <time>2021-11-07T17:24:10.041Z</time>
      </trkpt>
      <trkpt lat="47.571967" lon="7.986077">
        <ele>497.024098</ele>
        <time>2021-11-07T17:24:10.882Z</time>
      </trkpt>
      <trkpt lat="47.571694" lon="7.985779">
        <ele>495.024282</ele>
        <time>2021-11-07T17:24:13.945Z</time>
      </trkpt>
      <trkpt lat="47.571104" lon="7.985841">
        <ele>488.606096</ele>
        <time>2021-11-07T17:24:19.176Z</time>
      </trkpt>
      <trkpt lat="47.570598" lon="7.985658">
        <ele>482.954380</ele>
        <time>2021-11-07T17:24:23.557Z</time>
      </trkpt>
      <trkpt lat="47.570188" lon="7.985852">
        <ele>478.284246</ele>
        <time>2021-11-07T17:24:27.142Z</time>
      </trkpt>
      <trkpt lat="47.569899" lon="7.986324">
        <ele>473.038237</ele>
        <time>2021-11-07T17:24:30.746Z</time>
      </trkpt>
      <trkpt lat="47.569781" lon="7.986268">
        <ele>471.452149</ele>
        <time>2021-11-07T17:24:31.791Z</time>
      </trkpt>
      <trkpt lat="47.569720" lon="7.986239">
        <ele>470.632088</ele>
        <time>2021-11-07T17:24:32.324Z</time>
      </trkpt>
      <trkpt lat="47.569544" lon="7.985948">
        <ele>467.256744</ele>
        <time>2021-11-07T17:24:34.540Z</time>
      </trkpt>
      <trkpt lat="47.569441" lon="7.985823">
        <ele>465.552608</ele>
        <time>2021-11-07T17:24:35.643Z</time>
      </trkpt>
      <trkpt lat="47.569224" lon="7.985557">
        <ele>461.947790</ele>
        <time>2021-11-07T17:24:38.018Z</time>
      </trkpt>
      <trkpt lat="47.568880" lon="7.985270">
        <ele>456.894434</ele>
        <time>2021-11-07T17:24:41.329Z</time>
      </trkpt>
      <trkpt lat="47.567629" lon="7.984321">
        <ele>443.206423</ele>
        <time>2021-11-07T17:24:53.386Z</time>
      </trkpt>
      <trkpt lat="47.567590" lon="7.984165">
        <ele>442.183994</ele>
        <time>2021-11-07T17:24:54.398Z</time>
      </trkpt>
      <trkpt lat="47.567683" lon="7.983121">
        <ele>436.289151</ele>
        <time>2021-11-07T17:25:00.862Z</time>
      </trkpt>
      <trkpt lat="47.567696" lon="7.982527">
        <ele>433.859752</ele>
        <time>2021-11-07T17:25:04.518Z</time>
      </trkpt>
      <trkpt lat="47.567624" lon="7.981800">
        <ele>430.856115</ele>
        <time>2021-11-07T17:25:09.064Z</time>
      </trkpt>
      <trkpt lat="47.567665" lon="7.981438">
        <ele>429.355647</ele>
        <time>2021-11-07T17:25:11.373Z</time>
      </trkpt>
      <trkpt lat="47.567912" lon="7.980981">
        <ele>426.962092</ele>
        <time>2021-11-07T17:25:15.027Z</time>
      </trkpt>
      <trkpt lat="47.567933" lon="7.980942">
        <ele>426.758126</ele>
        <time>2021-11-07T17:25:15.318Z</time>
      </trkpt>
      <trkpt lat="47.567985" lon="7.980685">
        <ele>425.724959</ele>
        <time>2021-11-07T17:25:17.005Z</time>
      </trkpt>
      <trkpt lat="47.568061" lon="7.979013">
        <ele>419.371654</ele>
        <time>2021-11-07T17:25:27.429Z</time>
      </trkpt>
      <trkpt lat="47.568118" lon="7.978684">
        <ele>418.083876</ele>
        <time>2021-11-07T17:25:29.543Z</time>
      </trkpt>
      <trkpt lat="47.568567" lon="7.977498">
        <ele>411.581642</ele>
        <time>2021-11-07T17:25:38.254Z</time>
      </trkpt>
      <trkpt lat="47.568631" lon="7.977178">
        <ele>409.830012</ele>
        <time>2021-11-07T17:25:40.256Z</time>
      </trkpt>
      <trkpt lat="47.568704" lon="7.977054">
        <ele>408.966345</ele>
        <time>2021-11-07T17:25:41.438Z</time>
      </trkpt>
      <trkpt lat="47.568987" lon="7.976683">
        <ele>406.027530</ele>
        <time>2021-11-07T17:25:44.745Z</time>
      </trkpt>
      <trkpt lat="47.569048" lon="7.976403">
        <ele>404.483360</ele>
        <time>2021-11-07T17:25:46.414Z</time>
      </trkpt>
      <trkpt lat="47.568939" lon="7.976270">
        <ele>403.385163</ele>
        <time>2021-11-07T17:25:47.623Z</time>
      </trkpt>
      <trkpt lat="47.568748" lon="7.976336">
        <ele>401.460444</ele>
        <time>2021-11-07T17:25:49.280Z</time>
      </trkpt>
      <trkpt lat="47.568519" lon="7.976515">
        <ele>398.063976</ele>
        <time>2021-11-07T17:25:51.480Z</time>
      </trkpt>
      <trkpt lat="47.568316" lon="7.976569">
        <ele>395.358253</ele>
        <time>2021-11-07T17:25:53.202Z</time>
      </trkpt>
      <trkpt lat="47.568107" lon="7.976469">
        <ele>392.477033</ele>
        <time>2021-11-07T17:25:55.086Z</time>
      </trkpt>
      <trkpt lat="47.567987" lon="7.976370">
        <ele>390.675285</ele>
        <time>2021-11-07T17:25:56.224Z</time>
      </trkpt>
      <trkpt lat="47.567801" lon="7.976285">
        <ele>388.121778</ele>
        <time>2021-11-07T17:25:57.888Z</time>
      </trkpt>
      <trkpt lat="47.567627" lon="7.976382">
        <ele>385.682924</ele>
        <time>2021-11-07T17:25:59.422Z</time>
      </trkpt>
      <trkpt lat="47.567497" lon="7.976495">
        <ele>383.705771</ele>
        <time>2021-11-07T17:26:00.699Z</time>
      </trkpt>
      <trkpt lat="47.567340" lon="7.976629">
        <ele>381.328958</ele>
        <time>2021-11-07T17:26:02.187Z</time>
      </trkpt>
      <trkpt lat="47.567134" lon="7.976669">
        <ele>378.613355</ele>
        <time>2021-11-07T17:26:03.966Z</time>
      </trkpt>
      <trkpt lat="47.566939" lon="7.976573">
        <ele>376.029649</ele>
        <time>2021-11-07T17:26:05.660Z</time>
      </trkpt>
      <trkpt lat="47.566852" lon="7.976458">
        <ele>374.563806</ele>
        <time>2021-11-07T17:26:06.633Z</time>
      </trkpt>
      <trkpt lat="47.566673" lon="7.975768">
        <ele>368.291922</ele>
        <time>2021-11-07T17:26:10.780Z</time>
      </trkpt>
      <trkpt lat="47.566542" lon="7.975527">
        <ele>365.666253</ele>
        <time>2021-11-07T17:26:12.532Z</time>
      </trkpt>
      <trkpt lat="47.566200" lon="7.975405">
        <ele>361.243057</ele>
        <time>2021-11-07T17:26:15.551Z</time>
      </trkpt>
      <trkpt lat="47.565964" lon="7.975378">
        <ele>358.266715</ele>
        <time>2021-11-07T17:26:17.627Z</time>
      </trkpt>
      <trkpt lat="47.565867" lon="7.975381">
        <ele>357.046751</ele>
        <time>2021-11-07T17:26:18.433Z</time>
      </trkpt>
      <trkpt lat="47.565200" lon="7.975372">
        <ele>350.462485</ele>
        <time>2021-11-07T17:26:24.191Z</time>
      </trkpt>
      <trkpt lat="47.564852" lon="7.975095">
        <ele>346.678760</ele>
        <time>2021-11-07T17:26:27.584Z</time>
      </trkpt>
      <trkpt lat="47.563511" lon="7.973794">
        <ele>331.499387</ele>
        <time>2021-11-07T17:26:41.565Z</time>
      </trkpt>
      <trkpt lat="47.563140" lon="7.973536">
        <ele>327.662501</ele>
        <time>2021-11-07T17:26:45.113Z</time>
      </trkpt>
      <trkpt lat="47.563057" lon="7.973484">
        <ele>326.818829</ele>
        <time>2021-11-07T17:26:45.892Z</time>
      </trkpt>
      <trkpt lat="47.562835" lon="7.973351">
        <ele>324.576948</ele>
        <time>2021-11-07T17:26:47.956Z</time>
      </trkpt>
      <trkpt lat="47.562624" lon="7.973211">
        <ele>322.412507</ele>
        <time>2021-11-07T17:26:49.960Z</time>
      </trkpt>
      <trkpt lat="47.562482" lon="7.973084">
        <ele>320.875007</ele>
        <time>2021-11-07T17:26:51.393Z</time>
      </trkpt>
      <trkpt lat="47.562391" lon="7.972987">
        <ele>319.837888</ele>
        <time>2021-11-07T17:26:52.346Z</time>
      </trkpt>
      <trkpt lat="47.562270" lon="7.972880">
        <ele>318.534215</ele>
        <time>2021-11-07T17:26:53.561Z</time>
      </trkpt>
      <trkpt lat="47.562270" lon="7.972880">
        <ele>318.534215</ele>
        <time>2021-11-07T17:26:53.571Z</time>
      </trkpt>
      <trkpt lat="47.562247" lon="7.972843">
        <ele>318.220137</ele>
        <time>2021-11-07T17:26:53.854Z</time>
      </trkpt>
      <trkpt lat="47.562063" lon="7.972426">
        <ele>315.109502</ele>
        <time>2021-11-07T17:26:56.746Z</time>
      </trkpt>
      <trkpt lat="47.561984" lon="7.972078">
        <ele>312.817190</ele>
        <time>2021-11-07T17:26:58.865Z</time>
      </trkpt>
      <trkpt lat="47.561959" lon="7.971806">
        <ele>311.103337</ele>
        <time>2021-11-07T17:27:00.472Z</time>
      </trkpt>
      <trkpt lat="47.561856" lon="7.971566">
        <ele>309.327576</ele>
        <time>2021-11-07T17:27:02.112Z</time>
      </trkpt>
      <trkpt lat="47.561716" lon="7.971255">
        <ele>306.993507</ele>
        <time>2021-11-07T17:27:04.378Z</time>
      </trkpt>
      <trkpt lat="47.561682" lon="7.971192">
        <ele>306.489857</ele>
        <time>2021-11-07T17:27:04.844Z</time>
      </trkpt>
      <trkpt lat="47.561534" lon="7.970899">
        <ele>304.877977</ele>
        <time>2021-11-07T17:27:07.072Z</time>
      </trkpt>
      <trkpt lat="47.561319" lon="7.970293">
        <ele>302.793931</ele>
        <time>2021-11-07T17:27:11.425Z</time>
      </trkpt>
      <trkpt lat="47.561300" lon="7.970209">
        <ele>302.524257</ele>
        <time>2021-11-07T17:27:11.941Z</time>
      </trkpt>
      <trkpt lat="47.561250" lon="7.969992">
        <ele>301.826275</ele>
        <time>2021-11-07T17:27:13.553Z</time>
      </trkpt>
      <trkpt lat="47.561207" lon="7.969794">
        <ele>301.193128</ele>
        <time>2021-11-07T17:27:14.940Z</time>
      </trkpt>
      <trkpt lat="47.561077" lon="7.969584">
        <ele>300.325661</ele>
        <time>2021-11-07T17:27:16.766Z</time>
      </trkpt>
      <trkpt lat="47.561012" lon="7.969521">
        <ele>299.975309</ele>
        <time>2021-11-07T17:27:17.587Z</time>
      </trkpt>
      <trkpt lat="47.561075" lon="7.969222">
        <ele>299.021828</ele>
        <time>2021-11-07T17:27:19.591Z</time>
      </trkpt>
      <trkpt lat="47.561101" lon="7.969103">
        <ele>298.641083</ele>
        <time>2021-11-07T17:27:20.474Z</time>
      </trkpt>
      <trkpt lat="47.561113" lon="7.969048">
        <ele>298.465132</ele>
        <time>2021-11-07T17:27:20.885Z</time>
      </trkpt>
      <trkpt lat="47.561146" lon="7.968816">
        <ele>297.743415</ele>
        <time>2021-11-07T17:27:22.563Z</time>
      </trkpt>
      <trkpt lat="47.561165" lon="7.968686">
        <ele>297.375352</ele>
        <time>2021-11-07T17:27:23.470Z</time>
      </trkpt>
      <trkpt lat="47.561196" lon="7.968420">
        <ele>297.009279</ele>
        <time>2021-11-07T17:27:25.708Z</time>
      </trkpt>
      <trkpt lat="47.561199" lon="7.968395">
        <ele>296.974844</ele>
        <time>2021-11-07T17:27:25.918Z</time>
      </trkpt>
      <trkpt lat="47.561236" lon="7.967223">
        <ele>295.383710</ele>
        <time>2021-11-07T17:27:35.002Z</time>
      </trkpt>
      <trkpt lat="47.561237" lon="7.967177">
        <ele>295.321296</ele>
        <time>2021-11-07T17:27:35.306Z</time>
      </trkpt>
      <trkpt lat="47.561251" lon="7.966549">
        <ele>294.469176</ele>
        <time>2021-11-07T17:27:39.991Z</time>
      </trkpt>
      <trkpt lat="47.561266" lon="7.965598">
        <ele>293.248916</ele>
        <time>2021-11-07T17:27:46.875Z</time>
      </trkpt>
      <trkpt lat="47.561250" lon="7.965305">
        <ele>292.895789</ele>
        <time>2021-11-07T17:27:49.018Z</time>
      </trkpt>
      <trkpt lat="47.561199" lon="7.964939">
        <ele>292.446842</ele>
        <time>2021-11-07T17:27:51.706Z</time>
      </trkpt>
      <trkpt lat="47.561111" lon="7.964529">
        <ele>291.930001</ele>
        <time>2021-11-07T17:27:54.962Z</time>
      </trkpt>
      <trkpt lat="47.561093" lon="7.964433">
        <ele>291.810308</ele>
        <time>2021-11-07T17:27:55.738Z</time>
      </trkpt>
      <trkpt lat="47.561035" lon="7.964188">
        <ele>291.498406</ele>
        <time>2021-11-07T17:27:57.782Z</time>
      </trkpt>
      <trkpt lat="47.561001" lon="7.964043">
        <ele>291.314002</ele>
        <time>2021-11-07T17:27:58.972Z</time>
      </trkpt>
      <trkpt lat="47.560931" lon="7.963733">
        <ele>290.921305</ele>
        <time>2021-11-07T17:28:01.610Z</time>
      </trkpt>
      <trkpt lat="47.560919" lon="7.963679">
        <ele>290.853008</ele>
        <time>2021-11-07T17:28:02.046Z</time>
      </trkpt>
      <trkpt lat="47.560851" lon="7.963377">
        <ele>290.555772</ele>
        <time>2021-11-07T17:28:04.583Z</time>
      </trkpt>
      <trkpt lat="47.560812" lon="7.963211">
        <ele>290.497460</ele>
        <time>2021-11-07T17:28:05.985Z</time>
      </trkpt>
      <trkpt lat="47.560771" lon="7.963029">
        <ele>290.433806</ele>
        <time>2021-11-07T17:28:07.476Z</time>
      </trkpt>
      <trkpt lat="47.560496" lon="7.961725">
        <ele>289.980571</ele>
        <time>2021-11-07T17:28:19.677Z</time>
      </trkpt>
      <trkpt lat="47.560385" lon="7.961242">
        <ele>289.811298</ele>
        <time>2021-11-07T17:28:24.736Z</time>
      </trkpt>
      <trkpt lat="47.560345" lon="7.961067">
        <ele>289.750001</ele>
        <time>2021-11-07T17:28:26.542Z</time>
      </trkpt>
      <trkpt lat="47.560357" lon="7.960950">
        <ele>289.710740</ele>
        <time>2021-11-07T17:28:27.740Z</time>
      </trkpt>
      <trkpt lat="47.560290" lon="7.960677">
        <ele>289.755550</ele>
        <time>2021-11-07T17:28:30.797Z</time>
      </trkpt>
      <trkpt lat="47.560252" lon="7.960649">
        <ele>289.767537</ele>
        <time>2021-11-07T17:28:31.404Z</time>
      </trkpt>
      <trkpt lat="47.559783" lon="7.958508">
        <ele>290.196565</ele>
        <time>2021-11-07T17:28:56.027Z</time>
      </trkpt>
      <trkpt lat="47.559715" lon="7.958231">
        <ele>290.264165</ele>
        <time>2021-11-07T17:28:59.242Z</time>
      </trkpt>
      <trkpt lat="47.559673" lon="7.958042">
        <ele>290.312731</ele>
        <time>2021-11-07T17:29:01.195Z</time>
      </trkpt>
      <trkpt lat="47.559665" lon="7.958004">
        <ele>290.322447</ele>
        <time>2021-11-07T17:29:01.900Z</time>
      </trkpt>
      <trkpt lat="47.559567" lon="7.957668">
        <ele>290.411788</ele>
        <time>2021-11-07T17:29:05.842Z</time>
      </trkpt>
      <trkpt lat="47.559506" lon="7.957457">
        <ele>290.467815</ele>
        <time>2021-11-07T17:29:08.480Z</time>
      </trkpt>
      <trkpt lat="47.559491" lon="7.957404">
        <ele>290.481842</ele>
        <time>2021-11-07T17:29:09.118Z</time>
      </trkpt>
      <trkpt lat="47.559249" lon="7.956674">
        <ele>290.680355</ele>
        <time>2021-11-07T17:29:18.048Z</time>
      </trkpt>
      <trkpt lat="47.558915" lon="7.955819">
        <ele>290.920332</ele>
        <time>2021-11-07T17:29:29.155Z</time>
      </trkpt>
      <trkpt lat="47.558601" lon="7.954714">
        <ele>291.207252</ele>
        <time>2021-11-07T17:29:41.328Z</time>
      </trkpt>
      <trkpt lat="47.558477" lon="7.954170">
        <ele>291.344660</ele>
        <time>2021-11-07T17:29:47.520Z</time>
      </trkpt>
      <trkpt lat="47.558440" lon="7.954011">
        <ele>291.384908</ele>
        <time>2021-11-07T17:29:49.420Z</time>
      </trkpt>
      <trkpt lat="47.558404" lon="7.953880">
        <ele>291.418757</ele>
        <time>2021-11-07T17:29:50.977Z</time>
      </trkpt>
      <trkpt lat="47.558342" lon="7.953593">
        <ele>291.490871</ele>
        <time>2021-11-07T17:29:54.480Z</time>
      </trkpt>
      <trkpt lat="47.558267" lon="7.953258">
        <ele>291.863914</ele>
        <time>2021-11-07T17:29:58.651Z</time>
      </trkpt>
      <trkpt lat="47.558259" lon="7.953198">
        <ele>291.934923</ele>
        <time>2021-11-07T17:29:59.497Z</time>
      </trkpt>
      <trkpt lat="47.558243" lon="7.952923">
        <ele>292.255396</ele>
        <time>2021-11-07T17:30:03.028Z</time>
      </trkpt>
      <trkpt lat="47.558235" lon="7.952506">
        <ele>292.739750</ele>
        <time>2021-11-07T17:30:08.788Z</time>
      </trkpt>
      <trkpt lat="47.558237" lon="7.951803">
        <ele>293.555975</ele>
        <time>2021-11-07T17:30:19.239Z</time>
      </trkpt>
      <trkpt lat="47.558233" lon="7.951204">
        <ele>294.251478</ele>
        <time>2021-11-07T17:30:29.010Z</time>
      </trkpt>
      <trkpt lat="47.558230" lon="7.951089">
        <ele>294.385098</ele>
        <time>2021-11-07T17:30:31.117Z</time>
      </trkpt>
      <trkpt lat="47.558213" lon="7.950700">
        <ele>294.919973</ele>
        <time>2021-11-07T17:30:37.665Z</time>
      </trkpt>
      <trkpt lat="47.558189" lon="7.950493">
        <ele>295.246489</ele>
        <time>2021-11-07T17:30:41.512Z</time>
      </trkpt>
      <trkpt lat="47.558144" lon="7.950185">
        <ele>295.736397</ele>
        <time>2021-11-07T17:30:46.925Z</time>
      </trkpt>
      <trkpt lat="47.558088" lon="7.949755">
        <ele>296.417208</ele>
        <time>2021-11-07T17:30:54.735Z</time>
      </trkpt>
      <trkpt lat="47.558048" lon="7.949508">
        <ele>296.812095</ele>
        <time>2021-11-07T17:30:59.459Z</time>
      </trkpt>
      <trkpt lat="47.558012" lon="7.949057">
        <ele>297.518106</ele>
        <time>2021-11-07T17:31:06.942Z</time>
      </trkpt>
      <trkpt lat="47.557949" lon="7.947676">
        <ele>298.869163</ele>
        <time>2021-11-07T17:31:26.621Z</time>
      </trkpt>
      <trkpt lat="47.557939" lon="7.947500">
        <ele>298.907713</ele>
        <time>2021-11-07T17:31:28.775Z</time>
      </trkpt>
      <trkpt lat="47.557921" lon="7.947342">
        <ele>298.942686</ele>
        <time>2021-11-07T17:31:30.695Z</time>
      </trkpt>
      <trkpt lat="47.557921" lon="7.947342">
        <ele>298.942686</ele>
        <time>2021-11-07T17:31:30.736Z</time>
      </trkpt>
      <trkpt lat="47.557921" lon="7.947342">
        <ele>298.942686</ele>
        <time>2021-11-07T17:31:30.843Z</time>
      </trkpt>
      <trkpt lat="47.557885" lon="7.947164">
        <ele>298.983244</ele>
        <time>2021-11-07T17:31:32.531Z</time>
      </trkpt>
      <trkpt lat="47.557838" lon="7.946982">
        <ele>299.025777</ele>
        <time>2021-11-07T17:31:34.518Z</time>
      </trkpt>
      <trkpt lat="47.557770" lon="7.946815">
        <ele>299.068348</ele>
        <time>2021-11-07T17:31:36.396Z</time>
      </trkpt>
      <trkpt lat="47.557681" lon="7.946618">
        <ele>299.120092</ele>
        <time>2021-11-07T17:31:38.505Z</time>
      </trkpt>
      <trkpt lat="47.557536" lon="7.946344">
        <ele>299.196091</ele>
        <time>2021-11-07T17:31:41.831Z</time>
      </trkpt>
      <trkpt lat="47.557422" lon="7.946114">
        <ele>299.258377</ele>
        <time>2021-11-07T17:31:44.510Z</time>
      </trkpt>
      <trkpt lat="47.557371" lon="7.946013">
        <ele>299.285910</ele>
        <time>2021-11-07T17:31:45.819Z</time>
      </trkpt>
      <trkpt lat="47.557315" lon="7.945902">
        <ele>299.316159</ele>
        <time>2021-11-07T17:31:47.051Z</time>
      </trkpt>
      <trkpt lat="47.557274" lon="7.945819">
        <ele>299.297144</ele>
        <time>2021-11-07T17:31:47.969Z</time>
      </trkpt>
      <trkpt lat="47.557196" lon="7.945663">
        <ele>299.244552</ele>
        <time>2021-11-07T17:31:49.935Z</time>
      </trkpt>
      <trkpt lat="47.557110" lon="7.945492">
        <ele>299.186783</ele>
        <time>2021-11-07T17:31:51.900Z</time>
      </trkpt>
      <trkpt lat="47.556999" lon="7.945268">
        <ele>299.111505</ele>
        <time>2021-11-07T17:31:54.326Z</time>
      </trkpt>
      <trkpt lat="47.556919" lon="7.945110">
        <ele>299.057998</ele>
        <time>2021-11-07T17:31:56.021Z</time>
      </trkpt>
      <trkpt lat="47.556830" lon="7.944931">
        <ele>298.997771</ele>
        <time>2021-11-07T17:31:57.875Z</time>
      </trkpt>
      <trkpt lat="47.556650" lon="7.944566">
        <ele>298.875313</ele>
        <time>2021-11-07T17:32:01.848Z</time>
      </trkpt>
      <trkpt lat="47.556439" lon="7.944137">
        <ele>298.731516</ele>
        <time>2021-11-07T17:32:06.672Z</time>
      </trkpt>
      <trkpt lat="47.556345" lon="7.943946">
        <ele>298.667481</ele>
        <time>2021-11-07T17:32:08.854Z</time>
      </trkpt>
      <trkpt lat="47.556302" lon="7.943858">
        <ele>298.638050</ele>
        <time>2021-11-07T17:32:09.901Z</time>
      </trkpt>
      <trkpt lat="47.556288" lon="7.943830">
        <ele>298.628610</ele>
        <time>2021-11-07T17:32:10.255Z</time>
      </trkpt>
      <trkpt lat="47.556069" lon="7.943386">
        <ele>298.543645</ele>
        <time>2021-11-07T17:32:15.816Z</time>
      </trkpt>
      <trkpt lat="47.555911" lon="7.943042">
        <ele>298.491806</ele>
        <time>2021-11-07T17:32:20.218Z</time>
      </trkpt>
      <trkpt lat="47.555828" lon="7.942869">
        <ele>298.465363</ele>
        <time>2021-11-07T17:32:22.543Z</time>
      </trkpt>
      <trkpt lat="47.555765" lon="7.942732">
        <ele>298.444710</ele>
        <time>2021-11-07T17:32:24.255Z</time>
      </trkpt>
      <trkpt lat="47.555711" lon="7.942617">
        <ele>298.427257</ele>
        <time>2021-11-07T17:32:25.645Z</time>
      </trkpt>
      <trkpt lat="47.555633" lon="7.942436">
        <ele>298.400503</ele>
        <time>2021-11-07T17:32:27.767Z</time>
      </trkpt>
      <trkpt lat="47.555530" lon="7.942195">
        <ele>298.364965</ele>
        <time>2021-11-07T17:32:30.330Z</time>
      </trkpt>
      <trkpt lat="47.555494" lon="7.942104">
        <ele>298.351824</ele>
        <time>2021-11-07T17:32:31.277Z</time>
      </trkpt>
      <trkpt lat="47.555456" lon="7.942017">
        <ele>298.338914</ele>
        <time>2021-11-07T17:32:32.207Z</time>
      </trkpt>
      <trkpt lat="47.555313" lon="7.941663">
        <ele>298.287516</ele>
        <time>2021-11-07T17:32:35.711Z</time>
      </trkpt>
      <trkpt lat="47.555223" lon="7.941452">
        <ele>298.236674</ele>
        <time>2021-11-07T17:32:37.954Z</time>
      </trkpt>
      <trkpt lat="47.554981" lon="7.940858">
        <ele>297.974329</ele>
        <time>2021-11-07T17:32:44.248Z</time>
      </trkpt>
      <trkpt lat="47.554831" lon="7.940510">
        <ele>297.818201</ele>
        <time>2021-11-07T17:32:48.122Z</time>
      </trkpt>
      <trkpt lat="47.554786" lon="7.940407">
        <ele>297.771807</ele>
        <time>2021-11-07T17:32:49.199Z</time>
      </trkpt>
      <trkpt lat="47.554653" lon="7.940102">
        <ele>297.634506</ele>
        <time>2021-11-07T17:32:52.482Z</time>
      </trkpt>
      <trkpt lat="47.554446" lon="7.939644">
        <ele>297.426086</ele>
        <time>2021-11-07T17:32:57.290Z</time>
      </trkpt>
      <trkpt lat="47.554321" lon="7.939364">
        <ele>297.299149</ele>
        <time>2021-11-07T17:33:00.154Z</time>
      </trkpt>
      <trkpt lat="47.554246" lon="7.939196">
        <ele>297.226143</ele>
        <time>2021-11-07T17:33:01.846Z</time>
      </trkpt>
      <trkpt lat="47.554109" lon="7.938885">
        <ele>297.098226</ele>
        <time>2021-11-07T17:33:04.989Z</time>
      </trkpt>
      <trkpt lat="47.553978" lon="7.938519">
        <ele>296.955534</ele>
        <time>2021-11-07T17:33:08.500Z</time>
      </trkpt>
      <trkpt lat="47.553909" lon="7.938319">
        <ele>296.878169</ele>
        <time>2021-11-07T17:33:10.431Z</time>
      </trkpt>
      <trkpt lat="47.553848" lon="7.938105">
        <ele>296.798156</ele>
        <time>2021-11-07T17:33:12.546Z</time>
      </trkpt>
      <trkpt lat="47.553805" lon="7.937948">
        <ele>296.739797</ele>
        <time>2021-11-07T17:33:14.083Z</time>
      </trkpt>
      <trkpt lat="47.553775" lon="7.937797">
        <ele>296.685581</ele>
        <time>2021-11-07T17:33:15.471Z</time>
      </trkpt>
      <trkpt lat="47.553769" lon="7.937764">
        <ele>296.673810</ele>
        <time>2021-11-07T17:33:15.786Z</time>
      </trkpt>
      <trkpt lat="47.553744" lon="7.937573">
        <ele>296.606797</ele>
        <time>2021-11-07T17:33:17.643Z</time>
      </trkpt>
      <trkpt lat="47.553727" lon="7.937367">
        <ele>296.535316</ele>
        <time>2021-11-07T17:33:19.549Z</time>
      </trkpt>
      <trkpt lat="47.553724" lon="7.937134">
        <ele>296.455048</ele>
        <time>2021-11-07T17:33:21.717Z</time>
      </trkpt>
      <trkpt lat="47.553732" lon="7.936945">
        <ele>296.389823</ele>
        <time>2021-11-07T17:33:23.510Z</time>
      </trkpt>
      <trkpt lat="47.553732" lon="7.936945">
        <ele>296.389823</ele>
        <time>2021-11-07T17:33:23.513Z</time>
      </trkpt>
      <trkpt lat="47.553754" lon="7.936703">
        <ele>296.332419</ele>
        <time>2021-11-07T17:33:25.750Z</time>
      </trkpt>
      <trkpt lat="47.553763" lon="7.936585">
        <ele>296.322924</ele>
        <time>2021-11-07T17:33:26.879Z</time>
      </trkpt>
      <trkpt lat="47.553712" lon="7.936520">
        <ele>296.314954</ele>
        <time>2021-11-07T17:33:27.837Z</time>
      </trkpt>
      <trkpt lat="47.553680" lon="7.936493">
        <ele>296.310591</ele>
        <time>2021-11-07T17:33:28.360Z</time>
      </trkpt>
      <trkpt lat="47.553579" lon="7.936483">
        <ele>296.298598</ele>
        <time>2021-11-07T17:33:29.759Z</time>
      </trkpt>
      <trkpt lat="47.553468" lon="7.936486">
        <ele>296.285445</ele>
        <time>2021-11-07T17:33:31.351Z</time>
      </trkpt>
      <trkpt lat="47.553364" lon="7.936511">
        <ele>296.272963</ele>
        <time>2021-11-07T17:33:32.907Z</time>
      </trkpt>
      <trkpt lat="47.553216" lon="7.936481">
        <ele>296.255265</ele>
        <time>2021-11-07T17:33:35.213Z</time>
      </trkpt>
      <trkpt lat="47.553130" lon="7.936464">
        <ele>296.244986</ele>
        <time>2021-11-07T17:33:36.592Z</time>
      </trkpt>
      <trkpt lat="47.553015" lon="7.936441">
        <ele>296.231238</ele>
        <time>2021-11-07T17:33:38.498Z</time>
      </trkpt>
      <trkpt lat="47.552921" lon="7.936425">
        <ele>296.220028</ele>
        <time>2021-11-07T17:33:40.123Z</time>
      </trkpt>
      <trkpt lat="47.552791" lon="7.936403">
        <ele>296.204526</ele>
        <time>2021-11-07T17:33:41.965Z</time>
      </trkpt>
      <trkpt lat="47.552493" lon="7.936374">
        <ele>296.169145</ele>
        <time>2021-11-07T17:33:46.439Z</time>
      </trkpt>
      <trkpt lat="47.552311" lon="7.936357">
        <ele>296.147539</ele>
        <time>2021-11-07T17:33:48.962Z</time>
      </trkpt>
      <trkpt lat="47.551926" lon="7.936360">
        <ele>295.739849</ele>
        <time>2021-11-07T17:33:54.315Z</time>
      </trkpt>
      <trkpt lat="47.551730" lon="7.936373">
        <ele>295.386187</ele>
        <time>2021-11-07T17:33:56.924Z</time>
      </trkpt>
      <trkpt lat="47.551599" lon="7.936386">
        <ele>295.149518</ele>
        <time>2021-11-07T17:33:58.607Z</time>
      </trkpt>
      <trkpt lat="47.551477" lon="7.936401">
        <ele>294.928845</ele>
        <time>2021-11-07T17:33:59.966Z</time>
      </trkpt>
      <trkpt lat="47.551303" lon="7.936435">
        <ele>294.612478</ele>
        <time>2021-11-07T17:34:01.897Z</time>
      </trkpt>
      <trkpt lat="47.550607" lon="7.936694">
        <ele>293.318905</ele>
        <time>2021-11-07T17:34:09.584Z</time>
      </trkpt>
      <trkpt lat="47.550221" lon="7.936962">
        <ele>292.320383</ele>
        <time>2021-11-07T17:34:13.950Z</time>
      </trkpt>
      <trkpt lat="47.550098" lon="7.937070">
        <ele>291.885447</ele>
        <time>2021-11-07T17:34:15.334Z</time>
      </trkpt>
      <trkpt lat="47.549970" lon="7.937189">
        <ele>291.425763</ele>
        <time>2021-11-07T17:34:16.907Z</time>
      </trkpt>
      <trkpt lat="47.549970" lon="7.937189">
        <ele>291.425763</ele>
        <time>2021-11-07T17:34:16.914Z</time>
      </trkpt>
      <trkpt lat="47.549714" lon="7.937478">
        <ele>290.446713</ele>
        <time>2021-11-07T17:34:20.174Z</time>
      </trkpt>
      <trkpt lat="47.549404" lon="7.937916">
        <ele>289.143632</ele>
        <time>2021-11-07T17:34:24.514Z</time>
      </trkpt>
      <trkpt lat="47.549329" lon="7.938041">
        <ele>288.800235</ele>
        <time>2021-11-07T17:34:25.624Z</time>
      </trkpt>
      <trkpt lat="47.549168" lon="7.938309">
        <ele>288.063586</ele>
        <time>2021-11-07T17:34:28.120Z</time>
      </trkpt>
      <trkpt lat="47.549055" lon="7.938483">
        <ele>287.567809</ele>
        <time>2021-11-07T17:34:29.726Z</time>
      </trkpt>
      <trkpt lat="47.548679" lon="7.939412">
        <ele>286.644889</ele>
        <time>2021-11-07T17:34:37.819Z</time>
      </trkpt>
      <trkpt lat="47.548592" lon="7.939666">
        <ele>286.427674</ele>
        <time>2021-11-07T17:34:40.229Z</time>
      </trkpt>
      <trkpt lat="47.548585" lon="7.939688">
        <ele>286.409127</ele>
        <time>2021-11-07T17:34:40.426Z</time>
      </trkpt>
      <trkpt lat="47.548563" lon="7.939753">
        <ele>286.353674</ele>
        <time>2021-11-07T17:34:41.004Z</time>
      </trkpt>
      <trkpt lat="47.548509" lon="7.939765">
        <ele>286.291981</ele>
        <time>2021-11-07T17:34:41.618Z</time>
      </trkpt>
      <trkpt lat="47.548479" lon="7.939789">
        <ele>286.253460</ele>
        <time>2021-11-07T17:34:42.020Z</time>
      </trkpt>
      <trkpt lat="47.548455" lon="7.939823">
        <ele>286.215942</ele>
        <time>2021-11-07T17:34:42.436Z</time>
      </trkpt>
      <trkpt lat="47.548437" lon="7.939866">
        <ele>286.177356</ele>
        <time>2021-11-07T17:34:42.864Z</time>
      </trkpt>
      <trkpt lat="47.548426" lon="7.939924">
        <ele>286.131412</ele>
        <time>2021-11-07T17:34:43.391Z</time>
      </trkpt>
      <trkpt lat="47.548427" lon="7.939957">
        <ele>286.106220</ele>
        <time>2021-11-07T17:34:43.715Z</time>
      </trkpt>
      <trkpt lat="47.548446" lon="7.940038">
        <ele>286.040826</ele>
        <time>2021-11-07T17:34:44.478Z</time>
      </trkpt>
      <trkpt lat="47.548468" lon="7.940081">
        <ele>285.999678</ele>
        <time>2021-11-07T17:34:44.990Z</time>
      </trkpt>
      <trkpt lat="47.548420" lon="7.940256">
        <ele>285.855624</ele>
        <time>2021-11-07T17:34:46.638Z</time>
      </trkpt>
      <trkpt lat="47.548303" lon="7.940599">
        <ele>285.562545</ele>
        <time>2021-11-07T17:34:50.571Z</time>
      </trkpt>
      <trkpt lat="47.548195" lon="7.940950">
        <ele>285.425546</ele>
        <time>2021-11-07T17:34:54.557Z</time>
      </trkpt>
      <trkpt lat="47.547961" lon="7.941764">
        <ele>285.687900</ele>
        <time>2021-11-07T17:35:04.116Z</time>
      </trkpt>
      <trkpt lat="47.547852" lon="7.942144">
        <ele>285.810333</ele>
        <time>2021-11-07T17:35:09.011Z</time>
      </trkpt>
      <trkpt lat="47.547772" lon="7.942416">
        <ele>285.898314</ele>
        <time>2021-11-07T17:35:12.626Z</time>
      </trkpt>
      <trkpt lat="47.547436" lon="7.943731">
        <ele>286.274767</ele>
        <time>2021-11-07T17:35:28.866Z</time>
      </trkpt>
      <trkpt lat="47.547297" lon="7.944159">
        <ele>286.375881</ele>
        <time>2021-11-07T17:35:34.224Z</time>
      </trkpt>
      <trkpt lat="47.547246" lon="7.944330">
        <ele>286.415680</ele>
        <time>2021-11-07T17:35:36.406Z</time>
      </trkpt>
      <trkpt lat="47.547178" lon="7.944456">
        <ele>286.450023</ele>
        <time>2021-11-07T17:35:38.189Z</time>
      </trkpt>
      <trkpt lat="47.547134" lon="7.944545">
        <ele>286.473509</ele>
        <time>2021-11-07T17:35:39.257Z</time>
      </trkpt>
      <trkpt lat="47.546764" lon="7.945239">
        <ele>286.661781</ele>
        <time>2021-11-07T17:35:48.118Z</time>
      </trkpt>
      <trkpt lat="47.546516" lon="7.946289">
        <ele>287.731874</ele>
        <time>2021-11-07T17:36:00.089Z</time>
      </trkpt>
      <trkpt lat="47.546519" lon="7.946567">
        <ele>288.100100</ele>
        <time>2021-11-07T17:36:03.620Z</time>
      </trkpt>
      <trkpt lat="47.546565" lon="7.946721">
        <ele>288.323133</ele>
        <time>2021-11-07T17:36:06.132Z</time>
      </trkpt>
      <trkpt lat="47.546592" lon="7.946809">
        <ele>288.451154</ele>
        <time>2021-11-07T17:36:07.509Z</time>
      </trkpt>
      <trkpt lat="47.546633" lon="7.946946">
        <ele>288.649628</ele>
        <time>2021-11-07T17:36:09.762Z</time>
      </trkpt>
      <trkpt lat="47.546648" lon="7.947009">
        <ele>288.738103</ele>
        <time>2021-11-07T17:36:10.728Z</time>
      </trkpt>
      <trkpt lat="47.546651" lon="7.947115">
        <ele>288.878610</ele>
        <time>2021-11-07T17:36:12.516Z</time>
      </trkpt>
      <trkpt lat="47.546572" lon="7.947545">
        <ele>289.468812</ele>
        <time>2021-11-07T17:36:19.931Z</time>
      </trkpt>
      <trkpt lat="47.546159" lon="7.949303">
        <ele>293.464179</ele>
        <time>2021-11-07T17:36:58.697Z</time>
      </trkpt>
      <trkpt lat="47.545949" lon="7.950185">
        <ele>295.840463</ele>
        <time>2021-11-07T17:37:19.008Z</time>
      </trkpt>
      <trkpt lat="47.545884" lon="7.950363">
        <ele>296.354660</ele>
        <time>2021-11-07T17:37:22.996Z</time>
      </trkpt>
      <trkpt lat="47.545822" lon="7.950627">
        <ele>297.045570</ele>
        <time>2021-11-07T17:37:28.426Z</time>
      </trkpt>
      <trkpt lat="47.545810" lon="7.950694">
        <ele>297.093384</ele>
        <time>2021-11-07T17:37:29.571Z</time>
      </trkpt>
      <trkpt lat="47.545763" lon="7.950733">
        <ele>297.148434</ele>
        <time>2021-11-07T17:37:31.121Z</time>
      </trkpt>
      <trkpt lat="47.545659" lon="7.950771">
        <ele>297.257896</ele>
        <time>2021-11-07T17:37:33.491Z</time>
      </trkpt>
      <trkpt lat="47.545625" lon="7.950771">
        <ele>297.292640</ele>
        <time>2021-11-07T17:37:34.418Z</time>
      </trkpt>
      <trkpt lat="47.545567" lon="7.950765">
        <ele>297.352054</ele>
        <time>2021-11-07T17:37:35.882Z</time>
      </trkpt>
      <trkpt lat="47.545494" lon="7.950684">
        <ele>297.445257</ele>
        <time>2021-11-07T17:37:37.977Z</time>
      </trkpt>
      <trkpt lat="47.545434" lon="7.950668">
        <ele>297.507556</ele>
        <time>2021-11-07T17:37:39.458Z</time>
      </trkpt>
      <trkpt lat="47.545166" lon="7.950366">
        <ele>297.851647</ele>
        <time>2021-11-07T17:37:46.201Z</time>
      </trkpt>
      <trkpt lat="47.544952" lon="7.950106">
        <ele>298.134469</ele>
        <time>2021-11-07T17:37:50.998Z</time>
      </trkpt>
      <trkpt lat="47.544901" lon="7.950044">
        <ele>298.201886</ele>
        <time>2021-11-07T17:37:51.860Z</time>
      </trkpt>
      <trkpt lat="47.544560" lon="7.949608">
        <ele>298.662190</ele>
        <time>2021-11-07T17:37:57.994Z</time>
      </trkpt>
      <trkpt lat="47.544521" lon="7.949558">
        <ele>298.714895</ele>
        <time>2021-11-07T17:37:58.594Z</time>
      </trkpt>
      <trkpt lat="47.544239" lon="7.949202">
        <ele>299.080403</ele>
        <time>2021-11-07T17:38:03.563Z</time>
      </trkpt>
      <trkpt lat="47.543864" lon="7.948694">
        <ele>299.568328</ele>
        <time>2021-11-07T17:38:11.634Z</time>
      </trkpt>
      <trkpt lat="47.543760" lon="7.948548">
        <ele>299.705905</ele>
        <time>2021-11-07T17:38:13.830Z</time>
      </trkpt>
      <trkpt lat="47.543579" lon="7.948287">
        <ele>299.948442</ele>
        <time>2021-11-07T17:38:19.480Z</time>
      </trkpt>
      <trkpt lat="47.543532" lon="7.948214">
        <ele>300.013829</ele>
        <time>2021-11-07T17:38:20.630Z</time>
      </trkpt>
      <trkpt lat="47.543435" lon="7.948000">
        <ele>300.180907</ele>
        <time>2021-11-07T17:38:23.549Z</time>
      </trkpt>
      <trkpt lat="47.543407" lon="7.947938">
        <ele>300.229257</ele>
        <time>2021-11-07T17:38:25.407Z</time>
      </trkpt>
      <trkpt lat="47.543280" lon="7.947656">
        <ele>300.448986</ele>
        <time>2021-11-07T17:38:29.893Z</time>
      </trkpt>
      <trkpt lat="47.543142" lon="7.947250">
        <ele>300.999826</ele>
        <time>2021-11-07T17:38:37.353Z</time>
      </trkpt>
      <trkpt lat="47.543086" lon="7.947052">
        <ele>301.393340</ele>
        <time>2021-11-07T17:38:40.773Z</time>
      </trkpt>
      <trkpt lat="47.543056" lon="7.946935">
        <ele>301.622759</ele>
        <time>2021-11-07T17:38:43.608Z</time>
      </trkpt>
      <trkpt lat="47.543045" lon="7.946881">
        <ele>301.726153</ele>
        <time>2021-11-07T17:38:44.763Z</time>
      </trkpt>
      <trkpt lat="47.542982" lon="7.946547">
        <ele>302.361846</ele>
        <time>2021-11-07T17:38:50.143Z</time>
      </trkpt>
      <trkpt lat="47.542974" lon="7.946495">
        <ele>302.459609</ele>
        <time>2021-11-07T17:38:51.784Z</time>
      </trkpt>
      <trkpt lat="47.542960" lon="7.946400">
        <ele>302.637851</ele>
        <time>2021-11-07T17:38:53.850Z</time>
      </trkpt>
      <trkpt lat="47.542916" lon="7.945730">
        <ele>303.871800</ele>
        <time>2021-11-07T17:39:06.513Z</time>
      </trkpt>
      <trkpt lat="47.542913" lon="7.945267">
        <ele>304.720546</ele>
        <time>2021-11-07T17:39:15.011Z</time>
      </trkpt>
      <trkpt lat="47.542962" lon="7.944529">
        <ele>305.669387</ele>
        <time>2021-11-07T17:39:26.836Z</time>
      </trkpt>
      <trkpt lat="47.543007" lon="7.943867">
        <ele>306.043623</ele>
        <time>2021-11-07T17:39:36.256Z</time>
      </trkpt>
      <trkpt lat="47.543161" lon="7.942213">
        <ele>306.982748</ele>
        <time>2021-11-07T17:39:54.876Z</time>
      </trkpt>
      <trkpt lat="47.543376" lon="7.941000">
        <ele>306.042944</ele>
        <time>2021-11-07T17:40:05.232Z</time>
      </trkpt>
      <trkpt lat="47.543435" lon="7.940670">
        <ele>305.784812</ele>
        <time>2021-11-07T17:40:07.926Z</time>
      </trkpt>
      <trkpt lat="47.543826" lon="7.939433">
        <ele>304.608974</ele>
        <time>2021-11-07T17:40:18.459Z</time>
      </trkpt>
      <trkpt lat="47.544460" lon="7.937961">
        <ele>302.428769</ele>
        <time>2021-11-07T17:40:31.482Z</time>
      </trkpt>
      <trkpt lat="47.544472" lon="7.937932">
        <ele>302.386297</ele>
        <time>2021-11-07T17:40:31.698Z</time>
      </trkpt>
      <trkpt lat="47.544705" lon="7.937395">
        <ele>301.596377</ele>
        <time>2021-11-07T17:40:36.555Z</time>
      </trkpt>
      <trkpt lat="47.544903" lon="7.936917">
        <ele>300.986431</ele>
        <time>2021-11-07T17:40:40.803Z</time>
      </trkpt>
      <trkpt lat="47.545074" lon="7.936484">
        <ele>300.440832</ele>
        <time>2021-11-07T17:40:44.586Z</time>
      </trkpt>
      <trkpt lat="47.545457" lon="7.935110">
        <ele>298.824099</ele>
        <time>2021-11-07T17:40:55.878Z</time>
      </trkpt>
      <trkpt lat="47.545674" lon="7.933625">
        <ele>298.626426</ele>
        <time>2021-11-07T17:41:08.959Z</time>
      </trkpt>
      <trkpt lat="47.545702" lon="7.933290">
        <ele>298.598408</ele>
        <time>2021-11-07T17:41:12.539Z</time>
      </trkpt>
      <trkpt lat="47.545724" lon="7.932758">
        <ele>298.554167</ele>
        <time>2021-11-07T17:41:18.805Z</time>
      </trkpt>
      <trkpt lat="47.545721" lon="7.931992">
        <ele>299.063597</ele>
        <time>2021-11-07T17:41:28.845Z</time>
      </trkpt>
      <trkpt lat="47.545696" lon="7.931497">
        <ele>299.699470</ele>
        <time>2021-11-07T17:41:36.050Z</time>
      </trkpt>
      <trkpt lat="47.545661" lon="7.930955">
        <ele>300.396949</ele>
        <time>2021-11-07T17:41:44.745Z</time>
      </trkpt>
      <trkpt lat="47.545563" lon="7.929641">
        <ele>301.938118</ele>
        <time>2021-11-07T17:42:07.085Z</time>
      </trkpt>
      <trkpt lat="47.545475" lon="7.928419">
        <ele>301.929963</ele>
        <time>2021-11-07T17:42:23.391Z</time>
      </trkpt>
      <trkpt lat="47.545421" lon="7.927686">
        <ele>301.925070</ele>
        <time>2021-11-07T17:42:29.497Z</time>
      </trkpt>
      <trkpt lat="47.545406" lon="7.927306">
        <ele>301.922544</ele>
        <time>2021-11-07T17:42:32.400Z</time>
      </trkpt>
      <trkpt lat="47.545407" lon="7.927001">
        <ele>301.671860</ele>
        <time>2021-11-07T17:42:34.687Z</time>
      </trkpt>
      <trkpt lat="47.545409" lon="7.926773">
        <ele>301.133429</ele>
        <time>2021-11-07T17:42:36.316Z</time>
      </trkpt>
      <trkpt lat="47.545409" lon="7.926773">
        <ele>301.133429</ele>
        <time>2021-11-07T17:42:36.479Z</time>
      </trkpt>
      <trkpt lat="47.545409" lon="7.926773">
        <ele>301.133429</ele>
        <time>2021-11-07T17:42:36.901Z</time>
      </trkpt>
      <trkpt lat="47.545417" lon="7.925848">
        <ele>298.949011</ele>
        <time>2021-11-07T17:42:43.235Z</time>
      </trkpt>
      <trkpt lat="47.545446" lon="7.925350">
        <ele>297.768697</ele>
        <time>2021-11-07T17:42:46.527Z</time>
      </trkpt>
      <trkpt lat="47.545466" lon="7.924880">
        <ele>296.656666</ele>
        <time>2021-11-07T17:42:49.580Z</time>
      </trkpt>
      <trkpt lat="47.545481" lon="7.924396">
        <ele>295.541179</ele>
        <time>2021-11-07T17:42:52.664Z</time>
      </trkpt>
      <trkpt lat="47.545521" lon="7.923709">
        <ele>294.312556</ele>
        <time>2021-11-07T17:42:57.189Z</time>
      </trkpt>
      <trkpt lat="47.545536" lon="7.923407">
        <ele>293.773006</ele>
        <time>2021-11-07T17:42:59.337Z</time>
      </trkpt>
      <trkpt lat="47.545553" lon="7.923142">
        <ele>293.298709</ele>
        <time>2021-11-07T17:43:01.168Z</time>
      </trkpt>
      <trkpt lat="47.545587" lon="7.922895">
        <ele>292.849554</ele>
        <time>2021-11-07T17:43:03.102Z</time>
      </trkpt>
      <trkpt lat="47.545641" lon="7.922610">
        <ele>292.322124</ele>
        <time>2021-11-07T17:43:05.247Z</time>
      </trkpt>
      <trkpt lat="47.545690" lon="7.922369">
        <ele>291.873661</ele>
        <time>2021-11-07T17:43:07.253Z</time>
      </trkpt>
      <trkpt lat="47.545699" lon="7.922325">
        <ele>291.791743</ele>
        <time>2021-11-07T17:43:07.547Z</time>
      </trkpt>
      <trkpt lat="47.545714" lon="7.922249">
        <ele>291.650659</ele>
        <time>2021-11-07T17:43:08.135Z</time>
      </trkpt>
      <trkpt lat="47.545778" lon="7.921947">
        <ele>291.086670</ele>
        <time>2021-11-07T17:43:10.829Z</time>
      </trkpt>
      <trkpt lat="47.545810" lon="7.921755">
        <ele>290.851091</ele>
        <time>2021-11-07T17:43:12.313Z</time>
      </trkpt>
      <trkpt lat="47.545881" lon="7.921096">
        <ele>290.606505</ele>
        <time>2021-11-07T17:43:17.784Z</time>
      </trkpt>
      <trkpt lat="47.545913" lon="7.920765">
        <ele>290.483952</ele>
        <time>2021-11-07T17:43:20.741Z</time>
      </trkpt>
      <trkpt lat="47.545973" lon="7.920313">
        <ele>290.315118</ele>
        <time>2021-11-07T17:43:25.187Z</time>
      </trkpt>
      <trkpt lat="47.546067" lon="7.919888">
        <ele>290.151203</ele>
        <time>2021-11-07T17:43:29.413Z</time>
      </trkpt>
      <trkpt lat="47.546128" lon="7.919617">
        <ele>290.046503</ele>
        <time>2021-11-07T17:43:32.533Z</time>
      </trkpt>
      <trkpt lat="47.546258" lon="7.919096">
        <ele>289.848740</ele>
        <time>2021-11-07T17:43:38.448Z</time>
      </trkpt>
      <trkpt lat="47.546262" lon="7.919081">
        <ele>289.843385</ele>
        <time>2021-11-07T17:43:38.550Z</time>
      </trkpt>
      <trkpt lat="47.546821" lon="7.916867">
        <ele>289.058575</ele>
        <time>2021-11-07T17:43:59.220Z</time>
      </trkpt>
      <trkpt lat="47.547032" lon="7.916218">
        <ele>288.926111</ele>
        <time>2021-11-07T17:44:05.528Z</time>
      </trkpt>
      <trkpt lat="47.547091" lon="7.916039">
        <ele>288.895153</ele>
        <time>2021-11-07T17:44:07.302Z</time>
      </trkpt>
      <trkpt lat="47.547113" lon="7.915971">
        <ele>288.883433</ele>
        <time>2021-11-07T17:44:07.892Z</time>
      </trkpt>
      <trkpt lat="47.547423" lon="7.915080">
        <ele>288.727648</ele>
        <time>2021-11-07T17:44:17.379Z</time>
      </trkpt>
      <trkpt lat="47.547994" lon="7.913433">
        <ele>289.113040</ele>
        <time>2021-11-07T17:44:37.083Z</time>
      </trkpt>
      <trkpt lat="47.548027" lon="7.913334">
        <ele>289.165469</ele>
        <time>2021-11-07T17:44:38.442Z</time>
      </trkpt>
      <trkpt lat="47.548412" lon="7.912168">
        <ele>289.781825</ele>
        <time>2021-11-07T17:44:54.846Z</time>
      </trkpt>
      <trkpt lat="47.549012" lon="7.910340">
        <ele>291.296157</ele>
        <time>2021-11-07T17:45:21.800Z</time>
      </trkpt>
      <trkpt lat="47.549102" lon="7.910058">
        <ele>291.537147</ele>
        <time>2021-11-07T17:45:25.972Z</time>
      </trkpt>
      <trkpt lat="47.549195" lon="7.909756">
        <ele>291.793597</ele>
        <time>2021-11-07T17:45:30.211Z</time>
      </trkpt>
      <trkpt lat="47.549232" lon="7.909631">
        <ele>291.899045</ele>
        <time>2021-11-07T17:45:32.088Z</time>
      </trkpt>
      <trkpt lat="47.549343" lon="7.909265">
        <ele>292.260333</ele>
        <time>2021-11-07T17:45:37.181Z</time>
      </trkpt>
      <trkpt lat="47.549520" lon="7.908678">
        <ele>292.848321</ele>
        <time>2021-11-07T17:45:45.482Z</time>
      </trkpt>
      <trkpt lat="47.549539" lon="7.908625">
        <ele>292.903205</ele>
        <time>2021-11-07T17:45:46.207Z</time>
      </trkpt>
      <trkpt lat="47.550022" lon="7.907077">
        <ele>294.598601</ele>
        <time>2021-11-07T17:46:08.470Z</time>
      </trkpt>
      <trkpt lat="47.550179" lon="7.906576">
        <ele>295.819566</ele>
        <time>2021-11-07T17:46:19.002Z</time>
      </trkpt>
      <trkpt lat="47.550497" lon="7.905558">
        <ele>298.299083</ele>
        <time>2021-11-07T17:46:40.936Z</time>
      </trkpt>
      <trkpt lat="47.550283" lon="7.905413">
        <ele>299.069737</ele>
        <time>2021-11-07T17:46:49.102Z</time>
      </trkpt>
      <trkpt lat="47.550067" lon="7.905245">
        <ele>299.868678</ele>
        <time>2021-11-07T17:46:57.791Z</time>
      </trkpt>
      <trkpt lat="47.549867" lon="7.905155">
        <ele>300.609264</ele>
        <time>2021-11-07T17:47:05.424Z</time>
      </trkpt>
      <trkpt lat="47.549868" lon="7.905010">
        <ele>300.990570</ele>
        <time>2021-11-07T17:47:08.868Z</time>
      </trkpt>
      <trkpt lat="47.550025" lon="7.904774">
        <ele>301.861915</ele>
        <time>2021-11-07T17:47:17.097Z</time>
      </trkpt>
      <trkpt lat="47.550302" lon="7.904164">
        <ele>303.795176</ele>
        <time>2021-11-07T17:47:35.481Z</time>
      </trkpt>
      <trkpt lat="47.550498" lon="7.903445">
        <ele>305.834190</ele>
        <time>2021-11-07T17:47:55.053Z</time>
      </trkpt>
      <trkpt lat="47.550688" lon="7.902451">
        <ele>308.592525</ele>
        <time>2021-11-07T17:48:17.601Z</time>
      </trkpt>
      <trkpt lat="47.550757" lon="7.901591">
        <ele>310.943860</ele>
        <time>2021-11-07T17:48:38.286Z</time>
      </trkpt>
      <trkpt lat="47.550769" lon="7.901362">
        <ele>311.567464</ele>
        <time>2021-11-07T17:48:44.337Z</time>
      </trkpt>
      <trkpt lat="47.550801" lon="7.900244">
        <ele>314.603487</ele>
        <time>2021-11-07T17:49:09.014Z</time>
      </trkpt>
      <trkpt lat="47.550807" lon="7.899610">
        <ele>316.291208</ele>
        <time>2021-11-07T17:49:23.424Z</time>
      </trkpt>
      <trkpt lat="47.550819" lon="7.898109">
        <ele>320.286787</ele>
        <time>2021-11-07T17:49:56.069Z</time>
      </trkpt>
      <trkpt lat="47.550648" lon="7.896481">
        <ele>322.859529</ele>
        <time>2021-11-07T17:50:22.634Z</time>
      </trkpt>
      <trkpt lat="47.550639" lon="7.896345">
        <ele>323.009096</ele>
        <time>2021-11-07T17:50:24.953Z</time>
      </trkpt>
      <trkpt lat="47.550660" lon="7.896255">
        <ele>323.113322</ele>
        <time>2021-11-07T17:50:25.734Z</time>
      </trkpt>
      <trkpt lat="47.550767" lon="7.895809">
        <ele>323.631394</ele>
        <time>2021-11-07T17:50:32.172Z</time>
      </trkpt>
      <trkpt lat="47.550838" lon="7.895509">
        <ele>323.979347</ele>
        <time>2021-11-07T17:50:35.781Z</time>
      </trkpt>
      <trkpt lat="47.550878" lon="7.895158">
        <ele>324.368955</ele>
        <time>2021-11-07T17:50:39.847Z</time>
      </trkpt>
      <trkpt lat="47.550908" lon="7.894308">
        <ele>325.465701</ele>
        <time>2021-11-07T17:50:50.322Z</time>
      </trkpt>
      <trkpt lat="47.550892" lon="7.893176">
        <ele>326.963935</ele>
        <time>2021-11-07T17:51:05.022Z</time>
      </trkpt>
      <trkpt lat="47.550904" lon="7.891725">
        <ele>330.404852</ele>
        <time>2021-11-07T17:51:34.784Z</time>
      </trkpt>
      <trkpt lat="47.550915" lon="7.890600">
        <ele>334.565281</ele>
        <time>2021-11-07T17:52:03.624Z</time>
      </trkpt>
      <trkpt lat="47.550833" lon="7.889069">
        <ele>340.534355</ele>
        <time>2021-11-07T17:52:46.257Z</time>
      </trkpt>
      <trkpt lat="47.550831" lon="7.888611">
        <ele>342.436650</ele>
        <time>2021-11-07T17:52:58.827Z</time>
      </trkpt>
      <trkpt lat="47.550789" lon="7.887816">
        <ele>345.748701</ele>
        <time>2021-11-07T17:53:19.439Z</time>
      </trkpt>
      <trkpt lat="47.550758" lon="7.887295">
        <ele>347.921015</ele>
        <time>2021-11-07T17:53:33.261Z</time>
      </trkpt>
      <trkpt lat="47.550677" lon="7.886476">
        <ele>350.991352</ele>
        <time>2021-11-07T17:53:54.749Z</time>
      </trkpt>
      <trkpt lat="47.550548" lon="7.885799">
        <ele>353.465508</ele>
        <time>2021-11-07T17:54:11.953Z</time>
      </trkpt>
      <trkpt lat="47.550391" lon="7.885109">
        <ele>356.026515</ele>
        <time>2021-11-07T17:54:29.590Z</time>
      </trkpt>
      <trkpt lat="47.550332" lon="7.884727">
        <ele>357.404788</ele>
        <time>2021-11-07T17:54:38.280Z</time>
      </trkpt>
      <trkpt lat="47.550234" lon="7.883221">
        <ele>361.460782</ele>
        <time>2021-11-07T17:55:11.112Z</time>
      </trkpt>
      <trkpt lat="47.549927" lon="7.881490">
        <ele>366.022123</ele>
        <time>2021-11-07T17:55:43.376Z</time>
      </trkpt>
      <trkpt lat="47.549726" lon="7.880786">
        <ele>368.098225</ele>
        <time>2021-11-07T17:55:59.186Z</time>
      </trkpt>
      <trkpt lat="47.549327" lon="7.879547">
        <ele>371.826779</ele>
        <time>2021-11-07T17:56:29.130Z</time>
      </trkpt>
      <trkpt lat="47.549318" lon="7.879398">
        <ele>372.233084</ele>
        <time>2021-11-07T17:56:32.311Z</time>
      </trkpt>
      <trkpt lat="47.549199" lon="7.879393">
        <ele>372.629513</ele>
        <time>2021-11-07T17:56:36.593Z</time>
      </trkpt>
      <trkpt lat="47.549140" lon="7.879391">
        <ele>372.825124</ele>
        <time>2021-11-07T17:56:39.189Z</time>
      </trkpt>
      <trkpt lat="47.548919" lon="7.879321">
        <ele>373.574198</ele>
        <time>2021-11-07T17:56:46.161Z</time>
      </trkpt>
      <trkpt lat="47.548718" lon="7.879258">
        <ele>374.255173</ele>
        <time>2021-11-07T17:56:52.860Z</time>
      </trkpt>
      <trkpt lat="47.548422" lon="7.878959">
        <ele>375.442628</ele>
        <time>2021-11-07T17:57:03.507Z</time>
      </trkpt>
      <trkpt lat="47.548234" lon="7.878638">
        <ele>376.393441</ele>
        <time>2021-11-07T17:57:11.924Z</time>
      </trkpt>
      <trkpt lat="47.547992" lon="7.877974">
        <ele>378.081695</ele>
        <time>2021-11-07T17:57:25.031Z</time>
      </trkpt>
      <trkpt lat="47.547574" lon="7.876801">
        <ele>377.305163</ele>
        <time>2021-11-07T17:57:38.279Z</time>
      </trkpt>
      <trkpt lat="47.547126" lon="7.875801">
        <ele>376.455358</ele>
        <time>2021-11-07T17:57:47.179Z</time>
      </trkpt>
      <trkpt lat="47.546890" lon="7.875324">
        <ele>374.944818</ele>
        <time>2021-11-07T17:57:51.109Z</time>
      </trkpt>
      <trkpt lat="47.546539" lon="7.874618">
        <ele>371.919333</ele>
        <time>2021-11-07T17:57:56.821Z</time>
      </trkpt>
      <trkpt lat="47.546309" lon="7.874154">
        <ele>369.932980</ele>
        <time>2021-11-07T17:58:00.414Z</time>
      </trkpt>
      <trkpt lat="47.546135" lon="7.873859">
        <ele>368.581222</ele>
        <time>2021-11-07T17:58:02.795Z</time>
      </trkpt>
      <trkpt lat="47.546077" lon="7.873763">
        <ele>368.136666</ele>
        <time>2021-11-07T17:58:03.609Z</time>
      </trkpt>
      <trkpt lat="47.545934" lon="7.873549">
        <ele>367.088042</ele>
        <time>2021-11-07T17:58:05.416Z</time>
      </trkpt>
      <trkpt lat="47.545746" lon="7.873302">
        <ele>365.337934</ele>
        <time>2021-11-07T17:58:07.728Z</time>
      </trkpt>
      <trkpt lat="47.545515" lon="7.873015">
        <ele>363.238181</ele>
        <time>2021-11-07T17:58:10.424Z</time>
      </trkpt>
      <trkpt lat="47.545478" lon="7.872968">
        <ele>362.898724</ele>
        <time>2021-11-07T17:58:10.863Z</time>
      </trkpt>
      <trkpt lat="47.545375" lon="7.872836">
        <ele>361.950183</ele>
        <time>2021-11-07T17:58:12.048Z</time>
      </trkpt>
      <trkpt lat="47.545131" lon="7.872664">
        <ele>360.068199</ele>
        <time>2021-11-07T17:58:14.500Z</time>
      </trkpt>
      <trkpt lat="47.545131" lon="7.872664">
        <ele>360.068199</ele>
        <time>2021-11-07T17:58:14.502Z</time>
      </trkpt>
      <trkpt lat="47.544883" lon="7.872555">
        <ele>358.266517</ele>
        <time>2021-11-07T17:58:16.828Z</time>
      </trkpt>
      <trkpt lat="47.544390" lon="7.872423">
        <ele>354.777243</ele>
        <time>2021-11-07T17:58:21.290Z</time>
      </trkpt>
      <trkpt lat="47.543332" lon="7.872237">
        <ele>348.785992</ele>
        <time>2021-11-07T17:58:31.058Z</time>
      </trkpt>
      <trkpt lat="47.543251" lon="7.872152">
        <ele>348.231116</ele>
        <time>2021-11-07T17:58:31.999Z</time>
      </trkpt>
      <trkpt lat="47.543233" lon="7.872082">
        <ele>347.948463</ele>
        <time>2021-11-07T17:58:32.419Z</time>
      </trkpt>
      <trkpt lat="47.543233" lon="7.872082">
        <ele>347.948463</ele>
        <time>2021-11-07T17:58:32.445Z</time>
      </trkpt>
      <trkpt lat="47.543233" lon="7.872082">
        <ele>347.948463</ele>
        <time>2021-11-07T17:58:32.449Z</time>
      </trkpt>
      <trkpt lat="47.543013" lon="7.872182">
        <ele>346.662089</ele>
        <time>2021-11-07T17:58:34.690Z</time>
      </trkpt>
      <trkpt lat="47.542919" lon="7.872226">
        <ele>346.111029</ele>
        <time>2021-11-07T17:58:35.609Z</time>
      </trkpt>
      <trkpt lat="47.542814" lon="7.872280">
        <ele>345.489722</ele>
        <time>2021-11-07T17:58:36.664Z</time>
      </trkpt>
      <trkpt lat="47.542714" lon="7.872334">
        <ele>344.894748</ele>
        <time>2021-11-07T17:58:37.752Z</time>
      </trkpt>
      <trkpt lat="47.542537" lon="7.872430">
        <ele>344.542596</ele>
        <time>2021-11-07T17:58:39.484Z</time>
      </trkpt>
      <trkpt lat="47.542436" lon="7.872494">
        <ele>344.542596</ele>
        <time>2021-11-07T17:58:40.846Z</time>
      </trkpt>
      <trkpt lat="47.542394" lon="7.872341">
        <ele>344.542596</ele>
        <time>2021-11-07T17:58:41.941Z</time>
      </trkpt>
      <trkpt lat="47.542218" lon="7.871866">
        <ele>344.542596</ele>
        <time>2021-11-07T17:58:45.766Z</time>
      </trkpt>
      <trkpt lat="47.542091" lon="7.871721">
        <ele>344.542596</ele>
        <time>2021-11-07T17:58:47.359Z</time>
      </trkpt>
      <trkpt lat="47.542067" lon="7.871664">
        <ele>344.542596</ele>
        <time>2021-11-07T17:58:48.355Z</time>
      </trkpt>
      <trkpt lat="47.542039" lon="7.871556">
        <ele>344.542596</ele>
        <time>2021-11-07T17:58:49.407Z</time>
      </trkpt>
      <trkpt lat="47.541953" lon="7.871286">
        <ele>344.542596</ele>
        <time>2021-11-07T17:58:51.706Z</time>
      </trkpt>
      <trkpt lat="47.541796" lon="7.871042">
        <ele>344.542596</ele>
        <time>2021-11-07T17:58:54.760Z</time>
      </trkpt>
      <trkpt lat="47.541576" lon="7.870664">
        <ele>344.542596</ele>
        <time>2021-11-07T17:58:59.026Z</time>
      </trkpt>
      <trkpt lat="47.541550" lon="7.870601">
        <ele>344.542596</ele>
        <time>2021-11-07T17:58:59.571Z</time>
      </trkpt>
      <trkpt lat="47.541521" lon="7.870517">
        <ele>344.542596</ele>
        <time>2021-11-07T17:59:00.291Z</time>
      </trkpt>
      <trkpt lat="47.541435" lon="7.870228">
        <ele>344.542596</ele>
        <time>2021-11-07T17:59:04.022Z</time>
      </trkpt>
      <trkpt lat="47.541384" lon="7.869938">
        <ele>344.542596</ele>
        <time>2021-11-07T17:59:06.581Z</time>
      </trkpt>
      <trkpt lat="47.541383" lon="7.869901">
        <ele>344.542596</ele>
        <time>2021-11-07T17:59:07.306Z</time>
      </trkpt>
    </trkseg>
  </trk>
</gpx>